Darstellungsparameter: Aktuell verwendete Einstellungen:
Skalierung der Graphiken ... ?
xyx+y,   Skalierungsfaktor:      Skalierung: Modus: x, Faktor: 1
Darstellungszeitraum ... ?
Vom - - bis: - -   Zeitraum: 06.05.2008 - 05.08.2008
Min/Max/Avg-Anzeige ... ?
Zeige MMA aktuell
Zeige MMA Monat
Zeige MMA alles
Zeige --A aktuell
Zeige --A Monat
Zeige --A alles
Keine MMA-Anzeige
MMA:
Average (ber die Originaldaten)
MMA-Basis: 17.04.2019 - 19.05.2019
Quicknavigation für Darstellung... ?
Tage:      1T, 2T, 3T, 5T -1T -2T -3T -5T +1T +2T +3T +5T
Wochen: 1W, 2W, 3W -1W -2W -3W +1W +2W +3W
Monate: 1M, 3M, 6M -1M -3M -6M +1M +3M +6M
Jahre:    1J, 3J, 5J, 10J -1J -3J -5J -10J +1J +3J +5J +10J
Nutze für die Darstellung ... ?
Originaldaten oder Mittelwerte auf ...
Stundenbasis Tagesbasis Wochenbasis
Monatsbasis Jahresbasis      Datenbasis: Original-Daten
Darstellen als:
Statistik (Auto) Statistik J:M      Darstellung:
Zur Graphik,    zurück zur Übersicht aller Sensoren.
 
Tabellarische Datenbersicht: ?
 
Sensor: Nr:Datum:Temp:Abs-Feuchte:Windchill:Wind:
Aussen-T/F 1 06-05-2008 00:05:03 14 C 6.88 g/m*3 14 C 0 km/h
2 06-05-2008 00:17:03 13.7 C 7.1 g/m*3 13.7 C 0 km/h
3 06-05-2008 00:29:03 13.4 C 7.09 g/m*3 13.4 C 0 km/h
4 06-05-2008 00:41:03 13.1 C 7.07 g/m*3 13.1 C 0 km/h
5 06-05-2008 00:53:03 12.9 C 7.1 g/m*3 12.9 C 0 km/h
6 06-05-2008 01:05:03 12.7 C 7.01 g/m*3 12.7 C 0 km/h
7 06-05-2008 01:17:03 12.5 C 7.15 g/m*3 12.5 C 0 km/h
8 06-05-2008 01:29:03 12.3 C 7.06 g/m*3 12.3 C 0 km/h
9 06-05-2008 01:41:03 12.1 C 7.08 g/m*3 12.1 C 0 km/h
10 06-05-2008 01:53:03 12 C 7.14 g/m*3 12 C 0 km/h
11 06-05-2008 02:05:03 11.8 C 7.26 g/m*3 11.8 C 0 km/h
12 06-05-2008 02:17:03 11.8 C 7.26 g/m*3 11.8 C 0 km/h
13 06-05-2008 02:29:03 11.5 C 7.23 g/m*3 11.5 C 0 km/h
14 06-05-2008 02:41:03 11.3 C 7.24 g/m*3 11.3 C 0 km/h
15 06-05-2008 02:53:03 11.2 C 7.3 g/m*3 11.2 C 0 km/h
16 06-05-2008 03:05:03 11 C 7.31 g/m*3 11 C 0 km/h
17 06-05-2008 03:17:03 10.7 C 7.27 g/m*3 10.7 C 0 km/h
18 06-05-2008 03:29:03 10.7 C 7.37 g/m*3 10.7 C 0 km/h
19 06-05-2008 03:41:03 10.6 C 7.22 g/m*3 10.6 C 0 km/h
20 06-05-2008 03:53:04 10.4 C 7.13 g/m*3 10.4 C 0 km/h
21 06-05-2008 04:05:04 10.2 C 7.23 g/m*3 10.2 C 0 km/h
22 06-05-2008 04:17:04 10.1 C 7.28 g/m*3 10.1 C 0 km/h
23 06-05-2008 04:29:04 9.9 C 7.19 g/m*3 9.9 C 0 km/h
24 06-05-2008 04:41:04 9.9 C 7.28 g/m*3 9.9 C 0 km/h
25 06-05-2008 04:53:04 9.8 C 7.24 g/m*3 9.8 C 0 km/h
Sensor: Nr:Datum:Temp:Abs-Feuchte:Windchill:Wind:
Aussen-T/F 26 06-05-2008 05:05:04 9.7 C 7.28 g/m*3 9.7 C 0 km/h
27 06-05-2008 05:17:04 9.6 C 7.24 g/m*3 9.6 C 0 km/h
28 06-05-2008 05:29:04 9.4 C 7.15 g/m*3 9.4 C 0 km/h
29 06-05-2008 05:41:04 9.3 C 7.1 g/m*3 9.3 C 0 km/h
30 06-05-2008 05:53:04 9.2 C 7.05 g/m*3 9.2 C 0 km/h
31 06-05-2008 06:05:04 9.1 C 7.01 g/m*3 9.1 C 0 km/h
32 06-05-2008 06:17:04 9.1 C 7.1 g/m*3 9.1 C 0 km/h
33 06-05-2008 06:29:04 9.1 C 7.1 g/m*3 9.1 C 0 km/h
34 06-05-2008 06:41:04 9.1 C 7.1 g/m*3 9.1 C 0 km/h
35 06-05-2008 06:53:04 9.1 C 7.1 g/m*3 9.1 C 0 km/h
36 06-05-2008 07:05:04 9.2 C 7.14 g/m*3 9.2 C 0 km/h
37 06-05-2008 07:17:02 9.4 C 7.24 g/m*3 9.4 C 0 km/h
38 06-05-2008 07:29:02 9.5 C 7.28 g/m*3 9.5 C 0 km/h
39 06-05-2008 07:41:03 9.8 C 7.42 g/m*3 9.8 C 0 km/h
40 06-05-2008 07:53:02 10 C 7.42 g/m*3 10 C 0 km/h
41 06-05-2008 08:05:01 10.4 C 7.61 g/m*3 10.4 C 0 km/h
42 06-05-2008 08:17:01 10.8 C 7.81 g/m*3 10.8 C 0 km/h
43 06-05-2008 08:29:01 11.2 C 8.01 g/m*3 11.2 C 0 km/h
44 06-05-2008 08:41:02 11.7 C 8.26 g/m*3 11.7 C 0 km/h
45 06-05-2008 08:53:02 12.1 C 8.36 g/m*3 12.1 C 0 km/h
46 06-05-2008 09:05:02 12.8 C 8.51 g/m*3 12.8 C 0 km/h
47 06-05-2008 09:17:02 13.6 C 8.59 g/m*3 13.6 C 0 km/h
48 06-05-2008 09:29:02 14.2 C 8.43 g/m*3 14.2 C 0 km/h
49 06-05-2008 09:41:02 15.1 C 8.39 g/m*3 15.1 C 0 km/h
50 06-05-2008 09:53:02 15.6 C 8.38 g/m*3 15.6 C 0 km/h
Sensor: Nr:Datum:Temp:Abs-Feuchte:Windchill:Wind:
Aussen-T/F 51 06-05-2008 10:05:02 16.3 C 8.32 g/m*3 16.3 C 0 km/h
52 06-05-2008 10:17:01 17 C 8.25 g/m*3 17 C 0 km/h
53 06-05-2008 10:29:01 17.7 C 8.15 g/m*3 17.7 C 0 km/h
54 06-05-2008 10:41:02 18.2 C 7.77 g/m*3 18.2 C 0 km/h
55 06-05-2008 10:53:02 18.8 C 7.73 g/m*3 18.8 C 0 km/h
56 06-05-2008 11:05:02 19.4 C 7.84 g/m*3 19.4 C 0 km/h
57 06-05-2008 11:17:01 19.7 C 7.47 g/m*3 19.7 C 0 km/h
58 06-05-2008 11:29:01 20.5 C 7.65 g/m*3 20.5 C 0 km/h
59 06-05-2008 11:41:02 21 C 7.33 g/m*3 21 C 0 km/h
60 06-05-2008 11:53:03 21.6 C 7.21 g/m*3 21.6 C 0 km/h
61 06-05-2008 12:05:02 21.9 C 7.14 g/m*3 21.9 C 0 km/h
62 06-05-2008 12:17:02 21.6 C 6.83 g/m*3 21.6 C 0 km/h
63 06-05-2008 12:29:02 22.7 C 7.27 g/m*3 22.7 C 0 km/h
64 06-05-2008 12:41:02 22.9 C 6.74 g/m*3 22.9 C 0 km/h
65 06-05-2008 12:53:02 23.8 C 6.67 g/m*3 23.8 C 0 km/h
66 06-05-2008 13:05:03 23.9 C 6.49 g/m*3 23.9 C 0 km/h
67 06-05-2008 13:17:02 24.4 C 6.23 g/m*3 24.4 C 0 km/h
68 06-05-2008 13:29:02 25.5 C 6.16 g/m*3 25.5 C 0 km/h
69 06-05-2008 13:41:02 23.8 C 6.02 g/m*3 23.8 C 0 km/h
70 06-05-2008 13:53:01 23.8 C 6.24 g/m*3 23.8 C 0 km/h
71 06-05-2008 14:05:02 24.8 C 6.15 g/m*3 24.8 C 0 km/h
72 06-05-2008 14:17:02 25.6 C 5.95 g/m*3 25.6 C 0 km/h
73 06-05-2008 14:29:02 26 C 6.09 g/m*3 26 C 0 km/h
74 06-05-2008 14:41:01 26.4 C 5.48 g/m*3 26.4 C 0 km/h
75 06-05-2008 14:53:02 26.7 C 5.32 g/m*3 26.7 C 0 km/h
Sensor: Nr:Datum:Temp:Abs-Feuchte:Windchill:Wind:
Aussen-T/F 76 06-05-2008 15:05:01 27.4 C 5.53 g/m*3 27.4 C 0 km/h
77 06-05-2008 15:17:02 27.8 C 5.38 g/m*3 27.8 C 0 km/h
78 06-05-2008 15:29:02 26.9 C 5.37 g/m*3 26.9 C 0 km/h
79 06-05-2008 15:41:02 27.5 C 5.29 g/m*3 27.5 C 0 km/h
80 06-05-2008 15:53:02 27.5 C 5.29 g/m*3 27.5 C 0 km/h
81 06-05-2008 16:05:02 28.2 C 5.5 g/m*3 28.2 C 0 km/h
82 06-05-2008 16:17:02 28.2 C 5.5 g/m*3 28.2 C 0 km/h
83 06-05-2008 16:29:02 29.1 C 5.78 g/m*3 29.1 C 0 km/h
84 06-05-2008 16:41:02 27.3 C 5.23 g/m*3 27.3 C 0 km/h
85 06-05-2008 16:53:02 27.8 C 5.38 g/m*3 27.8 C 0 km/h
86 06-05-2008 17:05:02 29.4 C 5.87 g/m*3 29.4 C 0 km/h
87 06-05-2008 17:17:02 28.8 C 5.68 g/m*3 28.8 C 0 km/h
88 06-05-2008 17:29:02 27.4 C 5.26 g/m*3 27.4 C 0 km/h
89 06-05-2008 17:41:01 27.5 C 5.56 g/m*3 27.5 C 0 km/h
90 06-05-2008 17:53:01 28.2 C 5.5 g/m*3 28.2 C 0 km/h
91 06-05-2008 18:05:02 29.2 C 5.81 g/m*3 29.2 C 0 km/h
92 06-05-2008 18:17:02 29.3 C 5.84 g/m*3 29.3 C 0 km/h
93 06-05-2008 18:29:02 29.4 C 5.87 g/m*3 29.4 C 0 km/h
94 06-05-2008 18:41:01 29.8 C 6 g/m*3 29.8 C 0 km/h
95 06-05-2008 18:53:01 28 C 5.44 g/m*3 28 C 0 km/h
96 06-05-2008 19:05:02 26.5 C 5.51 g/m*3 26.5 C 0 km/h
97 06-05-2008 19:17:02 25.7 C 5.75 g/m*3 25.7 C 0 km/h
98 06-05-2008 19:29:02 25.9 C 5.57 g/m*3 25.9 C 0 km/h
99 06-05-2008 19:41:01 26.1 C 5.63 g/m*3 26.1 C 0 km/h
100 06-05-2008 19:53:02 26.3 C 5.45 g/m*3 26.3 C 0 km/h
Sensor: Nr:Datum:Temp:Abs-Feuchte:Windchill:Wind:
Aussen-T/F 101 06-05-2008 20:05:02 25.7 C 5.51 g/m*3 25.7 C 0 km/h
102 06-05-2008 20:17:02 25.3 C 5.85 g/m*3 25.3 C 0 km/h
103 06-05-2008 20:29:02 23.8 C 6.24 g/m*3 23.8 C 0 km/h
104 06-05-2008 20:41:02 23.1 C 6.41 g/m*3 23.1 C 0 km/h
105 06-05-2008 20:53:02 21.9 C 6.75 g/m*3 21.9 C 0 km/h
106 06-05-2008 21:05:02 21 C 6.59 g/m*3 21 C 0 km/h
107 06-05-2008 21:17:03 20 C 6.57 g/m*3 20 C 0 km/h
108 06-05-2008 21:29:03 19.7 C 6.62 g/m*3 19.7 C 0 km/h
109 06-05-2008 21:41:02 19.1 C 6.56 g/m*3 19.1 C 0 km/h
110 06-05-2008 21:53:02 18.8 C 6.6 g/m*3 18.8 C 0 km/h
111 06-05-2008 22:05:02 18.6 C 6.53 g/m*3 18.6 C 0 km/h
112 06-05-2008 22:17:01 18.5 C 6.49 g/m*3 18.5 C 0 km/h
113 06-05-2008 22:29:01 18.4 C 6.45 g/m*3 18.4 C 0 km/h
114 06-05-2008 22:41:02 18.1 C 6.49 g/m*3 18.1 C 0 km/h
115 06-05-2008 22:54:02 18 C 6.6 g/m*3 18 C 0 km/h
116 06-05-2008 23:06:02 17.7 C 6.64 g/m*3 17.7 C 0 km/h
117 06-05-2008 23:18:02 17.6 C 6.6 g/m*3 17.6 C 0 km/h
118 06-05-2008 23:30:02 17.4 C 6.52 g/m*3 17.4 C 0 km/h
119 06-05-2008 23:42:02 17.3 C 6.48 g/m*3 17.3 C 0 km/h
120 06-05-2008 23:54:02 17.3 C 6.33 g/m*3 17.3 C 0 km/h
121 07-05-2008 00:06:02 17.2 C 6.15 g/m*3 17.2 C 0 km/h
122 07-05-2008 00:18:02 17.3 C 6.04 g/m*3 17.3 C 0 km/h
123 07-05-2008 00:30:02 17 C 6.22 g/m*3 17 C 0 km/h
124 07-05-2008 00:42:02 17 C 6.37 g/m*3 17 C 0 km/h
125 07-05-2008 00:54:02 16.4 C 6.28 g/m*3 16.4 C 0 km/h
Sensor: Nr:Datum:Temp:Abs-Feuchte:Windchill:Wind:
Aussen-T/F 126 07-05-2008 01:06:03 16.2 C 6.21 g/m*3 16.2 C 0 km/h
127 07-05-2008 01:18:03 16 C 6.13 g/m*3 16 C 0 km/h
128 07-05-2008 01:30:03 15.8 C 6.33 g/m*3 15.8 C 0 km/h
129 07-05-2008 01:42:03 15.4 C 6.31 g/m*3 15.4 C 0 km/h
130 07-05-2008 01:54:03 15.2 C 6.23 g/m*3 15.2 C 0 km/h
131 07-05-2008 02:06:03 14.7 C 6.3 g/m*3 14.7 C 0 km/h
132 07-05-2008 02:18:03 14.5 C 6.47 g/m*3 14.5 C 0 km/h
133 07-05-2008 02:30:03 14.5 C 6.47 g/m*3 14.5 C 0 km/h
134 07-05-2008 02:42:03 14.2 C 6.47 g/m*3 14.2 C 0 km/h
135 07-05-2008 02:54:03 14.3 C 6.63 g/m*3 14.3 C 0 km/h
136 07-05-2008 03:06:03 14 C 6.63 g/m*3 14 C 0 km/h
137 07-05-2008 03:18:03 13.6 C 6.59 g/m*3 13.6 C 0 km/h
138 07-05-2008 03:30:03 13.5 C 6.78 g/m*3 13.5 C 0 km/h
139 07-05-2008 03:42:03 13.1 C 6.62 g/m*3 13.1 C 0 km/h
140 07-05-2008 03:54:03 12.9 C 6.88 g/m*3 12.9 C 0 km/h
141 07-05-2008 04:06:03 12.7 C 6.9 g/m*3 12.7 C 0 km/h
142 07-05-2008 04:18:03 12.4 C 6.77 g/m*3 12.4 C 0 km/h
143 07-05-2008 04:30:03 12.3 C 6.84 g/m*3 12.3 C 0 km/h
144 07-05-2008 04:42:03 12.1 C 6.86 g/m*3 12.1 C 0 km/h
145 07-05-2008 04:54:04 11.9 C 6.88 g/m*3 11.9 C 0 km/h
146 07-05-2008 05:06:04 11.7 C 6.9 g/m*3 11.7 C 0 km/h
147 07-05-2008 05:18:04 11.9 C 7.1 g/m*3 11.9 C 0 km/h
148 07-05-2008 05:30:04 11.2 C 6.99 g/m*3 11.2 C 0 km/h
149 07-05-2008 05:42:04 11.1 C 7.05 g/m*3 11.1 C 0 km/h
150 07-05-2008 05:54:04 10.9 C 7.06 g/m*3 10.9 C 0 km/h
Sensor: Nr:Datum:Temp:Abs-Feuchte:Windchill:Wind:
Aussen-T/F 151 07-05-2008 06:06:04 10.7 C 7.07 g/m*3 10.7 C 0 km/h
152 07-05-2008 06:18:04 10.6 C 7.22 g/m*3 10.6 C 0 km/h
153 07-05-2008 06:30:04 10.5 C 7.18 g/m*3 10.5 C 0 km/h
154 07-05-2008 06:42:04 10.6 C 7.12 g/m*3 10.6 C 0 km/h
155 07-05-2008 06:54:04 10.6 C 7.22 g/m*3 10.6 C 0 km/h
156 07-05-2008 07:06:02 10.6 C 7.22 g/m*3 10.6 C 0 km/h
157 07-05-2008 07:18:02 10.7 C 7.37 g/m*3 10.7 C 0 km/h
158 07-05-2008 07:30:02 10.9 C 7.56 g/m*3 10.9 C 0 km/h
159 07-05-2008 07:42:02 11 C 7.41 g/m*3 11 C 0 km/h
160 07-05-2008 07:54:02 11.2 C 7.5 g/m*3 11.2 C 0 km/h
161 07-05-2008 08:06:02 11.3 C 7.55 g/m*3 11.3 C 0 km/h
162 07-05-2008 08:18:02 11.6 C 7.59 g/m*3 11.6 C 0 km/h
163 07-05-2008 08:30:02 12 C 7.67 g/m*3 12 C 0 km/h
164 07-05-2008 08:42:02 12.2 C 7.55 g/m*3 12.2 C 0 km/h
165 07-05-2008 08:54:02 12.6 C 7.63 g/m*3 12.6 C 0 km/h
166 07-05-2008 09:06:02 13.3 C 7.86 g/m*3 13.3 C 0 km/h
167 07-05-2008 09:18:02 14 C 7.96 g/m*3 14 C 0 km/h
168 07-05-2008 09:30:02 14.7 C 7.93 g/m*3 14.7 C 0 km/h
169 07-05-2008 09:42:02 15.4 C 7.62 g/m*3 15.4 C 0 km/h
170 07-05-2008 09:54:02 16.4 C 7.4 g/m*3 16.4 C 0 km/h
171 07-05-2008 10:06:02 17.2 C 7.03 g/m*3 17.2 C 0 km/h
172 07-05-2008 10:18:02 17.9 C 7.02 g/m*3 17.9 C 0 km/h
173 07-05-2008 10:30:02 18.3 C 6.88 g/m*3 18.3 C 0 km/h
174 07-05-2008 10:42:02 18.9 C 6.8 g/m*3 18.9 C 0 km/h
175 07-05-2008 10:54:02 19.8 C 6.83 g/m*3 19.8 C 0 km/h
Sensor: Nr:Datum:Temp:Abs-Feuchte:Windchill:Wind:
Aussen-T/F 176 07-05-2008 11:06:03 20.1 C 6.43 g/m*3 20.1 C 0 km/h
177 07-05-2008 11:18:02 20.5 C 6.58 g/m*3 20.5 C 0 km/h
178 07-05-2008 11:30:02 21.3 C 6.52 g/m*3 21.3 C 0 km/h
179 07-05-2008 11:42:02 21.6 C 6.26 g/m*3 21.6 C 0 km/h
180 07-05-2008 11:54:01 22.2 C 6.28 g/m*3 22.2 C 0 km/h
181 07-05-2008 12:06:01 22.5 C 6.39 g/m*3 22.5 C 0 km/h
182 07-05-2008 12:18:02 22.7 C 5.86 g/m*3 22.7 C 0 km/h
183 07-05-2008 12:30:02 23 C 5.96 g/m*3 23 C 0 km/h
184 07-05-2008 12:42:01 23.6 C 5.53 g/m*3 23.6 C 0 km/h
185 07-05-2008 12:54:02 23 C 5.55 g/m*3 23 C 0 km/h
186 07-05-2008 13:06:02 23.8 C 4.73 g/m*3 23.8 C 0 km/h
187 07-05-2008 13:18:01 24.6 C 4.73 g/m*3 24.6 C 0 km/h
188 07-05-2008 13:30:01 24.9 C 4.81 g/m*3 24.9 C 0 km/h
189 07-05-2008 13:42:02 25 C 4.6 g/m*3 25 C 0 km/h
190 07-05-2008 13:54:03 23.7 C 4.49 g/m*3 23.7 C 0 km/h
191 07-05-2008 14:06:02 24.6 C 4.95 g/m*3 24.6 C 0 km/h
192 07-05-2008 14:18:02 24.6 C 4.5 g/m*3 24.6 C 0 km/h
193 07-05-2008 14:30:02 25.3 C 4.68 g/m*3 25.3 C 0 km/h
194 07-05-2008 14:42:03 26.5 C 5.01 g/m*3 26.5 C 0 km/h
195 07-05-2008 14:54:02 26.5 C 5.01 g/m*3 26.5 C 0 km/h
196 07-05-2008 15:06:02 26 C 4.87 g/m*3 26 C 0 km/h
197 07-05-2008 15:18:02 26.4 C 4.98 g/m*3 26.4 C 0 km/h
198 07-05-2008 15:30:02 27.3 C 5.23 g/m*3 27.3 C 0 km/h
199 07-05-2008 15:42:02 26.7 C 5.06 g/m*3 26.7 C 0 km/h
200 07-05-2008 15:54:01 27.3 C 5.23 g/m*3 27.3 C 0 km/h
Sensor: Nr:Datum:Temp:Abs-Feuchte:Windchill:Wind:
Aussen-T/F 201 07-05-2008 16:06:02 28.2 C 5.5 g/m*3 28.2 C 0 km/h
202 07-05-2008 16:18:02 28.8 C 5.68 g/m*3 28.8 C 0 km/h
203 07-05-2008 16:30:02 29.1 C 5.78 g/m*3 29.1 C 0 km/h
204 07-05-2008 16:42:01 28.6 C 5.62 g/m*3 28.6 C 0 km/h
205 07-05-2008 16:54:01 28.5 C 5.59 g/m*3 28.5 C 0 km/h
206 07-05-2008 17:06:02 29.6 C 5.94 g/m*3 29.6 C 0 km/h
207 07-05-2008 17:18:02 29.5 C 5.9 g/m*3 29.5 C 0 km/h
208 07-05-2008 17:30:02 30.1 C 6.1 g/m*3 30.1 C 0 km/h
209 07-05-2008 17:42:01 30.1 C 6.1 g/m*3 30.1 C 0 km/h
210 07-05-2008 17:54:01 29.9 C 6.03 g/m*3 29.9 C 0 km/h
211 07-05-2008 18:06:02 29.6 C 5.94 g/m*3 29.6 C 0 km/h
212 07-05-2008 18:18:01 29.6 C 5.94 g/m*3 29.6 C 0 km/h
213 07-05-2008 18:30:01 29.6 C 5.94 g/m*3 29.6 C 0 km/h
214 07-05-2008 18:42:02 29.7 C 5.97 g/m*3 29.7 C 0 km/h
215 07-05-2008 18:54:03 29.5 C 5.9 g/m*3 29.5 C 0 km/h
216 07-05-2008 19:06:02 29.1 C 5.78 g/m*3 29.1 C 0 km/h
217 07-05-2008 19:18:02 28.7 C 5.65 g/m*3 28.7 C 0 km/h
218 07-05-2008 19:30:02 27.8 C 5.38 g/m*3 27.8 C 0 km/h
219 07-05-2008 19:42:03 27.6 C 5.32 g/m*3 27.6 C 0 km/h
220 07-05-2008 19:54:02 26.9 C 5.12 g/m*3 26.9 C 0 km/h
221 07-05-2008 20:06:02 26.5 C 5.01 g/m*3 26.5 C 0 km/h
222 07-05-2008 20:18:02 25.9 C 5.33 g/m*3 25.9 C 0 km/h
223 07-05-2008 20:30:02 24.2 C 5.5 g/m*3 24.2 C 0 km/h
224 07-05-2008 20:42:01 23.3 C 5.44 g/m*3 23.3 C 0 km/h
225 07-05-2008 20:54:01 22.1 C 5.47 g/m*3 22.1 C 0 km/h
Sensor: Nr:Datum:Temp:Abs-Feuchte:Windchill:Wind:
Aussen-T/F 226 07-05-2008 21:06:02 21.1 C 5.53 g/m*3 21.1 C 0 km/h
227 07-05-2008 21:18:01 20.4 C 5.66 g/m*3 20.4 C 0 km/h
228 07-05-2008 21:30:01 20.2 C 5.94 g/m*3 20.2 C 0 km/h
229 07-05-2008 21:42:01 19.7 C 5.94 g/m*3 19.7 C 0 km/h
230 07-05-2008 21:54:01 19.5 C 6.04 g/m*3 19.5 C 0 km/h
231 07-05-2008 22:06:02 19.2 C 5.94 g/m*3 19.2 C 0 km/h
232 07-05-2008 22:19:03 18.9 C 6.16 g/m*3 18.9 C 0 km/h
233 07-05-2008 22:31:03 18.5 C 6.17 g/m*3 18.5 C 0 km/h
234 07-05-2008 22:43:03 18 C 6.14 g/m*3 18 C 0 km/h
235 07-05-2008 22:55:03 17.7 C 6.19 g/m*3 17.7 C 0 km/h
236 07-05-2008 23:07:03 17.5 C 6.26 g/m*3 17.5 C 0 km/h
237 07-05-2008 23:19:03 17.2 C 6.44 g/m*3 17.2 C 0 km/h
238 07-05-2008 23:31:03 16.9 C 6.47 g/m*3 16.9 C 0 km/h
239 07-05-2008 23:43:03 16.5 C 6.32 g/m*3 16.5 C 0 km/h
240 07-05-2008 23:55:03 16.2 C 6.34 g/m*3 16.2 C 0 km/h
241 08-05-2008 00:07:03 15.7 C 6.42 g/m*3 15.7 C 0 km/h
242 08-05-2008 00:19:03 15.2 C 6.49 g/m*3 15.2 C 0 km/h
243 08-05-2008 00:31:04 15 C 6.54 g/m*3 15 C 0 km/h
244 08-05-2008 00:43:04 14.9 C 6.63 g/m*3 14.9 C 0 km/h
245 08-05-2008 00:55:04 14.7 C 6.67 g/m*3 14.7 C 0 km/h
246 08-05-2008 01:07:04 14.4 C 6.68 g/m*3 14.4 C 0 km/h
247 08-05-2008 01:19:04 14.2 C 6.72 g/m*3 14.2 C 0 km/h
248 08-05-2008 01:31:04 14 C 6.63 g/m*3 14 C 0 km/h
249 08-05-2008 01:43:04 13.9 C 6.83 g/m*3 13.9 C 0 km/h
250 08-05-2008 01:55:04 13.6 C 6.83 g/m*3 13.6 C 0 km/h
Sensor: Nr:Datum:Temp:Abs-Feuchte:Windchill:Wind:
Aussen-T/F 251 08-05-2008 02:07:04 13.4 C 6.74 g/m*3 13.4 C 0 km/h
252 08-05-2008 02:19:04 13.2 C 6.66 g/m*3 13.2 C 0 km/h
253 08-05-2008 02:31:04 13 C 6.69 g/m*3 13 C 0 km/h
254 08-05-2008 02:43:04 12.7 C 6.79 g/m*3 12.7 C 0 km/h
255 08-05-2008 02:55:04 12.5 C 6.71 g/m*3 12.5 C 0 km/h
256 08-05-2008 03:07:04 12.4 C 6.77 g/m*3 12.4 C 0 km/h
257 08-05-2008 03:19:04 12.1 C 6.76 g/m*3 12.1 C 0 km/h
258 08-05-2008 03:31:04 12 C 6.82 g/m*3 12 C 0 km/h
259 08-05-2008 03:43:04 11.8 C 6.84 g/m*3 11.8 C 0 km/h
260 08-05-2008 03:55:04 11.5 C 6.82 g/m*3 11.5 C 0 km/h
261 08-05-2008 04:07:04 11.3 C 6.73 g/m*3 11.3 C 0 km/h
262 08-05-2008 04:19:05 11.1 C 6.85 g/m*3 11.1 C 0 km/h
263 08-05-2008 04:31:05 10.9 C 6.86 g/m*3 10.9 C 0 km/h
264 08-05-2008 04:43:05 10.8 C 6.82 g/m*3 10.8 C 0 km/h
265 08-05-2008 04:55:05 10.7 C 6.88 g/m*3 10.7 C 0 km/h
266 08-05-2008 05:07:05 10.4 C 6.75 g/m*3 10.4 C 0 km/h
267 08-05-2008 05:19:05 10.2 C 6.66 g/m*3 10.2 C 0 km/h
268 08-05-2008 05:31:05 10.1 C 6.71 g/m*3 10.1 C 0 km/h
269 08-05-2008 05:43:05 9.9 C 6.82 g/m*3 9.9 C 0 km/h
270 08-05-2008 05:55:05 9.8 C 6.87 g/m*3 9.8 C 0 km/h
271 08-05-2008 06:07:05 9.6 C 6.78 g/m*3 9.6 C 0 km/h
272 08-05-2008 06:19:05 9.6 C 6.78 g/m*3 9.6 C 0 km/h
273 08-05-2008 06:31:05 9.5 C 6.74 g/m*3 9.5 C 0 km/h
274 08-05-2008 06:43:05 9.5 C 6.83 g/m*3 9.5 C 0 km/h
275 08-05-2008 06:55:02 9.6 C 6.96 g/m*3 9.6 C 0 km/h
Sensor: Nr:Datum:Temp:Abs-Feuchte:Windchill:Wind:
Aussen-T/F 276 08-05-2008 07:07:01 9.6 C 6.96 g/m*3 9.6 C 0 km/h
277 08-05-2008 07:19:02 9.8 C 7.05 g/m*3 9.8 C 0 km/h
278 08-05-2008 07:31:02 10 C 6.95 g/m*3 10 C 0 km/h
279 08-05-2008 07:43:02 10.2 C 6.95 g/m*3 10.2 C 0 km/h
280 08-05-2008 07:55:02 10.5 C 7.08 g/m*3 10.5 C 0 km/h
281 08-05-2008 08:07:02 10.5 C 7.08 g/m*3 10.5 C 0 km/h
282 08-05-2008 08:19:02 10.7 C 7.07 g/m*3 10.7 C 0 km/h
283 08-05-2008 08:31:02 11 C 7.21 g/m*3 11 C 0 km/h
284 08-05-2008 08:43:02 11.3 C 7.14 g/m*3 11.3 C 0 km/h
285 08-05-2008 08:55:02 11.8 C 7.16 g/m*3 11.8 C 0 km/h
286 08-05-2008 09:07:02 12.5 C 7.26 g/m*3 12.5 C 0 km/h
287 08-05-2008 09:19:03 13.2 C 7.35 g/m*3 13.2 C 0 km/h
288 08-05-2008 09:31:02 13.7 C 7.46 g/m*3 13.7 C 0 km/h
289 08-05-2008 09:43:02 14.5 C 7.34 g/m*3 14.5 C 0 km/h
290 08-05-2008 09:55:02 15.6 C 7.45 g/m*3 15.6 C 0 km/h
291 08-05-2008 10:07:02 16.2 C 7.17 g/m*3 16.2 C 0 km/h
292 08-05-2008 10:19:01 17.2 C 6.59 g/m*3 17.2 C 0 km/h
293 08-05-2008 10:31:01 18.2 C 6.68 g/m*3 18.2 C 0 km/h
294 08-05-2008 10:43:01 19.2 C 6.1 g/m*3 19.2 C 0 km/h
295 08-05-2008 10:55:01 19.7 C 5.77 g/m*3 19.7 C 0 km/h
296 08-05-2008 11:07:02 20.3 C 5.45 g/m*3 20.3 C 0 km/h
297 08-05-2008 11:19:02 20.7 C 5.22 g/m*3 20.7 C 0 km/h
298 08-05-2008 11:31:01 21.4 C 5.25 g/m*3 21.4 C 0 km/h
299 08-05-2008 11:43:01 21.8 C 4.99 g/m*3 21.8 C 0 km/h
300 08-05-2008 11:55:01 22.1 C 4.88 g/m*3 22.1 C 0 km/h
Sensor: Nr:Datum:Temp:Abs-Feuchte:Windchill:Wind:
Aussen-T/F 301 08-05-2008 12:07:02 23 C 4.73 g/m*3 23 C 0 km/h
302 08-05-2008 12:19:02 23.2 C 4.57 g/m*3 23.2 C 0 km/h
303 08-05-2008 12:31:01 23.5 C 4.23 g/m*3 23.5 C 0 km/h
304 08-05-2008 12:43:01 24.2 C 4.4 g/m*3 24.2 C 0 km/h
305 08-05-2008 12:55:02 25.1 C 4.63 g/m*3 25.1 C 0 km/h
306 08-05-2008 13:07:01 25.6 C 4.76 g/m*3 25.6 C 0 km/h
307 08-05-2008 13:19:02 26.1 C 4.9 g/m*3 26.1 C 0 km/h
308 08-05-2008 13:31:02 26.4 C 4.98 g/m*3 26.4 C 0 km/h
309 08-05-2008 13:43:02 26.4 C 4.98 g/m*3 26.4 C 0 km/h
310 08-05-2008 13:55:02 26.5 C 5.01 g/m*3 26.5 C 0 km/h
311 08-05-2008 14:07:02 26.1 C 4.9 g/m*3 26.1 C 0 km/h
312 08-05-2008 14:19:02 26.3 C 4.95 g/m*3 26.3 C 0 km/h
313 08-05-2008 14:31:02 26.6 C 5.03 g/m*3 26.6 C 0 km/h
314 08-05-2008 14:43:03 27 C 5.15 g/m*3 27 C 0 km/h
315 08-05-2008 14:55:02 27.6 C 5.32 g/m*3 27.6 C 0 km/h
316 08-05-2008 15:07:01 27.9 C 5.41 g/m*3 27.9 C 0 km/h
317 08-05-2008 15:19:01 27.9 C 5.41 g/m*3 27.9 C 0 km/h
318 08-05-2008 15:31:02 28 C 5.44 g/m*3 28 C 0 km/h
319 08-05-2008 15:43:02 28.4 C 5.56 g/m*3 28.4 C 0 km/h
320 08-05-2008 15:55:02 28.6 C 5.62 g/m*3 28.6 C 0 km/h
321 08-05-2008 16:07:02 29.4 C 5.87 g/m*3 29.4 C 0 km/h
322 08-05-2008 16:19:02 29.9 C 6.03 g/m*3 29.9 C 0 km/h
323 08-05-2008 16:31:02 29.8 C 6 g/m*3 29.8 C 0 km/h
324 08-05-2008 16:43:02 29.7 C 5.97 g/m*3 29.7 C 0 km/h
325 08-05-2008 16:55:02 30 C 6.06 g/m*3 30 C 0 km/h
Sensor: Nr:Datum:Temp:Abs-Feuchte:Windchill:Wind:
Aussen-T/F 326 08-05-2008 17:07:02 30.3 C 6.16 g/m*3 30.3 C 0 km/h
327 08-05-2008 17:19:02 30.5 C 6.23 g/m*3 30.5 C 0 km/h
328 08-05-2008 17:31:01 30.9 C 6.37 g/m*3 30.9 C 0 km/h
329 08-05-2008 17:43:01 29.5 C 5.9 g/m*3 29.5 C 0 km/h
330 08-05-2008 17:55:01 30.1 C 6.1 g/m*3 30.1 C 0 km/h
331 08-05-2008 18:07:02 30.3 C 6.16 g/m*3 30.3 C 0 km/h
332 08-05-2008 18:19:02 30.6 C 6.26 g/m*3 30.6 C 0 km/h
333 08-05-2008 18:31:01 30.7 C 6.3 g/m*3 30.7 C 0 km/h
334 08-05-2008 18:43:01 30.8 C 6.33 g/m*3 30.8 C 0 km/h
335 08-05-2008 18:55:02 30.2 C 6.13 g/m*3 30.2 C 0 km/h
336 08-05-2008 19:07:01 29.9 C 6.03 g/m*3 29.9 C 0 km/h
337 08-05-2008 19:19:02 29.5 C 5.9 g/m*3 29.5 C 0 km/h
338 08-05-2008 19:31:02 29.3 C 5.84 g/m*3 29.3 C 0 km/h
339 08-05-2008 19:43:02 28.9 C 5.71 g/m*3 28.9 C 0 km/h
340 08-05-2008 19:55:02 28.8 C 5.68 g/m*3 28.8 C 0 km/h
341 08-05-2008 20:07:02 28.4 C 5.56 g/m*3 28.4 C 0 km/h
342 08-05-2008 20:19:02 27.4 C 5.26 g/m*3 27.4 C 0 km/h
343 08-05-2008 20:31:02 26.5 C 5.01 g/m*3 26.5 C 0 km/h
344 08-05-2008 20:43:02 23.9 C 4.98 g/m*3 23.9 C 0 km/h
345 08-05-2008 20:55:02 22.7 C 4.85 g/m*3 22.7 C 0 km/h
346 08-05-2008 21:07:02 21.6 C 4.93 g/m*3 21.6 C 0 km/h
347 08-05-2008 21:19:01 20.5 C 4.98 g/m*3 20.5 C 0 km/h
348 08-05-2008 21:31:02 20 C 5.18 g/m*3 20 C 0 km/h
349 08-05-2008 21:43:02 19.8 C 5.3 g/m*3 19.8 C 0 km/h
350 08-05-2008 21:55:02 19.5 C 5.2 g/m*3 19.5 C 0 km/h
Sensor: Nr:Datum:Temp:Abs-Feuchte:Windchill:Wind:
Aussen-T/F 351 08-05-2008 22:07:02 19.4 C 5.17 g/m*3 19.4 C 0 km/h
352 08-05-2008 22:19:01 19.1 C 5.25 g/m*3 19.1 C 0 km/h
353 08-05-2008 22:32:03 18.9 C 5.35 g/m*3 18.9 C 0 km/h
354 08-05-2008 22:44:03 18.4 C 5.35 g/m*3 18.4 C 0 km/h
355 08-05-2008 22:56:03 18.1 C 5.41 g/m*3 18.1 C 0 km/h
356 08-05-2008 23:08:03 17.8 C 5.31 g/m*3 17.8 C 0 km/h
357 08-05-2008 23:20:03 17.7 C 5.43 g/m*3 17.7 C 0 km/h
358 08-05-2008 23:32:03 17.2 C 5.56 g/m*3 17.2 C 0 km/h
359 08-05-2008 23:44:03 16.9 C 5.75 g/m*3 16.9 C 0 km/h
360 08-05-2008 23:56:03 16.5 C 5.76 g/m*3 16.5 C 0 km/h
361 09-05-2008 00:08:03 16.2 C 5.79 g/m*3 16.2 C 0 km/h
362 09-05-2008 00:20:03 15.8 C 5.92 g/m*3 15.8 C 0 km/h
363 09-05-2008 00:32:03 15.4 C 5.91 g/m*3 15.4 C 0 km/h
364 09-05-2008 00:44:03 15.1 C 6.06 g/m*3 15.1 C 0 km/h
365 09-05-2008 00:56:03 14.8 C 6.08 g/m*3 14.8 C 0 km/h
366 09-05-2008 01:08:03 14.6 C 6.13 g/m*3 14.6 C 0 km/h
367 09-05-2008 01:20:03 14.4 C 6.18 g/m*3 14.4 C 0 km/h
368 09-05-2008 01:32:03 14.1 C 6.19 g/m*3 14.1 C 0 km/h
369 09-05-2008 01:44:03 13.8 C 6.31 g/m*3 13.8 C 0 km/h
370 09-05-2008 01:56:04 13.7 C 6.28 g/m*3 13.7 C 0 km/h
371 09-05-2008 02:08:04 13.4 C 6.28 g/m*3 13.4 C 0 km/h
372 09-05-2008 02:20:04 13.2 C 6.32 g/m*3 13.2 C 0 km/h
373 09-05-2008 02:32:04 12.8 C 6.5 g/m*3 12.8 C 0 km/h
374 09-05-2008 02:44:04 12.7 C 6.35 g/m*3 12.7 C 0 km/h
375 09-05-2008 02:56:04 12.5 C 6.38 g/m*3 12.5 C 0 km/h
Sensor: Nr:Datum:Temp:Abs-Feuchte:Windchill:Wind:
Aussen-T/F 376 09-05-2008 03:08:04 12.2 C 6.37 g/m*3 12.2 C 0 km/h
377 09-05-2008 03:20:04 12.1 C 6.33 g/m*3 12.1 C 0 km/h
378 09-05-2008 03:32:04 12 C 6.39 g/m*3 12 C 0 km/h
379 09-05-2008 03:44:04 12 C 6.5 g/m*3 12 C 0 km/h
380 09-05-2008 03:56:04 11.6 C 6.44 g/m*3 11.6 C 0 km/h
381 09-05-2008 04:08:04 11.4 C 6.47 g/m*3 11.4 C 0 km/h
382 09-05-2008 04:20:04 11.2 C 6.49 g/m*3 11.2 C 0 km/h
383 09-05-2008 04:32:04 11.1 C 6.55 g/m*3 11.1 C 0 km/h
384 09-05-2008 04:44:04 10.7 C 6.58 g/m*3 10.7 C 0 km/h
385 09-05-2008 04:56:04 10.7 C 6.58 g/m*3 10.7 C 0 km/h
386 09-05-2008 05:08:04 10.4 C 6.46 g/m*3 10.4 C 0 km/h
387 09-05-2008 05:20:04 10.3 C 6.51 g/m*3 10.3 C 0 km/h
388 09-05-2008 05:32:04 10.2 C 6.47 g/m*3 10.2 C 0 km/h
389 09-05-2008 05:44:05 10.1 C 6.43 g/m*3 10.1 C 0 km/h
390 09-05-2008 05:56:05 10 C 6.48 g/m*3 10 C 0 km/h
391 09-05-2008 06:08:05 9.7 C 6.45 g/m*3 9.7 C 0 km/h
392 09-05-2008 06:20:05 9.6 C 6.5 g/m*3 9.6 C 0 km/h
393 09-05-2008 06:32:05 9.6 C 6.5 g/m*3 9.6 C 0 km/h
394 09-05-2008 06:44:05 9.6 C 6.5 g/m*3 9.6 C 0 km/h
395 09-05-2008 06:56:05 9.6 C 6.6 g/m*3 9.6 C 0 km/h
396 09-05-2008 07:08:03 9.8 C 6.68 g/m*3 9.8 C 0 km/h
397 09-05-2008 07:20:03 10 C 6.67 g/m*3 10 C 0 km/h
398 09-05-2008 07:32:03 10 C 6.67 g/m*3 10 C 0 km/h
399 09-05-2008 07:44:03 10.2 C 6.76 g/m*3 10.2 C 0 km/h
400 09-05-2008 07:56:02 10.4 C 6.75 g/m*3 10.4 C 0 km/h
Sensor: Nr:Datum:Temp:Abs-Feuchte:Windchill:Wind:
Aussen-T/F 401 09-05-2008 08:08:02 10.7 C 6.88 g/m*3 10.7 C 0 km/h
402 09-05-2008 08:20:03 11.1 C 6.95 g/m*3 11.1 C 0 km/h
403 09-05-2008 08:32:02 11.4 C 6.88 g/m*3 11.4 C 0 km/h
404 09-05-2008 08:44:03 11.8 C 7.05 g/m*3 11.8 C 0 km/h
405 09-05-2008 08:56:02 12.4 C 7.21 g/m*3 12.4 C 0 km/h
406 09-05-2008 09:08:02 13.1 C 7.3 g/m*3 13.1 C 0 km/h
407 09-05-2008 09:20:02 13.8 C 7.51 g/m*3 13.8 C 0 km/h
408 09-05-2008 09:32:02 14.4 C 7.54 g/m*3 14.4 C 0 km/h
409 09-05-2008 09:44:02 15.4 C 7.75 g/m*3 15.4 C 0 km/h
410 09-05-2008 09:56:02 16.6 C 7.2 g/m*3 16.6 C 0 km/h
411 09-05-2008 10:08:02 17.8 C 6.68 g/m*3 17.8 C 0 km/h
412 09-05-2008 10:20:01 18.7 C 6.72 g/m*3 18.7 C 0 km/h
413 09-05-2008 10:32:02 19.3 C 6.47 g/m*3 19.3 C 0 km/h
414 09-05-2008 10:44:02 20.1 C 6.61 g/m*3 20.1 C 0 km/h
415 09-05-2008 10:56:01 20.8 C 6.52 g/m*3 20.8 C 0 km/h
416 09-05-2008 11:08:02 21.4 C 6.37 g/m*3 21.4 C 0 km/h
417 09-05-2008 11:20:02 22.4 C 6.36 g/m*3 22.4 C 0 km/h
418 09-05-2008 11:32:01 22.8 C 6.1 g/m*3 22.8 C 0 km/h
419 09-05-2008 11:44:01 23.5 C 5.71 g/m*3 23.5 C 0 km/h
420 09-05-2008 11:56:02 23.7 C 5.99 g/m*3 23.7 C 0 km/h
421 09-05-2008 12:08:02 24 C 5.66 g/m*3 24 C 0 km/h
422 09-05-2008 12:20:02 24.5 C 5.6 g/m*3 24.5 C 0 km/h
423 09-05-2008 12:32:02 25.6 C 5.71 g/m*3 25.6 C 0 km/h
424 09-05-2008 12:44:02 26.2 C 5.66 g/m*3 26.2 C 0 km/h
425 09-05-2008 12:56:02 26.5 C 5.01 g/m*3 26.5 C 0 km/h
Sensor: Nr:Datum:Temp:Abs-Feuchte:Windchill:Wind:
Aussen-T/F 426 09-05-2008 13:08:02 26.9 C 5.12 g/m*3 26.9 C 0 km/h
427 09-05-2008 13:20:02 27.7 C 5.35 g/m*3 27.7 C 0 km/h
428 09-05-2008 13:32:02 28.2 C 5.5 g/m*3 28.2 C 0 km/h
429 09-05-2008 13:44:02 28.1 C 5.47 g/m*3 28.1 C 0 km/h
430 09-05-2008 13:56:02 27.5 C 5.29 g/m*3 27.5 C 0 km/h
431 09-05-2008 14:08:01 27.5 C 5.29 g/m*3 27.5 C 0 km/h
432 09-05-2008 14:20:01 27.6 C 5.32 g/m*3 27.6 C 0 km/h
433 09-05-2008 14:32:02 28 C 5.44 g/m*3 28 C 0 km/h
434 09-05-2008 14:44:02 28 C 5.44 g/m*3 28 C 0 km/h
435 09-05-2008 14:56:02 28.7 C 5.65 g/m*3 28.7 C 0 km/h
436 09-05-2008 15:08:02 29.2 C 5.81 g/m*3 29.2 C 0 km/h
437 09-05-2008 15:20:02 29.7 C 5.97 g/m*3 29.7 C 0 km/h
438 09-05-2008 15:32:03 29.6 C 5.94 g/m*3 29.6 C 0 km/h
439 09-05-2008 15:44:03 29.6 C 5.94 g/m*3 29.6 C 0 km/h
440 09-05-2008 15:56:02 30.2 C 6.13 g/m*3 30.2 C 0 km/h
441 09-05-2008 16:08:02 30.7 C 6.3 g/m*3 30.7 C 0 km/h
442 09-05-2008 16:20:02 30.8 C 6.33 g/m*3 30.8 C 0 km/h
443 09-05-2008 16:32:02 30.7 C 6.3 g/m*3 30.7 C 0 km/h
444 09-05-2008 16:44:02 30.8 C 6.33 g/m*3 30.8 C 0 km/h
445 09-05-2008 16:56:02 30.9 C 6.37 g/m*3 30.9 C 0 km/h
446 09-05-2008 17:08:03 31.1 C 6.43 g/m*3 31.1 C 0 km/h
447 09-05-2008 17:20:02 31.1 C 6.43 g/m*3 31.1 C 0 km/h
448 09-05-2008 17:32:02 31.2 C 6.47 g/m*3 31.2 C 0 km/h
449 09-05-2008 17:44:02 30.9 C 6.37 g/m*3 30.9 C 0 km/h
450 09-05-2008 17:56:01 31 C 6.4 g/m*3 31 C 0 km/h
Sensor: Nr:Datum:Temp:Abs-Feuchte:Windchill:Wind:
Aussen-T/F 451 09-05-2008 18:08:01 31 C 6.4 g/m*3 31 C 0 km/h
452 09-05-2008 18:20:02 31.2 C 6.47 g/m*3 31.2 C 0 km/h
453 09-05-2008 18:32:01 31.3 C 6.5 g/m*3 31.3 C 0 km/h
454 09-05-2008 18:44:01 31.2 C 6.47 g/m*3 31.2 C 0 km/h
455 09-05-2008 18:56:02 31.2 C 6.47 g/m*3 31.2 C 0 km/h
456 09-05-2008 19:08:01 31.4 C 6.54 g/m*3 31.4 C 0 km/h
457 09-05-2008 19:20:02 30.6 C 6.26 g/m*3 30.6 C 0 km/h
458 09-05-2008 19:32:02 30.4 C 6.2 g/m*3 30.4 C 0 km/h
459 09-05-2008 19:44:02 30.2 C 6.13 g/m*3 30.2 C 0 km/h
460 09-05-2008 19:56:02 29.9 C 6.03 g/m*3 29.9 C 0 km/h
461 09-05-2008 20:08:02 29.2 C 5.81 g/m*3 29.2 C 0 km/h
462 09-05-2008 20:20:01 28 C 5.44 g/m*3 28 C 0 km/h
463 09-05-2008 20:32:01 26.5 C 5.01 g/m*3 26.5 C 0 km/h
464 09-05-2008 20:44:01 25.3 C 4.68 g/m*3 25.3 C 0 km/h
465 09-05-2008 20:56:02 24.2 C 4.84 g/m*3 24.2 C 0 km/h
466 09-05-2008 21:08:01 23.2 C 4.99 g/m*3 23.2 C 0 km/h
467 09-05-2008 21:20:02 22.5 C 4.99 g/m*3 22.5 C 0 km/h
468 09-05-2008 21:32:02 22 C 5.05 g/m*3 22 C 0 km/h
469 09-05-2008 21:44:02 21.5 C 5.09 g/m*3 21.5 C 0 km/h
470 09-05-2008 21:56:02 21.1 C 5.34 g/m*3 21.1 C 0 km/h
471 09-05-2008 22:08:02 20.7 C 5.58 g/m*3 20.7 C 0 km/h
472 09-05-2008 22:20:02 20.4 C 5.66 g/m*3 20.4 C 0 km/h
473 09-05-2008 22:32:02 20 C 5.7 g/m*3 20 C 0 km/h
474 09-05-2008 22:44:03 19.7 C 5.94 g/m*3 19.7 C 0 km/h
475 09-05-2008 22:57:03 19.4 C 5.84 g/m*3 19.4 C 0 km/h
Sensor: Nr:Datum:Temp:Abs-Feuchte:Windchill:Wind:
Aussen-T/F 476 09-05-2008 23:09:03 19 C 5.7 g/m*3 19 C 0 km/h
477 09-05-2008 23:21:03 18.7 C 5.92 g/m*3 18.7 C 0 km/h
478 09-05-2008 23:33:03 18.4 C 5.82 g/m*3 18.4 C 0 km/h
479 09-05-2008 23:45:03 17.9 C 6.26 g/m*3 17.9 C 0 km/h
480 09-05-2008 23:57:03 17.3 C 6.19 g/m*3 17.3 C 0 km/h
481 10-05-2008 00:09:03 17.2 C 6 g/m*3 17.2 C 0 km/h
482 10-05-2008 00:21:03 17 C 5.93 g/m*3 17 C 0 km/h
483 10-05-2008 00:33:03 16.6 C 6.07 g/m*3 16.6 C 0 km/h
484 10-05-2008 00:45:03 16.2 C 6.07 g/m*3 16.2 C 0 km/h
485 10-05-2008 00:57:03 16.1 C 6.03 g/m*3 16.1 C 0 km/h
486 10-05-2008 01:09:03 15.8 C 6.19 g/m*3 15.8 C 0 km/h
487 10-05-2008 01:21:03 15.4 C 6.31 g/m*3 15.4 C 0 km/h
488 10-05-2008 01:33:03 15.2 C 6.36 g/m*3 15.2 C 0 km/h
489 10-05-2008 01:45:03 15.1 C 6.58 g/m*3 15.1 C 0 km/h
490 10-05-2008 01:57:03 15 C 6.54 g/m*3 15 C 0 km/h
491 10-05-2008 02:09:04 15.1 C 6.45 g/m*3 15.1 C 0 km/h
492 10-05-2008 02:21:04 15 C 6.54 g/m*3 15 C 0 km/h
493 10-05-2008 02:33:04 14.8 C 6.59 g/m*3 14.8 C 0 km/h
494 10-05-2008 02:45:04 14.7 C 6.55 g/m*3 14.7 C 0 km/h
495 10-05-2008 02:57:04 14.5 C 6.47 g/m*3 14.5 C 0 km/h
496 10-05-2008 03:09:04 14.4 C 6.68 g/m*3 14.4 C 0 km/h
497 10-05-2008 03:21:04 14 C 6.75 g/m*3 14 C 0 km/h
498 10-05-2008 03:33:04 13.7 C 6.75 g/m*3 13.7 C 0 km/h
499 10-05-2008 03:45:04 13.4 C 6.74 g/m*3 13.4 C 0 km/h
500 10-05-2008 03:57:04 13.1 C 6.85 g/m*3 13.1 C 0 km/h
Sensor: Nr:Datum:Temp:Abs-Feuchte:Windchill:Wind:
Aussen-T/F 501 10-05-2008 04:09:04 12.9 C 6.99 g/m*3 12.9 C 0 km/h
502 10-05-2008 04:21:04 12.7 C 7.01 g/m*3 12.7 C 0 km/h
503 10-05-2008 04:33:04 12.6 C 6.97 g/m*3 12.6 C 0 km/h
504 10-05-2008 04:45:04 12.4 C 6.99 g/m*3 12.4 C 0 km/h
505 10-05-2008 04:57:04 12.2 C 7.01 g/m*3 12.2 C 0 km/h
506 10-05-2008 05:09:04 12 C 7.03 g/m*3 12 C 0 km/h
507 10-05-2008 05:21:04 11.8 C 7.16 g/m*3 11.8 C 0 km/h
508 10-05-2008 05:33:04 11.5 C 7.13 g/m*3 11.5 C 0 km/h
509 10-05-2008 05:45:04 11.4 C 6.98 g/m*3 11.4 C 0 km/h
510 10-05-2008 05:57:04 11.4 C 7.08 g/m*3 11.4 C 0 km/h
511 10-05-2008 06:09:05 11.3 C 7.04 g/m*3 11.3 C 0 km/h
512 10-05-2008 06:21:05 11.2 C 6.99 g/m*3 11.2 C 0 km/h
513 10-05-2008 06:33:05 11.2 C 6.99 g/m*3 11.2 C 0 km/h
514 10-05-2008 06:45:05 11.3 C 7.14 g/m*3 11.3 C 0 km/h
515 10-05-2008 06:57:05 11.3 C 7.14 g/m*3 11.3 C 0 km/h
516 10-05-2008 07:09:05 11.4 C 7.19 g/m*3 11.4 C 0 km/h
517 10-05-2008 07:21:05 11.6 C 7.38 g/m*3 11.6 C 0 km/h
518 10-05-2008 07:33:05 11.8 C 7.47 g/m*3 11.8 C 0 km/h
519 10-05-2008 07:45:05 12.1 C 7.4 g/m*3 12.1 C 0 km/h
520 10-05-2008 07:57:05 12.1 C 7.51 g/m*3 12.1 C 0 km/h
521 10-05-2008 08:09:05 12.3 C 7.49 g/m*3 12.3 C 0 km/h
522 10-05-2008 08:21:05 12.8 C 7.62 g/m*3 12.8 C 0 km/h
523 10-05-2008 08:33:05 13.1 C 7.42 g/m*3 13.1 C 0 km/h
524 10-05-2008 08:45:05 13.5 C 7.6 g/m*3 13.5 C 0 km/h
525 10-05-2008 08:57:05 14 C 7.72 g/m*3 14 C 0 km/h
Sensor: Nr:Datum:Temp:Abs-Feuchte:Windchill:Wind:
Aussen-T/F 526 10-05-2008 09:09:05 15.2 C 7.79 g/m*3 15.2 C 0 km/h
527 10-05-2008 09:21:05 16.2 C 7.45 g/m*3 16.2 C 0 km/h
528 10-05-2008 09:33:02 17 C 7.09 g/m*3 17 C 0 km/h
529 10-05-2008 09:45:01 17.8 C 7.13 g/m*3 17.8 C 0 km/h
530 10-05-2008 09:57:01 18.5 C 6.49 g/m*3 18.5 C 0 km/h
531 10-05-2008 10:09:02 19.3 C 6.63 g/m*3 19.3 C 0 km/h
532 10-05-2008 10:21:02 19.9 C 6.53 g/m*3 19.9 C 0 km/h
533 10-05-2008 10:33:01 20.5 C 6.41 g/m*3 20.5 C 0 km/h
534 10-05-2008 10:45:01 20.9 C 6.56 g/m*3 20.9 C 0 km/h
535 10-05-2008 10:57:01 21.5 C 6.41 g/m*3 21.5 C 0 km/h
536 10-05-2008 11:09:02 22 C 6.21 g/m*3 22 C 0 km/h
537 10-05-2008 11:21:02 22.6 C 6.23 g/m*3 22.6 C 0 km/h
538 10-05-2008 11:33:01 23.2 C 6.24 g/m*3 23.2 C 0 km/h
539 10-05-2008 11:45:01 23.6 C 5.96 g/m*3 23.6 C 0 km/h
540 10-05-2008 11:57:01 23.9 C 5.84 g/m*3 23.9 C 0 km/h
541 10-05-2008 12:09:02 24.3 C 5.75 g/m*3 24.3 C 0 km/h
542 10-05-2008 12:21:02 24.8 C 5.69 g/m*3 24.8 C 0 km/h
543 10-05-2008 12:33:01 25.4 C 5.65 g/m*3 25.4 C 0 km/h
544 10-05-2008 12:45:01 25.8 C 5.3 g/m*3 25.8 C 0 km/h
545 10-05-2008 12:57:01 26.2 C 5.17 g/m*3 26.2 C 0 km/h
546 10-05-2008 13:09:02 26.8 C 5.09 g/m*3 26.8 C 0 km/h
547 10-05-2008 13:21:01 27.8 C 5.38 g/m*3 27.8 C 0 km/h
548 10-05-2008 13:33:01 28.6 C 5.62 g/m*3 28.6 C 0 km/h
549 10-05-2008 13:45:01 28.4 C 5.56 g/m*3 28.4 C 0 km/h
550 10-05-2008 13:57:01 28.1 C 5.47 g/m*3 28.1 C 0 km/h
Sensor: Nr:Datum:Temp:Abs-Feuchte:Windchill:Wind:
Aussen-T/F 551 10-05-2008 14:09:02 27.9 C 5.41 g/m*3 27.9 C 0 km/h
552 10-05-2008 14:21:01 28.2 C 5.5 g/m*3 28.2 C 0 km/h
553 10-05-2008 14:33:01 28.2 C 5.5 g/m*3 28.2 C 0 km/h
554 10-05-2008 14:45:01 28.8 C 5.68 g/m*3 28.8 C 0 km/h
555 10-05-2008 14:57:01 29.3 C 5.84 g/m*3 29.3 C 0 km/h
556 10-05-2008 15:09:02 30 C 6.06 g/m*3 30 C 0 km/h
557 10-05-2008 15:21:02 30.4 C 6.2 g/m*3 30.4 C 0 km/h
558 10-05-2008 15:33:01 30.6 C 6.26 g/m*3 30.6 C 0 km/h
559 10-05-2008 15:45:02 30.7 C 6.3 g/m*3 30.7 C 0 km/h
560 10-05-2008 15:57:02 30.7 C 6.3 g/m*3 30.7 C 0 km/h
561 10-05-2008 16:09:02 30.6 C 6.26 g/m*3 30.6 C 0 km/h
562 10-05-2008 16:21:01 31 C 6.4 g/m*3 31 C 0 km/h
563 10-05-2008 16:33:02 31 C 6.4 g/m*3 31 C 0 km/h
564 10-05-2008 16:45:02 31.4 C 6.54 g/m*3 31.4 C 0 km/h
565 10-05-2008 16:57:02 31.4 C 6.54 g/m*3 31.4 C 0 km/h
566 10-05-2008 17:09:01 31.7 C 6.64 g/m*3 31.7 C 0 km/h
567 10-05-2008 17:21:01 31.7 C 6.64 g/m*3 31.7 C 0 km/h
568 10-05-2008 17:33:02 31.7 C 6.64 g/m*3 31.7 C 0 km/h
569 10-05-2008 17:45:02 31.7 C 6.64 g/m*3 31.7 C 0 km/h
570 10-05-2008 17:57:02 31.5 C 6.57 g/m*3 31.5 C 0 km/h
571 10-05-2008 18:09:02 31.5 C 6.57 g/m*3 31.5 C 0 km/h
572 10-05-2008 18:21:02 31.4 C 6.54 g/m*3 31.4 C 0 km/h
573 10-05-2008 18:33:02 31.5 C 6.57 g/m*3 31.5 C 0 km/h
574 10-05-2008 18:45:02 31 C 6.4 g/m*3 31 C 0 km/h
575 10-05-2008 18:57:03 31.2 C 6.47 g/m*3 31.2 C 0 km/h
Sensor: Nr:Datum:Temp:Abs-Feuchte:Windchill:Wind:
Aussen-T/F 576 10-05-2008 19:09:01 31 C 6.4 g/m*3 31 C 0 km/h
577 10-05-2008 19:21:02 30.8 C 6.33 g/m*3 30.8 C 0 km/h
578 10-05-2008 19:33:02 30.7 C 6.3 g/m*3 30.7 C 0 km/h
579 10-05-2008 19:45:02 30.3 C 6.16 g/m*3 30.3 C 0 km/h
580 10-05-2008 19:57:02 30 C 6.06 g/m*3 30 C 0 km/h
581 10-05-2008 20:09:02 29.5 C 5.9 g/m*3 29.5 C 0 km/h
582 10-05-2008 20:21:02 29 C 5.74 g/m*3 29 C 0 km/h
583 10-05-2008 20:33:02 27.5 C 5.29 g/m*3 27.5 C 0 km/h
584 10-05-2008 20:45:01 25.8 C 4.82 g/m*3 25.8 C 0 km/h
585 10-05-2008 20:57:01 24.2 C 4.4 g/m*3 24.2 C 0 km/h
586 10-05-2008 21:09:01 23.6 C 4.25 g/m*3 23.6 C 0 km/h
587 10-05-2008 21:21:02 23.2 C 4.16 g/m*3 23.2 C 0 km/h
588 10-05-2008 21:33:01 22.9 C 5.11 g/m*3 22.9 C 0 km/h
589 10-05-2008 21:45:01 22.6 C 5.22 g/m*3 22.6 C 0 km/h
590 10-05-2008 21:57:01 22.4 C 5.36 g/m*3 22.4 C 0 km/h
591 10-05-2008 22:09:02 21.9 C 5.6 g/m*3 21.9 C 0 km/h
592 10-05-2008 22:21:02 21.5 C 5.66 g/m*3 21.5 C 0 km/h
593 10-05-2008 22:33:01 21.2 C 5.74 g/m*3 21.2 C 0 km/h
594 10-05-2008 22:45:01 20.8 C 5.79 g/m*3 20.8 C 0 km/h
595 10-05-2008 22:57:01 20.8 C 5.79 g/m*3 20.8 C 0 km/h
596 10-05-2008 23:09:02 20.5 C 5.69 g/m*3 20.5 C 0 km/h
597 10-05-2008 23:21:01 20.3 C 5.8 g/m*3 20.3 C 0 km/h
598 10-05-2008 23:33:01 20 C 5.88 g/m*3 20 C 0 km/h
599 10-05-2008 23:45:01 19.8 C 5.98 g/m*3 19.8 C 0 km/h
600 10-05-2008 23:57:01 19.6 C 5.91 g/m*3 19.6 C 0 km/h
Sensor: Nr:Datum:Temp:Abs-Feuchte:Windchill:Wind:
Aussen-T/F 601 11-05-2008 00:10:02 19.3 C 5.81 g/m*3 19.3 C 0 km/h
602 11-05-2008 00:22:02 19.1 C 5.9 g/m*3 19.1 C 0 km/h
603 11-05-2008 00:34:02 18.8 C 5.8 g/m*3 18.8 C 0 km/h
604 11-05-2008 00:46:02 18.5 C 5.85 g/m*3 18.5 C 0 km/h
605 11-05-2008 00:58:02 18.3 C 5.94 g/m*3 18.3 C 0 km/h
606 11-05-2008 01:10:02 18.3 C 5.79 g/m*3 18.3 C 0 km/h
607 11-05-2008 01:22:02 18 C 5.84 g/m*3 18 C 0 km/h
608 11-05-2008 01:34:02 17.6 C 6 g/m*3 17.6 C 0 km/h
609 11-05-2008 01:46:03 17.5 C 5.96 g/m*3 17.5 C 0 km/h
610 11-05-2008 01:58:03 17.2 C 6 g/m*3 17.2 C 0 km/h
611 11-05-2008 02:10:03 17 C 5.93 g/m*3 17 C 0 km/h
612 11-05-2008 02:22:03 16.8 C 6 g/m*3 16.8 C 0 km/h
613 11-05-2008 02:34:03 16.5 C 5.9 g/m*3 16.5 C 0 km/h
614 11-05-2008 02:46:03 16.2 C 6.07 g/m*3 16.2 C 0 km/h
615 11-05-2008 02:58:03 15.8 C 6.19 g/m*3 15.8 C 0 km/h
616 11-05-2008 03:10:03 15.6 C 6.25 g/m*3 15.6 C 0 km/h
617 11-05-2008 03:22:03 15.2 C 6.23 g/m*3 15.2 C 0 km/h
618 11-05-2008 03:34:03 14.9 C 6.25 g/m*3 14.9 C 0 km/h
619 11-05-2008 03:46:03 14.7 C 6.42 g/m*3 14.7 C 0 km/h
620 11-05-2008 03:58:03 14.4 C 6.43 g/m*3 14.4 C 0 km/h
621 11-05-2008 04:10:03 14.2 C 6.35 g/m*3 14.2 C 0 km/h
622 11-05-2008 04:22:03 13.7 C 6.28 g/m*3 13.7 C 0 km/h
623 11-05-2008 04:34:03 13.6 C 6.36 g/m*3 13.6 C 0 km/h
624 11-05-2008 04:46:03 13.5 C 6.55 g/m*3 13.5 C 0 km/h
625 11-05-2008 04:58:03 13.2 C 6.32 g/m*3 13.2 C 0 km/h
Sensor: Nr:Datum:Temp:Abs-Feuchte:Windchill:Wind:
Aussen-T/F 626 11-05-2008 05:10:03 13.1 C 6.28 g/m*3 13.1 C 0 km/h
627 11-05-2008 05:22:03 13 C 6.24 g/m*3 13 C 0 km/h
628 11-05-2008 05:34:04 12.9 C 6.42 g/m*3 12.9 C 0 km/h
629 11-05-2008 05:46:04 12.7 C 6.35 g/m*3 12.7 C 0 km/h
630 11-05-2008 05:58:04 12.6 C 6.42 g/m*3 12.6 C 0 km/h
631 11-05-2008 06:10:04 12.5 C 6.49 g/m*3 12.5 C 0 km/h
632 11-05-2008 06:22:04 12.4 C 6.56 g/m*3 12.4 C 0 km/h
633 11-05-2008 06:34:04 12.2 C 6.47 g/m*3 12.2 C 0 km/h
634 11-05-2008 06:46:04 12.3 C 6.62 g/m*3 12.3 C 0 km/h
635 11-05-2008 06:58:04 12.4 C 6.77 g/m*3 12.4 C 0 km/h
636 11-05-2008 07:10:04 12.3 C 6.84 g/m*3 12.3 C 0 km/h
637 11-05-2008 07:22:04 12.6 C 6.97 g/m*3 12.6 C 0 km/h
638 11-05-2008 07:34:04 12.7 C 7.01 g/m*3 12.7 C 0 km/h
639 11-05-2008 07:46:02 12.7 C 7.01 g/m*3 12.7 C 0 km/h
640 11-05-2008 07:58:02 12.9 C 7.21 g/m*3 12.9 C 0 km/h
641 11-05-2008 08:10:02 13.1 C 7.07 g/m*3 13.1 C 0 km/h
642 11-05-2008 08:22:03 13.4 C 7.21 g/m*3 13.4 C 0 km/h
643 11-05-2008 08:34:03 13.8 C 7.27 g/m*3 13.8 C 0 km/h
644 11-05-2008 08:46:03 14.1 C 7.16 g/m*3 14.1 C 0 km/h
645 11-05-2008 08:58:03 14.8 C 7.22 g/m*3 14.8 C 0 km/h
646 11-05-2008 09:10:02 15.6 C 7.18 g/m*3 15.6 C 0 km/h
647 11-05-2008 09:34:03 17.2 C 6.74 g/m*3 17.2 C 0 km/h
648 11-05-2008 09:46:03 18 C 6.3 g/m*3 18 C 0 km/h
649 11-05-2008 09:58:03 18.7 C 6.24 g/m*3 18.7 C 0 km/h
650 11-05-2008 10:10:04 19.5 C 6.04 g/m*3 19.5 C 0 km/h
Sensor: Nr:Datum:Temp:Abs-Feuchte:Windchill:Wind:
Aussen-T/F 651 11-05-2008 10:22:03 20 C 5.88 g/m*3 20 C 0 km/h
652 11-05-2008 10:34:03 20.4 C 5.66 g/m*3 20.4 C 0 km/h
653 11-05-2008 10:46:03 20.8 C 5.61 g/m*3 20.8 C 0 km/h
654 11-05-2008 10:58:03 21.2 C 5 g/m*3 21.2 C 0 km/h
655 11-05-2008 11:10:02 21.8 C 5.18 g/m*3 21.8 C 0 km/h
656 11-05-2008 11:22:02 22.3 C 4.94 g/m*3 22.3 C 0 km/h
657 11-05-2008 11:34:02 22.7 C 4.85 g/m*3 22.7 C 0 km/h
658 11-05-2008 11:46:02 23.2 C 4.78 g/m*3 23.2 C 0 km/h
659 11-05-2008 11:58:02 23.4 C 4.42 g/m*3 23.4 C 0 km/h
660 11-05-2008 12:10:02 23.4 C 4.63 g/m*3 23.4 C 0 km/h
661 11-05-2008 12:22:01 24.1 C 4.81 g/m*3 24.1 C 0 km/h
662 11-05-2008 12:34:02 24.8 C 4.55 g/m*3 24.8 C 0 km/h
663 11-05-2008 12:46:02 25.7 C 4.79 g/m*3 25.7 C 0 km/h
664 11-05-2008 12:58:02 25.8 C 4.82 g/m*3 25.8 C 0 km/h
665 11-05-2008 13:10:02 26.6 C 5.03 g/m*3 26.6 C 0 km/h
666 11-05-2008 13:22:02 26.8 C 5.09 g/m*3 26.8 C 0 km/h
667 11-05-2008 13:34:02 27.5 C 5.29 g/m*3 27.5 C 0 km/h
668 11-05-2008 13:46:01 27.1 C 5.18 g/m*3 27.1 C 0 km/h
669 11-05-2008 13:58:01 26.7 C 5.06 g/m*3 26.7 C 0 km/h
670 11-05-2008 14:10:02 26.5 C 5.01 g/m*3 26.5 C 0 km/h
671 11-05-2008 14:22:02 26.4 C 4.98 g/m*3 26.4 C 0 km/h
672 11-05-2008 14:34:01 26.5 C 5.01 g/m*3 26.5 C 0 km/h
673 11-05-2008 14:46:02 27.5 C 5.29 g/m*3 27.5 C 0 km/h
674 11-05-2008 14:58:02 28.1 C 5.47 g/m*3 28.1 C 0 km/h
675 11-05-2008 15:10:02 28.6 C 5.62 g/m*3 28.6 C 0 km/h
Sensor: Nr:Datum:Temp:Abs-Feuchte:Windchill:Wind:
Aussen-T/F 676 11-05-2008 15:22:02 28.7 C 5.65 g/m*3 28.7 C 0 km/h
677 11-05-2008 15:34:02 29.5 C 5.9 g/m*3 29.5 C 0 km/h
678 11-05-2008 15:46:02 29 C 5.74 g/m*3 29 C 0 km/h
679 11-05-2008 15:58:02 29.5 C 5.9 g/m*3 29.5 C 0 km/h
680 11-05-2008 16:10:02 30 C 6.06 g/m*3 30 C 0 km/h
681 11-05-2008 16:22:02 30 C 6.06 g/m*3 30 C 0 km/h
682 11-05-2008 16:34:02 30.1 C 6.1 g/m*3 30.1 C 0 km/h
683 11-05-2008 16:46:01 30.6 C 6.26 g/m*3 30.6 C 0 km/h
684 11-05-2008 16:58:02 30.7 C 6.3 g/m*3 30.7 C 0 km/h
685 11-05-2008 17:10:01 30.7 C 6.3 g/m*3 30.7 C 0 km/h
686 11-05-2008 17:22:01 30.6 C 6.26 g/m*3 30.6 C 0 km/h
687 11-05-2008 17:34:02 30.4 C 6.2 g/m*3 30.4 C 0 km/h
688 11-05-2008 17:46:03 30.7 C 6.3 g/m*3 30.7 C 0 km/h
689 11-05-2008 17:58:03 30.4 C 6.2 g/m*3 30.4 C 0 km/h
690 11-05-2008 18:10:02 30.6 C 6.26 g/m*3 30.6 C 0 km/h
691 11-05-2008 18:22:02 30.5 C 6.23 g/m*3 30.5 C 0 km/h
692 11-05-2008 18:34:02 30.4 C 6.2 g/m*3 30.4 C 0 km/h
693 11-05-2008 18:46:02 30.4 C 6.2 g/m*3 30.4 C 0 km/h
694 11-05-2008 18:58:02 30.2 C 6.13 g/m*3 30.2 C 0 km/h
695 11-05-2008 19:10:02 30 C 6.06 g/m*3 30 C 0 km/h
696 11-05-2008 19:22:02 29.5 C 5.9 g/m*3 29.5 C 0 km/h
697 11-05-2008 19:34:02 29.1 C 5.78 g/m*3 29.1 C 0 km/h
698 11-05-2008 19:46:02 28.5 C 5.59 g/m*3 28.5 C 0 km/h
699 11-05-2008 19:58:02 27.8 C 5.38 g/m*3 27.8 C 0 km/h
700 11-05-2008 20:10:02 27.4 C 5.26 g/m*3 27.4 C 0 km/h
Sensor: Nr:Datum:Temp:Abs-Feuchte:Windchill:Wind:
Aussen-T/F 701 11-05-2008 20:22:03 26.7 C 5.06 g/m*3 26.7 C 0 km/h
702 11-05-2008 20:34:02 25.6 C 4.76 g/m*3 25.6 C 0 km/h
703 11-05-2008 20:46:02 23.5 C 4.23 g/m*3 23.5 C 0 km/h
704 11-05-2008 20:58:02 23.1 C 4.13 g/m*3 23.1 C 0 km/h
705 11-05-2008 21:10:01 22.2 C 4.12 g/m*3 22.2 C 0 km/h
706 11-05-2008 21:22:01 21.8 C 4.6 g/m*3 21.8 C 0 km/h
707 11-05-2008 21:34:02 21.6 C 4.74 g/m*3 21.6 C 0 km/h
708 11-05-2008 21:46:02 21.3 C 4.85 g/m*3 21.3 C 0 km/h
709 11-05-2008 21:58:02 20.9 C 5.1 g/m*3 20.9 C 0 km/h
710 11-05-2008 22:10:02 20.6 C 5.19 g/m*3 20.6 C 0 km/h
711 11-05-2008 22:22:02 20.3 C 5.28 g/m*3 20.3 C 0 km/h
712 11-05-2008 22:34:02 19.9 C 5.5 g/m*3 19.9 C 0 km/h
713 11-05-2008 22:46:02 19.6 C 5.57 g/m*3 19.6 C 0 km/h
714 11-05-2008 22:58:02 19.3 C 5.64 g/m*3 19.3 C 0 km/h
715 11-05-2008 23:11:03 19.1 C 5.74 g/m*3 19.1 C 0 km/h
716 11-05-2008 23:23:03 18.8 C 5.64 g/m*3 18.8 C 0 km/h
717 11-05-2008 23:35:03 18.6 C 5.57 g/m*3 18.6 C 0 km/h
718 11-05-2008 23:47:04 18.3 C 5.63 g/m*3 18.3 C 0 km/h
719 11-05-2008 23:59:04 17.9 C 5.8 g/m*3 17.9 C 0 km/h
720 12-05-2008 00:11:04 17.7 C 5.88 g/m*3 17.7 C 0 km/h
721 12-05-2008 00:23:04 17.3 C 5.89 g/m*3 17.3 C 0 km/h
722 12-05-2008 00:35:04 17 C 5.79 g/m*3 17 C 0 km/h
723 12-05-2008 00:47:04 16.8 C 5.86 g/m*3 16.8 C 0 km/h
724 12-05-2008 00:59:04 16.6 C 5.93 g/m*3 16.6 C 0 km/h
725 12-05-2008 01:11:04 16.4 C 6.14 g/m*3 16.4 C 0 km/h
Sensor: Nr:Datum:Temp:Abs-Feuchte:Windchill:Wind:
Aussen-T/F 726 12-05-2008 01:23:04 16.2 C 6.07 g/m*3 16.2 C 0 km/h
727 12-05-2008 01:35:04 16.2 C 5.93 g/m*3 16.2 C 0 km/h
728 12-05-2008 01:47:04 16.3 C 5.97 g/m*3 16.3 C 0 km/h
729 12-05-2008 01:59:04 16.1 C 6.03 g/m*3 16.1 C 0 km/h
730 12-05-2008 02:11:04 15.6 C 6.25 g/m*3 15.6 C 0 km/h
731 12-05-2008 02:23:04 15.2 C 6.1 g/m*3 15.2 C 0 km/h
732 12-05-2008 02:35:04 15.1 C 6.06 g/m*3 15.1 C 0 km/h
733 12-05-2008 02:47:04 15 C 6.28 g/m*3 15 C 0 km/h
734 12-05-2008 02:59:04 14.6 C 6.26 g/m*3 14.6 C 0 km/h
735 12-05-2008 03:11:04 14.5 C 6.22 g/m*3 14.5 C 0 km/h
736 12-05-2008 03:23:04 14.4 C 6.18 g/m*3 14.4 C 0 km/h
737 12-05-2008 03:35:04 14.1 C 6.19 g/m*3 14.1 C 0 km/h
738 12-05-2008 03:47:05 13.8 C 6.31 g/m*3 13.8 C 0 km/h
739 12-05-2008 03:59:05 13.6 C 6.36 g/m*3 13.6 C 0 km/h
740 12-05-2008 04:11:05 13.2 C 6.32 g/m*3 13.2 C 0 km/h
741 12-05-2008 04:23:05 13.1 C 6.39 g/m*3 13.1 C 0 km/h
742 12-05-2008 04:35:05 13 C 6.46 g/m*3 13 C 0 km/h
743 12-05-2008 04:47:05 12.8 C 6.61 g/m*3 12.8 C 0 km/h
744 12-05-2008 04:59:05 12.7 C 6.57 g/m*3 12.7 C 0 km/h
745 12-05-2008 05:11:05 12.4 C 6.56 g/m*3 12.4 C 0 km/h
746 12-05-2008 05:23:05 12.3 C 6.62 g/m*3 12.3 C 0 km/h
747 12-05-2008 05:35:05 12.1 C 6.65 g/m*3 12.1 C 0 km/h
748 12-05-2008 05:47:01 12 C 6.61 g/m*3 12 C 0 km/h
749 12-05-2008 05:59:01 12.2 C 6.69 g/m*3 12.2 C 0 km/h
750 12-05-2008 06:11:01 11.7 C 6.69 g/m*3 11.7 C 0 km/h
Sensor: Nr:Datum:Temp:Abs-Feuchte:Windchill:Wind:
Aussen-T/F 751 12-05-2008 06:23:02 11.6 C 6.65 g/m*3 11.6 C 0 km/h
752 12-05-2008 06:35:01 11.5 C 6.82 g/m*3 11.5 C 0 km/h
753 12-05-2008 06:47:01 11.5 C 6.82 g/m*3 11.5 C 0 km/h
754 12-05-2008 06:59:01 11.4 C 6.88 g/m*3 11.4 C 0 km/h
755 12-05-2008 07:11:02 11.7 C 7.11 g/m*3 11.7 C 0 km/h
756 12-05-2008 07:23:02 11.6 C 6.96 g/m*3 11.6 C 0 km/h
757 12-05-2008 07:35:01 11.8 C 7.05 g/m*3 11.8 C 0 km/h
758 12-05-2008 07:47:02 12.1 C 7.08 g/m*3 12.1 C 0 km/h
759 12-05-2008 07:59:02 12.3 C 7.06 g/m*3 12.3 C 0 km/h
760 12-05-2008 08:11:02 12.5 C 7.15 g/m*3 12.5 C 0 km/h
761 12-05-2008 08:23:02 12.8 C 7.28 g/m*3 12.8 C 0 km/h
762 12-05-2008 08:35:02 13.1 C 7.3 g/m*3 13.1 C 0 km/h
763 12-05-2008 08:47:02 13.6 C 7.41 g/m*3 13.6 C 0 km/h
764 12-05-2008 08:59:02 14.2 C 7.45 g/m*3 14.2 C 0 km/h
765 12-05-2008 09:11:02 15 C 7.57 g/m*3 15 C 0 km/h
766 12-05-2008 09:23:01 15.9 C 7.72 g/m*3 15.9 C 0 km/h
767 12-05-2008 09:35:01 17.1 C 7.13 g/m*3 17.1 C 0 km/h
768 12-05-2008 09:47:01 18.1 C 6.64 g/m*3 18.1 C 0 km/h
769 12-05-2008 09:59:01 19.1 C 6.39 g/m*3 19.1 C 0 km/h
770 12-05-2008 10:11:01 19.6 C 5.91 g/m*3 19.6 C 0 km/h
771 12-05-2008 10:23:02 20.1 C 5.74 g/m*3 20.1 C 0 km/h
772 12-05-2008 10:35:01 20.7 C 5.76 g/m*3 20.7 C 0 km/h
773 12-05-2008 10:47:02 21.2 C 5.56 g/m*3 21.2 C 0 km/h
774 12-05-2008 10:59:02 21.7 C 5.53 g/m*3 21.7 C 0 km/h
775 12-05-2008 11:11:01 22.3 C 5.33 g/m*3 22.3 C 0 km/h
Sensor: Nr:Datum:Temp:Abs-Feuchte:Windchill:Wind:
Aussen-T/F 776 12-05-2008 11:23:02 22.8 C 5.28 g/m*3 22.8 C 0 km/h
777 12-05-2008 11:35:01 23.2 C 5.2 g/m*3 23.2 C 0 km/h
778 12-05-2008 11:47:02 23.7 C 5.13 g/m*3 23.7 C 0 km/h
779 12-05-2008 11:59:02 23.9 C 4.98 g/m*3 23.9 C 0 km/h
780 12-05-2008 12:11:02 24.2 C 4.62 g/m*3 24.2 C 0 km/h
781 12-05-2008 12:23:02 24.2 C 4.4 g/m*3 24.2 C 0 km/h
782 12-05-2008 12:35:02 25.5 C 4.73 g/m*3 25.5 C 0 km/h
783 12-05-2008 12:47:02 26.3 C 4.95 g/m*3 26.3 C 0 km/h
784 12-05-2008 12:59:02 26.4 C 4.98 g/m*3 26.4 C 0 km/h
785 12-05-2008 13:11:01 27.2 C 5.2 g/m*3 27.2 C 0 km/h
786 12-05-2008 13:23:02 28 C 5.44 g/m*3 28 C 0 km/h
787 12-05-2008 13:35:02 28.2 C 5.5 g/m*3 28.2 C 0 km/h
788 12-05-2008 13:47:02 28.1 C 5.47 g/m*3 28.1 C 0 km/h
789 12-05-2008 13:59:02 27.7 C 5.35 g/m*3 27.7 C 0 km/h
790 12-05-2008 14:11:02 28 C 5.44 g/m*3 28 C 0 km/h
791 12-05-2008 14:23:02 27.3 C 5.23 g/m*3 27.3 C 0 km/h
792 12-05-2008 14:35:02 28 C 5.44 g/m*3 28 C 0 km/h
793 12-05-2008 14:47:02 28.7 C 5.65 g/m*3 28.7 C 0 km/h
794 12-05-2008 14:59:02 29.2 C 5.81 g/m*3 29.2 C 0 km/h
795 12-05-2008 15:11:02 28.2 C 5.5 g/m*3 28.2 C 0 km/h
796 12-05-2008 15:23:02 29.2 C 5.81 g/m*3 29.2 C 0 km/h
797 12-05-2008 15:35:02 29.8 C 6 g/m*3 29.8 C 0 km/h
798 12-05-2008 15:47:01 30.3 C 6.16 g/m*3 30.3 C 0 km/h
799 12-05-2008 15:59:01 30.4 C 6.2 g/m*3 30.4 C 0 km/h
800 12-05-2008 16:11:01 30.2 C 6.13 g/m*3 30.2 C 0 km/h
Sensor: Nr:Datum:Temp:Abs-Feuchte:Windchill:Wind:
Aussen-T/F 801 12-05-2008 16:23:02 30.1 C 6.1 g/m*3 30.1 C 0 km/h
802 12-05-2008 16:35:01 30.8 C 6.33 g/m*3 30.8 C 0 km/h
803 12-05-2008 16:47:02 31.4 C 6.54 g/m*3 31.4 C 0 km/h
804 12-05-2008 16:59:02 31 C 6.4 g/m*3 31 C 0 km/h
805 12-05-2008 17:11:02 29 C 5.74 g/m*3 29 C 0 km/h
806 12-05-2008 17:23:02 29.5 C 5.9 g/m*3 29.5 C 0 km/h
807 12-05-2008 17:35:01 30.9 C 6.37 g/m*3 30.9 C 0 km/h
808 12-05-2008 17:47:01 29.1 C 5.78 g/m*3 29.1 C 0 km/h
809 12-05-2008 17:59:01 30.3 C 6.16 g/m*3 30.3 C 0 km/h
810 12-05-2008 18:11:02 31 C 6.4 g/m*3 31 C 0 km/h
811 12-05-2008 18:23:02 31.5 C 6.57 g/m*3 31.5 C 0 km/h
812 12-05-2008 18:35:01 30.7 C 6.3 g/m*3 30.7 C 0 km/h
813 12-05-2008 18:47:01 30.7 C 6.3 g/m*3 30.7 C 0 km/h
814 12-05-2008 18:59:01 30.7 C 6.3 g/m*3 30.7 C 0 km/h
815 12-05-2008 19:11:02 30.7 C 6.3 g/m*3 30.7 C 0 km/h
816 12-05-2008 19:23:02 30.6 C 6.26 g/m*3 30.6 C 0 km/h
817 12-05-2008 19:35:02 29.5 C 5.9 g/m*3 29.5 C 0 km/h
818 12-05-2008 19:47:02 29.2 C 5.81 g/m*3 29.2 C 0 km/h
819 12-05-2008 19:59:02 28.8 C 5.68 g/m*3 28.8 C 0 km/h
820 12-05-2008 20:11:02 28.2 C 5.5 g/m*3 28.2 C 0 km/h
821 12-05-2008 20:23:01 27.4 C 5.26 g/m*3 27.4 C 0 km/h
822 12-05-2008 20:35:02 26.1 C 4.9 g/m*3 26.1 C 0 km/h
823 12-05-2008 20:47:02 24.9 C 4.81 g/m*3 24.9 C 0 km/h
824 12-05-2008 20:59:02 23.8 C 4.95 g/m*3 23.8 C 0 km/h
825 12-05-2008 21:11:02 22.9 C 5.11 g/m*3 22.9 C 0 km/h
Sensor: Nr:Datum:Temp:Abs-Feuchte:Windchill:Wind:
Aussen-T/F 826 12-05-2008 21:23:02 22.1 C 5.08 g/m*3 22.1 C 0 km/h
827 12-05-2008 21:35:02 21.9 C 5.4 g/m*3 21.9 C 0 km/h
828 12-05-2008 21:47:02 21.4 C 5.25 g/m*3 21.4 C 0 km/h
829 12-05-2008 21:59:03 21 C 5.5 g/m*3 21 C 0 km/h
830 12-05-2008 22:11:01 20.6 C 5.37 g/m*3 20.6 C 0 km/h
831 12-05-2008 22:23:02 20.4 C 5.48 g/m*3 20.4 C 0 km/h
832 12-05-2008 22:36:02 19.9 C 5.67 g/m*3 19.9 C 0 km/h
833 12-05-2008 22:48:02 19.6 C 5.74 g/m*3 19.6 C 0 km/h
834 12-05-2008 23:00:02 19.4 C 5.84 g/m*3 19.4 C 0 km/h
835 12-05-2008 23:12:02 19.1 C 5.74 g/m*3 19.1 C 0 km/h
836 12-05-2008 23:24:02 18.9 C 5.83 g/m*3 18.9 C 0 km/h
837 12-05-2008 23:36:02 18.7 C 5.92 g/m*3 18.7 C 0 km/h
838 12-05-2008 23:48:02 18.4 C 6.13 g/m*3 18.4 C 0 km/h
839 13-05-2008 00:00:02 18 C 6.14 g/m*3 18 C 0 km/h
840 13-05-2008 00:12:02 17.7 C 6.19 g/m*3 17.7 C 0 km/h
841 13-05-2008 00:24:02 17.4 C 6.22 g/m*3 17.4 C 0 km/h
842 13-05-2008 00:36:02 17.2 C 6.3 g/m*3 17.2 C 0 km/h
843 13-05-2008 00:48:02 16.9 C 6.47 g/m*3 16.9 C 0 km/h
844 13-05-2008 01:00:02 16.7 C 6.4 g/m*3 16.7 C 0 km/h
845 13-05-2008 01:12:02 16.4 C 6.42 g/m*3 16.4 C 0 km/h
846 13-05-2008 01:24:02 15.9 C 6.5 g/m*3 15.9 C 0 km/h
847 13-05-2008 01:36:02 15.8 C 6.6 g/m*3 15.8 C 0 km/h
848 13-05-2008 01:48:02 15.4 C 6.44 g/m*3 15.4 C 0 km/h
849 13-05-2008 02:00:02 15.5 C 6.34 g/m*3 15.5 C 0 km/h
850 13-05-2008 02:12:02 15.5 C 6.48 g/m*3 15.5 C 0 km/h
Sensor: Nr:Datum:Temp:Abs-Feuchte:Windchill:Wind:
Aussen-T/F 851 13-05-2008 02:24:02 15.1 C 6.32 g/m*3 15.1 C 0 km/h
852 13-05-2008 02:36:03 15 C 6.41 g/m*3 15 C 0 km/h
853 13-05-2008 02:48:03 14.9 C 6.5 g/m*3 14.9 C 0 km/h
854 13-05-2008 03:00:03 14.7 C 6.55 g/m*3 14.7 C 0 km/h
855 13-05-2008 03:12:03 14.5 C 6.34 g/m*3 14.5 C 0 km/h
856 13-05-2008 03:24:03 14.5 C 6.47 g/m*3 14.5 C 0 km/h
857 13-05-2008 03:36:03 14.2 C 6.35 g/m*3 14.2 C 0 km/h
858 13-05-2008 03:48:03 14.1 C 6.43 g/m*3 14.1 C 0 km/h
859 13-05-2008 04:00:03 13.8 C 6.55 g/m*3 13.8 C 0 km/h
860 13-05-2008 04:12:03 13.5 C 6.55 g/m*3 13.5 C 0 km/h
861 13-05-2008 04:24:03 13.2 C 6.66 g/m*3 13.2 C 0 km/h
862 13-05-2008 04:36:03 13 C 6.69 g/m*3 13 C 0 km/h
863 13-05-2008 04:48:03 13 C 6.58 g/m*3 13 C 0 km/h
864 13-05-2008 05:00:03 12.8 C 6.61 g/m*3 12.8 C 0 km/h
865 13-05-2008 05:12:03 12.6 C 6.64 g/m*3 12.6 C 0 km/h
866 13-05-2008 05:24:03 12.4 C 6.66 g/m*3 12.4 C 0 km/h
867 13-05-2008 05:36:03 12.3 C 6.62 g/m*3 12.3 C 0 km/h
868 13-05-2008 05:48:03 12.1 C 6.54 g/m*3 12.1 C 0 km/h
869 13-05-2008 06:00:03 12 C 6.71 g/m*3 12 C 0 km/h
870 13-05-2008 06:12:03 11.7 C 6.69 g/m*3 11.7 C 0 km/h
871 13-05-2008 06:24:03 11.8 C 6.84 g/m*3 11.8 C 0 km/h
872 13-05-2008 06:36:03 11.8 C 6.84 g/m*3 11.8 C 0 km/h
873 13-05-2008 06:48:02 12.2 C 7.01 g/m*3 12.2 C 0 km/h
874 13-05-2008 07:00:02 12.3 C 7.06 g/m*3 12.3 C 0 km/h
875 13-05-2008 07:12:01 12.4 C 7.1 g/m*3 12.4 C 0 km/h
Sensor: Nr:Datum:Temp:Abs-Feuchte:Windchill:Wind:
Aussen-T/F 876 13-05-2008 07:24:01 12.6 C 7.19 g/m*3 12.6 C 0 km/h
877 13-05-2008 07:36:02 12.3 C 7.28 g/m*3 12.3 C 0 km/h
878 13-05-2008 07:48:02 12.2 C 7.23 g/m*3 12.2 C 0 km/h
879 13-05-2008 08:00:02 12.6 C 7.19 g/m*3 12.6 C 0 km/h
880 13-05-2008 08:12:02 13 C 7.26 g/m*3 13 C 0 km/h
881 13-05-2008 08:24:02 13.2 C 7.35 g/m*3 13.2 C 0 km/h
882 13-05-2008 08:36:02 13.5 C 7.37 g/m*3 13.5 C 0 km/h
883 13-05-2008 08:48:02 14.2 C 7.45 g/m*3 14.2 C 0 km/h
884 13-05-2008 09:00:02 15 C 7.31 g/m*3 15 C 0 km/h
885 13-05-2008 09:12:02 15.6 C 7.58 g/m*3 15.6 C 0 km/h
886 13-05-2008 09:24:01 16.2 C 7.45 g/m*3 16.2 C 0 km/h
887 13-05-2008 09:36:01 17.1 C 7.42 g/m*3 17.1 C 0 km/h
888 13-05-2008 09:48:02 17.7 C 7.69 g/m*3 17.7 C 0 km/h
889 13-05-2008 10:00:02 18.3 C 7.82 g/m*3 18.3 C 0 km/h
890 13-05-2008 10:12:02 19 C 7.66 g/m*3 19 C 0 km/h
891 13-05-2008 10:24:02 19.8 C 7.86 g/m*3 19.8 C 0 km/h
892 13-05-2008 10:36:02 20.5 C 7.47 g/m*3 20.5 C 0 km/h
893 13-05-2008 10:48:02 21.3 C 7.46 g/m*3 21.3 C 0 km/h
894 13-05-2008 11:00:02 22.4 C 6.55 g/m*3 22.4 C 0 km/h
895 13-05-2008 11:12:02 22.8 C 6.5 g/m*3 22.8 C 0 km/h
896 13-05-2008 11:24:02 23.2 C 6.44 g/m*3 23.2 C 0 km/h
897 13-05-2008 11:36:02 23.7 C 6.63 g/m*3 23.7 C 0 km/h
898 13-05-2008 11:48:02 24.4 C 6.23 g/m*3 24.4 C 0 km/h
899 13-05-2008 12:00:02 25 C 6.22 g/m*3 25 C 0 km/h
900 13-05-2008 12:12:02 25.8 C 6.02 g/m*3 25.8 C 0 km/h
Sensor: Nr:Datum:Temp:Abs-Feuchte:Windchill:Wind:
Aussen-T/F 901 13-05-2008 12:24:02 26.5 C 5.26 g/m*3 26.5 C 0 km/h
902 13-05-2008 12:36:02 27.2 C 5.2 g/m*3 27.2 C 0 km/h
903 13-05-2008 12:48:02 27.8 C 5.38 g/m*3 27.8 C 0 km/h
904 13-05-2008 13:00:02 28.2 C 5.5 g/m*3 28.2 C 0 km/h
905 13-05-2008 13:12:02 28.9 C 5.71 g/m*3 28.9 C 0 km/h
906 13-05-2008 13:24:02 28.8 C 5.68 g/m*3 28.8 C 0 km/h
907 13-05-2008 13:36:02 29.3 C 5.84 g/m*3 29.3 C 0 km/h
908 13-05-2008 13:48:01 29.3 C 5.84 g/m*3 29.3 C 0 km/h
909 13-05-2008 14:00:01 28.3 C 5.53 g/m*3 28.3 C 0 km/h
910 13-05-2008 14:12:01 28 C 5.44 g/m*3 28 C 0 km/h
911 13-05-2008 14:24:02 28.3 C 5.53 g/m*3 28.3 C 0 km/h
912 13-05-2008 14:36:01 27.8 C 5.38 g/m*3 27.8 C 0 km/h
913 13-05-2008 14:48:01 29.4 C 5.87 g/m*3 29.4 C 0 km/h
914 13-05-2008 15:00:01 30.3 C 6.16 g/m*3 30.3 C 0 km/h
915 13-05-2008 15:12:02 30.3 C 6.16 g/m*3 30.3 C 0 km/h
916 13-05-2008 15:24:02 31 C 6.4 g/m*3 31 C 0 km/h
917 13-05-2008 15:36:01 31.1 C 6.43 g/m*3 31.1 C 0 km/h
918 13-05-2008 15:48:01 30.9 C 6.37 g/m*3 30.9 C 0 km/h
919 13-05-2008 16:00:01 30.1 C 6.1 g/m*3 30.1 C 0 km/h
920 13-05-2008 16:12:02 30 C 6.06 g/m*3 30 C 0 km/h
921 13-05-2008 16:24:02 29.6 C 5.94 g/m*3 29.6 C 0 km/h
922 13-05-2008 16:36:01 30.6 C 6.26 g/m*3 30.6 C 0 km/h
923 13-05-2008 16:48:01 30.3 C 6.16 g/m*3 30.3 C 0 km/h
924 13-05-2008 17:00:01 28.9 C 5.71 g/m*3 28.9 C 0 km/h
925 13-05-2008 17:12:02 30 C 6.06 g/m*3 30 C 0 km/h
Sensor: Nr:Datum:Temp:Abs-Feuchte:Windchill:Wind:
Aussen-T/F 926 13-05-2008 17:24:01 30.9 C 6.37 g/m*3 30.9 C 0 km/h
927 13-05-2008 17:36:02 31.2 C 6.47 g/m*3 31.2 C 0 km/h
928 13-05-2008 17:48:03 31.2 C 6.47 g/m*3 31.2 C 0 km/h
929 13-05-2008 18:00:03 31.4 C 6.54 g/m*3 31.4 C 0 km/h
930 13-05-2008 18:12:02 31.4 C 6.54 g/m*3 31.4 C 0 km/h
931 13-05-2008 18:24:02 31.2 C 6.47 g/m*3 31.2 C 0 km/h
932 13-05-2008 18:36:03 31.4 C 6.54 g/m*3 31.4 C 0 km/h
933 13-05-2008 18:48:02 31 C 6.4 g/m*3 31 C 0 km/h
934 13-05-2008 19:00:02 30.8 C 6.33 g/m*3 30.8 C 0 km/h
935 13-05-2008 19:12:02 30.2 C 6.13 g/m*3 30.2 C 0 km/h
936 13-05-2008 19:24:02 29.5 C 5.9 g/m*3 29.5 C 0 km/h
937 13-05-2008 19:36:02 29.4 C 5.87 g/m*3 29.4 C 0 km/h
938 13-05-2008 19:48:02 29 C 5.74 g/m*3 29 C 0 km/h
939 13-05-2008 20:00:02 28.3 C 5.53 g/m*3 28.3 C 0 km/h
940 13-05-2008 20:12:01 27.6 C 5.32 g/m*3 27.6 C 0 km/h
941 13-05-2008 20:24:01 26.6 C 5.29 g/m*3 26.6 C 0 km/h
942 13-05-2008 20:36:01 25.6 C 5.24 g/m*3 25.6 C 0 km/h
943 13-05-2008 20:48:02 24.5 C 5.15 g/m*3 24.5 C 0 km/h
944 13-05-2008 21:00:02 24 C 5 g/m*3 24 C 0 km/h
945 13-05-2008 21:12:02 23.1 C 5.17 g/m*3 23.1 C 0 km/h
946 13-05-2008 21:24:02 22.3 C 5.33 g/m*3 22.3 C 0 km/h
947 13-05-2008 21:36:02 21.9 C 5.79 g/m*3 21.9 C 0 km/h
948 13-05-2008 21:48:02 21.6 C 5.69 g/m*3 21.6 C 0 km/h
949 13-05-2008 22:00:02 21.4 C 5.62 g/m*3 21.4 C 0 km/h
950 13-05-2008 22:12:02 21.1 C 5.71 g/m*3 21.1 C 0 km/h
Sensor: Nr:Datum:Temp:Abs-Feuchte:Windchill:Wind:
Aussen-T/F 951 13-05-2008 22:24:01 20.8 C 5.79 g/m*3 20.8 C 0 km/h
952 13-05-2008 22:36:02 20.3 C 5.98 g/m*3 20.3 C 0 km/h
953 13-05-2008 22:49:02 20.1 C 5.91 g/m*3 20.1 C 0 km/h
954 13-05-2008 23:01:02 20 C 6.05 g/m*3 20 C 0 km/h
955 13-05-2008 23:13:03 20 C 6.05 g/m*3 20 C 0 km/h
956 13-05-2008 23:25:03 20.1 C 6.26 g/m*3 20.1 C 0 km/h
957 13-05-2008 23:37:03 19.8 C 6.32 g/m*3 19.8 C 0 km/h
958 13-05-2008 23:49:03 19.8 C 6.49 g/m*3 19.8 C 0 km/h
959 14-05-2008 00:01:03 19.6 C 6.58 g/m*3 19.6 C 0 km/h
960 14-05-2008 00:13:03 19.3 C 6.63 g/m*3 19.3 C 0 km/h
961 14-05-2008 00:25:03 19.2 C 6.76 g/m*3 19.2 C 0 km/h
962 14-05-2008 00:37:03 19.1 C 6.88 g/m*3 19.1 C 0 km/h
963 14-05-2008 00:49:03 18.8 C 7.09 g/m*3 18.8 C 0 km/h
964 14-05-2008 01:01:03 18.7 C 7.36 g/m*3 18.7 C 0 km/h
965 14-05-2008 01:13:03 18.5 C 7.44 g/m*3 18.5 C 0 km/h
966 14-05-2008 01:25:03 18.2 C 7.46 g/m*3 18.2 C 0 km/h
967 14-05-2008 01:37:03 17.9 C 7.63 g/m*3 17.9 C 0 km/h
968 14-05-2008 01:49:03 17.5 C 7.75 g/m*3 17.5 C 0 km/h
969 14-05-2008 02:01:03 17.5 C 7.75 g/m*3 17.5 C 0 km/h
970 14-05-2008 02:13:03 17.4 C 7.71 g/m*3 17.4 C 0 km/h
971 14-05-2008 02:25:03 17.2 C 7.76 g/m*3 17.2 C 0 km/h
972 14-05-2008 02:37:03 17.1 C 7.86 g/m*3 17.1 C 0 km/h
973 14-05-2008 02:49:03 16.8 C 7.86 g/m*3 16.8 C 0 km/h
974 14-05-2008 03:01:03 16.4 C 7.68 g/m*3 16.4 C 0 km/h
975 14-05-2008 03:13:04 16.2 C 7.86 g/m*3 16.2 C 0 km/h
Sensor: Nr:Datum:Temp:Abs-Feuchte:Windchill:Wind:
Aussen-T/F 976 14-05-2008 03:25:04 15.9 C 7.85 g/m*3 15.9 C 0 km/h
977 14-05-2008 03:37:04 15.6 C 7.85 g/m*3 15.6 C 0 km/h
978 14-05-2008 03:49:04 15.4 C 7.88 g/m*3 15.4 C 0 km/h
979 14-05-2008 04:01:04 15.1 C 7.87 g/m*3 15.1 C 0 km/h
980 14-05-2008 04:13:04 14.9 C 7.9 g/m*3 14.9 C 0 km/h
981 14-05-2008 04:25:04 14.6 C 7.88 g/m*3 14.6 C 0 km/h
982 14-05-2008 04:37:04 14.5 C 7.84 g/m*3 14.5 C 0 km/h
983 14-05-2008 04:49:04 14 C 7.84 g/m*3 14 C 0 km/h
984 14-05-2008 05:01:04 13.9 C 8.03 g/m*3 13.9 C 0 km/h
985 14-05-2008 05:13:04 13.8 C 7.86 g/m*3 13.8 C 0 km/h
986 14-05-2008 05:25:04 13.7 C 7.93 g/m*3 13.7 C 0 km/h
987 14-05-2008 05:37:04 13.4 C 7.79 g/m*3 13.4 C 0 km/h
988 14-05-2008 05:49:04 13.4 C 7.9 g/m*3 13.4 C 0 km/h
989 14-05-2008 06:01:04 13.1 C 7.76 g/m*3 13.1 C 0 km/h
990 14-05-2008 06:13:04 13.1 C 7.99 g/m*3 13.1 C 0 km/h
991 14-05-2008 06:25:04 13.1 C 7.99 g/m*3 13.1 C 0 km/h
992 14-05-2008 06:37:04 12.9 C 8.11 g/m*3 12.9 C 0 km/h
993 14-05-2008 06:49:04 13 C 8.05 g/m*3 13 C 0 km/h
994 14-05-2008 07:01:02 13.1 C 8.1 g/m*3 13.1 C 0 km/h
995 14-05-2008 07:13:02 13.1 C 8.1 g/m*3 13.1 C 0 km/h
996 14-05-2008 07:25:02 13.2 C 8.15 g/m*3 13.2 C 0 km/h
997 14-05-2008 07:37:03 13.3 C 8.2 g/m*3 13.3 C 0 km/h
998 14-05-2008 07:49:02 13.4 C 8.25 g/m*3 13.4 C 0 km/h
999 14-05-2008 08:01:02 13.9 C 8.39 g/m*3 13.9 C 0 km/h
1000 14-05-2008 08:13:02 14 C 8.2 g/m*3 14 C 0 km/h
Sensor: Nr:Datum:Temp:Abs-Feuchte:Windchill:Wind:
Aussen-T/F 1001 14-05-2008 08:25:02 14.3 C 8.35 g/m*3 14.3 C 0 km/h
1002 14-05-2008 08:37:01 14.9 C 8.54 g/m*3 14.9 C 0 km/h
1003 14-05-2008 08:49:01 15.4 C 8.54 g/m*3 15.4 C 0 km/h
1004 14-05-2008 09:01:02 16.1 C 8.5 g/m*3 16.1 C 0 km/h
1005 14-05-2008 09:13:02 16.9 C 8.63 g/m*3 16.9 C 0 km/h
1006 14-05-2008 09:25:01 17.6 C 7.95 g/m*3 17.6 C 0 km/h
1007 14-05-2008 09:37:01 18.4 C 7.86 g/m*3 18.4 C 0 km/h
1008 14-05-2008 09:49:02 19.2 C 7.59 g/m*3 19.2 C 0 km/h
1009 14-05-2008 10:01:01 19.6 C 7.6 g/m*3 19.6 C 0 km/h
1010 14-05-2008 10:13:01 20.3 C 7.56 g/m*3 20.3 C 0 km/h
1011 14-05-2008 10:25:01 20.9 C 7.65 g/m*3 20.9 C 0 km/h
1012 14-05-2008 10:37:02 21.4 C 7.5 g/m*3 21.4 C 0 km/h
1013 14-05-2008 10:49:02 22.1 C 7.42 g/m*3 22.1 C 0 km/h
1014 14-05-2008 11:01:02 22.6 C 7.43 g/m*3 22.6 C 0 km/h
1015 14-05-2008 11:13:02 23.4 C 7.36 g/m*3 23.4 C 0 km/h
1016 14-05-2008 11:25:01 23.7 C 7.27 g/m*3 23.7 C 0 km/h
1017 14-05-2008 11:37:02 24.1 C 7 g/m*3 24.1 C 0 km/h
1018 14-05-2008 11:49:03 24.7 C 7.24 g/m*3 24.7 C 0 km/h
1019 14-05-2008 12:01:02 24.9 C 7.1 g/m*3 24.9 C 0 km/h
1020 14-05-2008 12:13:02 25.5 C 6.87 g/m*3 25.5 C 0 km/h
1021 14-05-2008 12:25:02 26.3 C 7.18 g/m*3 26.3 C 0 km/h
1022 14-05-2008 12:37:02 27 C 6.43 g/m*3 27 C 0 km/h
1023 14-05-2008 12:49:02 27.2 C 6.25 g/m*3 27.2 C 0 km/h
1024 14-05-2008 13:01:01 27.8 C 6.19 g/m*3 27.8 C 0 km/h
1025 14-05-2008 13:13:01 28.5 C 6.15 g/m*3 28.5 C 0 km/h
Sensor: Nr:Datum:Temp:Abs-Feuchte:Windchill:Wind:
Aussen-T/F 1026 14-05-2008 13:25:02 29.3 C 5.84 g/m*3 29.3 C 0 km/h
1027 14-05-2008 13:37:02 29.1 C 5.78 g/m*3 29.1 C 0 km/h
1028 14-05-2008 13:49:02 28.5 C 5.87 g/m*3 28.5 C 0 km/h
1029 14-05-2008 14:01:01 28.9 C 6.28 g/m*3 28.9 C 0 km/h
1030 14-05-2008 14:13:01 28.5 C 6.15 g/m*3 28.5 C 0 km/h
1031 14-05-2008 14:25:02 27.8 C 6.19 g/m*3 27.8 C 0 km/h
1032 14-05-2008 14:37:02 28.9 C 6.28 g/m*3 28.9 C 0 km/h
1033 14-05-2008 14:49:02 29.9 C 6.03 g/m*3 29.9 C 0 km/h
1034 14-05-2008 15:01:02 29.8 C 6 g/m*3 29.8 C 0 km/h
1035 14-05-2008 15:13:02 30.3 C 6.16 g/m*3 30.3 C 0 km/h
1036 14-05-2008 15:25:02 30.7 C 6.3 g/m*3 30.7 C 0 km/h
1037 14-05-2008 15:37:02 31 C 6.4 g/m*3 31 C 0 km/h
1038 14-05-2008 15:49:02 31.4 C 6.54 g/m*3 31.4 C 0 km/h
1039 14-05-2008 16:01:02 31.5 C 6.57 g/m*3 31.5 C 0 km/h
1040 14-05-2008 16:13:02 31.5 C 6.57 g/m*3 31.5 C 0 km/h
1041 14-05-2008 16:25:02 30.6 C 6.26 g/m*3 30.6 C 0 km/h
1042 14-05-2008 16:37:02 30.3 C 6.16 g/m*3 30.3 C 0 km/h
1043 14-05-2008 16:49:01 29.6 C 5.94 g/m*3 29.6 C 0 km/h
1044 14-05-2008 17:01:02 27.5 C 5.29 g/m*3 27.5 C 0 km/h
1045 14-05-2008 17:13:02 27.2 C 5.72 g/m*3 27.2 C 0 km/h
1046 14-05-2008 17:25:02 27.8 C 6.19 g/m*3 27.8 C 0 km/h
1047 14-05-2008 17:37:02 28 C 5.71 g/m*3 28 C 0 km/h
1048 14-05-2008 17:49:02 28.8 C 6.25 g/m*3 28.8 C 0 km/h
1049 14-05-2008 18:01:02 29.2 C 5.81 g/m*3 29.2 C 0 km/h
1050 14-05-2008 18:13:02 28.1 C 5.47 g/m*3 28.1 C 0 km/h
Sensor: Nr:Datum:Temp:Abs-Feuchte:Windchill:Wind:
Aussen-T/F 1051 14-05-2008 18:25:01 26.2 C 5.17 g/m*3 26.2 C 0 km/h
1052 14-05-2008 18:37:02 25.4 C 6.12 g/m*3 25.4 C 0 km/h
1053 14-05-2008 18:49:02 27 C 6.18 g/m*3 27 C 0 km/h
1054 14-05-2008 19:01:02 28.1 C 5.74 g/m*3 28.1 C 0 km/h
1055 14-05-2008 19:13:02 28 C 5.71 g/m*3 28 C 0 km/h
1056 14-05-2008 19:25:02 27.4 C 5.79 g/m*3 27.4 C 0 km/h
1057 14-05-2008 19:37:02 26.4 C 5.73 g/m*3 26.4 C 0 km/h
1058 14-05-2008 19:49:02 25.5 C 6.39 g/m*3 25.5 C 0 km/h
1059 14-05-2008 20:01:03 24.6 C 6.75 g/m*3 24.6 C 0 km/h
1060 14-05-2008 20:13:03 24.2 C 6.82 g/m*3 24.2 C 0 km/h
1061 14-05-2008 20:25:02 23.9 C 6.71 g/m*3 23.9 C 0 km/h
1062 14-05-2008 20:37:02 23.1 C 6.82 g/m*3 23.1 C 0 km/h
1063 14-05-2008 20:49:01 22.2 C 6.68 g/m*3 22.2 C 0 km/h
1064 14-05-2008 21:01:01 21.8 C 6.72 g/m*3 21.8 C 0 km/h
1065 14-05-2008 21:13:01 21.3 C 6.71 g/m*3 21.3 C 0 km/h
1066 14-05-2008 21:25:02 20.7 C 6.66 g/m*3 20.7 C 0 km/h
1067 14-05-2008 21:37:01 20.4 C 6.9 g/m*3 20.4 C 0 km/h
1068 14-05-2008 21:49:02 20 C 6.91 g/m*3 20 C 0 km/h
1069 14-05-2008 22:01:07 19.7 C 6.62 g/m*3 19.7 C 0 km/h
1070 14-05-2008 22:13:07 19.6 C 6.75 g/m*3 19.6 C 0 km/h
1071 14-05-2008 22:26:02 19.4 C 6.84 g/m*3 19.4 C 0 km/h
1072 14-05-2008 22:38:02 19.2 C 6.76 g/m*3 19.2 C 0 km/h
1073 14-05-2008 22:50:03 18.9 C 6.97 g/m*3 18.9 C 0 km/h
1074 14-05-2008 23:02:03 18.3 C 7.19 g/m*3 18.3 C 0 km/h
1075 14-05-2008 23:14:03 17.9 C 7.33 g/m*3 17.9 C 0 km/h
Sensor: Nr:Datum:Temp:Abs-Feuchte:Windchill:Wind:
Aussen-T/F 1076 14-05-2008 23:26:03 18 C 7.37 g/m*3 18 C 0 km/h
1077 14-05-2008 23:38:03 17.8 C 7.59 g/m*3 17.8 C 0 km/h
1078 14-05-2008 23:50:03 17.8 C 7.59 g/m*3 17.8 C 0 km/h
1079 15-05-2008 00:02:03 17.9 C 7.63 g/m*3 17.9 C 0 km/h
1080 15-05-2008 00:14:03 17.9 C 7.79 g/m*3 17.9 C 0 km/h
1081 15-05-2008 00:26:03 17.7 C 7.69 g/m*3 17.7 C 0 km/h
1082 15-05-2008 00:38:03 17.5 C 7.75 g/m*3 17.5 C 0 km/h
1083 15-05-2008 00:50:03 17.3 C 7.66 g/m*3 17.3 C 0 km/h
1084 15-05-2008 01:02:03 17.1 C 7.57 g/m*3 17.1 C 0 km/h
1085 15-05-2008 01:14:03 16.9 C 7.77 g/m*3 16.9 C 0 km/h
1086 15-05-2008 01:26:03 16.8 C 7.72 g/m*3 16.8 C 0 km/h
1087 15-05-2008 01:38:03 16.9 C 7.91 g/m*3 16.9 C 0 km/h
1088 15-05-2008 01:50:03 17 C 7.81 g/m*3 17 C 0 km/h
1089 15-05-2008 02:02:03 17 C 7.81 g/m*3 17 C 0 km/h
1090 15-05-2008 02:14:03 16.9 C 8.05 g/m*3 16.9 C 0 km/h
1091 15-05-2008 02:26:03 16.8 C 8.01 g/m*3 16.8 C 0 km/h
1092 15-05-2008 02:38:03 16.8 C 8.01 g/m*3 16.8 C 0 km/h
1093 15-05-2008 02:50:04 16.8 C 8.01 g/m*3 16.8 C 0 km/h
1094 15-05-2008 03:02:04 16.5 C 7.86 g/m*3 16.5 C 0 km/h
1095 15-05-2008 03:14:04 16.3 C 7.91 g/m*3 16.3 C 0 km/h
1096 15-05-2008 03:26:04 16.3 C 7.91 g/m*3 16.3 C 0 km/h
1097 15-05-2008 03:38:04 16.3 C 8.05 g/m*3 16.3 C 0 km/h
1098 15-05-2008 03:50:04 16.2 C 8.14 g/m*3 16.2 C 0 km/h
1099 15-05-2008 04:02:04 15.8 C 8.21 g/m*3 15.8 C 0 km/h
1100 15-05-2008 04:14:04 15.8 C 8.62 g/m*3 15.8 C 0 km/h
Sensor: Nr:Datum:Temp:Abs-Feuchte:Windchill:Wind:
Aussen-T/F 1101 15-05-2008 04:26:04 15.6 C 8.25 g/m*3 15.6 C 0 km/h
1102 15-05-2008 04:38:04 15.5 C 8.2 g/m*3 15.5 C 0 km/h
1103 15-05-2008 04:50:04 15 C 8.33 g/m*3 15 C 0 km/h
1104 15-05-2008 05:02:04 15 C 8.33 g/m*3 15 C 0 km/h
1105 15-05-2008 05:14:04 15 C 8.21 g/m*3 15 C 0 km/h
1106 15-05-2008 05:26:04 15 C 8.33 g/m*3 15 C 0 km/h
1107 15-05-2008 05:38:04 14.8 C 8.23 g/m*3 14.8 C 0 km/h
1108 15-05-2008 05:50:04 14.5 C 8.21 g/m*3 14.5 C 0 km/h
1109 15-05-2008 06:02:04 14 C 8.08 g/m*3 14 C 0 km/h
1110 15-05-2008 06:14:04 14 C 8.2 g/m*3 14 C 0 km/h
1111 15-05-2008 06:26:04 14 C 8.2 g/m*3 14 C 0 km/h
1112 15-05-2008 06:38:05 14.1 C 8.25 g/m*3 14.1 C 0 km/h
1113 15-05-2008 06:50:05 14.7 C 8.56 g/m*3 14.7 C 0 km/h
1114 15-05-2008 07:02:01 14.7 C 8.56 g/m*3 14.7 C 0 km/h
1115 15-05-2008 07:14:01 14.7 C 8.69 g/m*3 14.7 C 0 km/h
1116 15-05-2008 07:26:01 15 C 8.46 g/m*3 15 C 0 km/h
1117 15-05-2008 07:38:02 15.3 C 8.62 g/m*3 15.3 C 0 km/h
1118 15-05-2008 07:50:02 15.5 C 8.59 g/m*3 15.5 C 0 km/h
1119 15-05-2008 08:02:01 15.6 C 8.51 g/m*3 15.6 C 0 km/h
1120 15-05-2008 08:14:01 15.5 C 8.33 g/m*3 15.5 C 0 km/h
1121 15-05-2008 08:26:02 15.7 C 8.43 g/m*3 15.7 C 0 km/h
1122 15-05-2008 08:38:02 15.8 C 8.48 g/m*3 15.8 C 0 km/h
1123 15-05-2008 08:50:02 16.2 C 8.41 g/m*3 16.2 C 0 km/h
1124 15-05-2008 09:02:02 17 C 8.39 g/m*3 17 C 0 km/h
1125 15-05-2008 09:14:02 17.6 C 8.1 g/m*3 17.6 C 0 km/h
Sensor: Nr:Datum:Temp:Abs-Feuchte:Windchill:Wind:
Aussen-T/F 1126 15-05-2008 09:26:02 18.1 C 8.03 g/m*3 18.1 C 0 km/h
1127 15-05-2008 09:38:02 18.4 C 7.86 g/m*3 18.4 C 0 km/h
1128 15-05-2008 09:50:02 19.2 C 8.08 g/m*3 19.2 C 0 km/h
1129 15-05-2008 10:02:02 20 C 7.6 g/m*3 20 C 0 km/h
1130 15-05-2008 10:14:02 20.4 C 7.96 g/m*3 20.4 C 0 km/h
1131 15-05-2008 10:26:02 20.5 C 7.65 g/m*3 20.5 C 0 km/h
1132 15-05-2008 10:38:02 20.9 C 7.83 g/m*3 20.9 C 0 km/h
1133 15-05-2008 10:50:02 21.3 C 7.64 g/m*3 21.3 C 0 km/h
1134 15-05-2008 11:02:02 21.4 C 7.69 g/m*3 21.4 C 0 km/h
1135 15-05-2008 11:14:02 21.6 C 7.59 g/m*3 21.6 C 0 km/h
1136 15-05-2008 11:26:02 22.9 C 7.36 g/m*3 22.9 C 0 km/h
1137 15-05-2008 11:38:02 24.1 C 7.44 g/m*3 24.1 C 0 km/h
1138 15-05-2008 11:50:02 23.8 C 7.31 g/m*3 23.8 C 0 km/h
1139 15-05-2008 12:02:02 22.7 C 7.68 g/m*3 22.7 C 0 km/h
1140 15-05-2008 12:14:02 23.3 C 7.53 g/m*3 23.3 C 0 km/h
1141 15-05-2008 12:26:02 23.3 C 6.69 g/m*3 23.3 C 0 km/h
1142 15-05-2008 12:38:01 23.7 C 7.06 g/m*3 23.7 C 0 km/h
1143 15-05-2008 12:50:01 24.2 C 6.82 g/m*3 24.2 C 0 km/h
1144 15-05-2008 13:02:02 24.7 C 7.02 g/m*3 24.7 C 0 km/h
1145 15-05-2008 13:14:02 25.2 C 6.52 g/m*3 25.2 C 0 km/h
1146 15-05-2008 13:26:02 25.2 C 6.29 g/m*3 25.2 C 0 km/h
1147 15-05-2008 13:38:02 25.4 C 6.36 g/m*3 25.4 C 0 km/h
1148 15-05-2008 13:50:02 26 C 6.33 g/m*3 26 C 0 km/h
1149 15-05-2008 14:02:01 25.7 C 6.46 g/m*3 25.7 C 0 km/h
1150 15-05-2008 14:14:01 25.6 C 6.43 g/m*3 25.6 C 0 km/h
Sensor: Nr:Datum:Temp:Abs-Feuchte:Windchill:Wind:
Aussen-T/F 1151 15-05-2008 14:26:01 26.1 C 6.37 g/m*3 26.1 C 0 km/h
1152 15-05-2008 14:38:02 26.6 C 6.54 g/m*3 26.6 C 0 km/h
1153 15-05-2008 14:50:02 26.9 C 6.4 g/m*3 26.9 C 0 km/h
1154 15-05-2008 15:02:02 27.9 C 6.22 g/m*3 27.9 C 0 km/h
1155 15-05-2008 15:14:02 28.1 C 6.02 g/m*3 28.1 C 0 km/h
1156 15-05-2008 15:26:02 28 C 5.44 g/m*3 28 C 0 km/h
1157 15-05-2008 15:38:02 28 C 5.71 g/m*3 28 C 0 km/h
1158 15-05-2008 15:50:02 26.4 C 5.48 g/m*3 26.4 C 0 km/h
1159 15-05-2008 16:02:01 23.6 C 6.59 g/m*3 23.6 C 0 km/h
1160 15-05-2008 16:14:01 21.8 C 8.06 g/m*3 21.8 C 0 km/h
1161 15-05-2008 16:26:02 20.4 C 8.85 g/m*3 20.4 C 0 km/h
1162 15-05-2008 16:38:02 18.7 C 9.29 g/m*3 18.7 C 0 km/h
1163 15-05-2008 16:50:02 19 C 9.45 g/m*3 19 C 0 km/h
1164 15-05-2008 17:02:03 20 C 10.54 g/m*3 20 C 0 km/h
1165 15-05-2008 17:14:03 19.8 C 11.27 g/m*3 19.8 C 0 km/h
1166 15-05-2008 17:26:02 22.3 C 10.07 g/m*3 22.3 C 0 km/h
1167 15-05-2008 17:38:02 22 C 10.09 g/m*3 22 C 0 km/h
1168 15-05-2008 17:50:02 20.4 C 9.91 g/m*3 20.4 C 0 km/h
1169 15-05-2008 18:02:01 20.8 C 9.42 g/m*3 20.8 C 0 km/h
1170 15-05-2008 18:14:01 20.9 C 9.29 g/m*3 20.9 C 0 km/h
1171 15-05-2008 18:26:02 21.6 C 9.29 g/m*3 21.6 C 0 km/h
1172 15-05-2008 18:38:02 21.3 C 8.57 g/m*3 21.3 C 0 km/h
1173 15-05-2008 18:50:02 22 C 8.93 g/m*3 22 C 0 km/h
1174 15-05-2008 19:02:01 22.2 C 8.44 g/m*3 22.2 C 0 km/h
1175 15-05-2008 19:14:01 21.3 C 9.32 g/m*3 21.3 C 0 km/h
Sensor: Nr:Datum:Temp:Abs-Feuchte:Windchill:Wind:
Aussen-T/F 1176 15-05-2008 19:26:02 21 C 9.53 g/m*3 21 C 0 km/h
1177 15-05-2008 19:38:02 20.6 C 9.49 g/m*3 20.6 C 0 km/h
1178 15-05-2008 19:50:02 19.6 C 10.13 g/m*3 19.6 C 0 km/h
1179 15-05-2008 20:02:02 17.6 C 11.55 g/m*3 17.6 C 0 km/h
1180 15-05-2008 20:14:02 17.1 C 11.94 g/m*3 17.1 C 0 km/h
1181 15-05-2008 20:26:02 16.5 C 11.8 g/m*3 16.5 C 0 km/h
1182 15-05-2008 20:38:02 16.9 C 12.08 g/m*3 16.9 C 0 km/h
1183 15-05-2008 20:50:02 16.8 C 11.72 g/m*3 16.8 C 0 km/h
1184 15-05-2008 21:02:02 16.2 C 11.31 g/m*3 16.2 C 0 km/h
1185 15-05-2008 21:14:02 16.1 C 11.38 g/m*3 16.1 C 0 km/h
1186 15-05-2008 21:26:02 15.9 C 11.24 g/m*3 15.9 C 0 km/h
1187 15-05-2008 21:38:02 15.5 C 10.97 g/m*3 15.5 C 0 km/h
1188 15-05-2008 21:50:02 15.1 C 10.45 g/m*3 15.1 C 0 km/h
1189 15-05-2008 22:02:02 14.9 C 10.58 g/m*3 14.9 C 0 km/h
1190 15-05-2008 22:14:02 14.8 C 10.51 g/m*3 14.8 C 0 km/h
1191 15-05-2008 22:26:02 15.1 C 10.58 g/m*3 15.1 C 0 km/h
1192 15-05-2008 22:38:02 15.2 C 10.51 g/m*3 15.2 C 0 km/h
1193 15-05-2008 22:51:04 15.4 C 10.64 g/m*3 15.4 C 0 km/h
1194 15-05-2008 23:03:04 15.4 C 10.64 g/m*3 15.4 C 0 km/h
1195 15-05-2008 23:15:04 15.6 C 10.77 g/m*3 15.6 C 0 km/h
1196 15-05-2008 23:27:04 15.6 C 10.77 g/m*3 15.6 C 0 km/h
1197 15-05-2008 23:39:05 15.7 C 10.84 g/m*3 15.7 C 0 km/h
1198 15-05-2008 23:51:05 15.4 C 10.77 g/m*3 15.4 C 0 km/h
1199 16-05-2008 00:03:05 15.1 C 10.71 g/m*3 15.1 C 0 km/h
1200 16-05-2008 00:15:05 15.3 C 10.97 g/m*3 15.3 C 0 km/h
Sensor: Nr:Datum:Temp:Abs-Feuchte:Windchill:Wind:
Aussen-T/F 1201 16-05-2008 00:27:05 15.4 C 11.04 g/m*3 15.4 C 0 km/h
1202 16-05-2008 00:39:05 15.2 C 10.9 g/m*3 15.2 C 0 km/h
1203 16-05-2008 00:51:05 15.1 C 10.84 g/m*3 15.1 C 0 km/h
1204 16-05-2008 01:03:05 15.1 C 10.84 g/m*3 15.1 C 0 km/h
1205 16-05-2008 01:15:05 14.9 C 10.58 g/m*3 14.9 C 0 km/h
1206 16-05-2008 01:27:05 15.1 C 10.58 g/m*3 15.1 C 0 km/h
1207 16-05-2008 01:39:05 15.3 C 10.58 g/m*3 15.3 C 0 km/h
1208 16-05-2008 01:51:05 15.2 C 10.51 g/m*3 15.2 C 0 km/h
1209 16-05-2008 02:03:05 15.1 C 10.32 g/m*3 15.1 C 0 km/h
1210 16-05-2008 02:15:05 15 C 10.26 g/m*3 15 C 0 km/h
1211 16-05-2008 02:27:05 15 C 10.26 g/m*3 15 C 0 km/h
1212 16-05-2008 02:39:05 15 C 10.39 g/m*3 15 C 0 km/h
1213 16-05-2008 02:51:05 15.1 C 10.45 g/m*3 15.1 C 0 km/h
1214 16-05-2008 03:03:05 15.2 C 10.38 g/m*3 15.2 C 0 km/h
1215 16-05-2008 03:15:05 15.2 C 10.25 g/m*3 15.2 C 0 km/h
1216 16-05-2008 03:27:06 15.2 C 10.25 g/m*3 15.2 C 0 km/h
1217 16-05-2008 03:39:06 15.1 C 10.19 g/m*3 15.1 C 0 km/h
1218 16-05-2008 03:51:06 15 C 10.13 g/m*3 15 C 0 km/h
1219 16-05-2008 04:03:06 15 C 10.13 g/m*3 15 C 0 km/h
1220 16-05-2008 04:15:06 15 C 10.26 g/m*3 15 C 0 km/h
1221 16-05-2008 04:27:06 14.8 C 10.26 g/m*3 14.8 C 0 km/h
1222 16-05-2008 04:39:06 14.7 C 10.32 g/m*3 14.7 C 0 km/h
1223 16-05-2008 04:51:06 14.8 C 10.39 g/m*3 14.8 C 0 km/h
1224 16-05-2008 05:03:06 14.9 C 10.45 g/m*3 14.9 C 0 km/h
1225 16-05-2008 05:15:06 14.9 C 10.45 g/m*3 14.9 C 0 km/h
Sensor: Nr:Datum:Temp:Abs-Feuchte:Windchill:Wind:
Aussen-T/F 1226 16-05-2008 05:27:06 14.8 C 10.13 g/m*3 14.8 C 0 km/h
1227 16-05-2008 05:39:06 14.7 C 9.95 g/m*3 14.7 C 0 km/h
1228 16-05-2008 05:51:06 14.4 C 9.89 g/m*3 14.4 C 0 km/h
1229 16-05-2008 06:03:06 14.3 C 10.07 g/m*3 14.3 C 0 km/h
1230 16-05-2008 06:15:06 14.2 C 10.01 g/m*3 14.2 C 0 km/h
1231 16-05-2008 06:27:06 14.2 C 10.01 g/m*3 14.2 C 0 km/h
1232 16-05-2008 06:39:06 14.4 C 10.14 g/m*3 14.4 C 0 km/h
1233 16-05-2008 06:51:06 14.7 C 10.2 g/m*3 14.7 C 0 km/h
1234 16-05-2008 07:03:03 14.9 C 10.32 g/m*3 14.9 C 0 km/h
1235 16-05-2008 07:15:04 15 C 10.13 g/m*3 15 C 0 km/h
1236 16-05-2008 07:27:04 15.1 C 10.06 g/m*3 15.1 C 0 km/h
1237 16-05-2008 07:39:04 15.3 C 10.19 g/m*3 15.3 C 0 km/h
1238 16-05-2008 07:51:02 15.3 C 10.06 g/m*3 15.3 C 0 km/h
1239 16-05-2008 08:03:02 15.3 C 9.92 g/m*3 15.3 C 0 km/h
1240 16-05-2008 08:15:01 15.7 C 10.17 g/m*3 15.7 C 0 km/h
1241 16-05-2008 08:27:01 16 C 10.08 g/m*3 16 C 0 km/h
1242 16-05-2008 08:39:02 16.2 C 9.93 g/m*3 16.2 C 0 km/h
1243 16-05-2008 08:51:02 16.7 C 9.95 g/m*3 16.7 C 0 km/h
1244 16-05-2008 09:03:01 16.8 C 9.87 g/m*3 16.8 C 0 km/h
1245 16-05-2008 09:15:02 17.4 C 9.78 g/m*3 17.4 C 0 km/h
1246 16-05-2008 09:27:02 17.3 C 9.58 g/m*3 17.3 C 0 km/h
1247 16-05-2008 09:39:01 17.4 C 9.63 g/m*3 17.4 C 0 km/h
1248 16-05-2008 09:51:02 17.6 C 9.6 g/m*3 17.6 C 0 km/h
1249 16-05-2008 10:03:01 17.5 C 9.54 g/m*3 17.5 C 0 km/h
1250 16-05-2008 10:15:02 17.6 C 9.6 g/m*3 17.6 C 0 km/h
Sensor: Nr:Datum:Temp:Abs-Feuchte:Windchill:Wind:
Aussen-T/F 1251 16-05-2008 10:27:02 18.8 C 9.34 g/m*3 18.8 C 0 km/h
1252 16-05-2008 10:39:02 19 C 9.13 g/m*3 19 C 0 km/h
1253 16-05-2008 10:51:02 18.9 C 8.75 g/m*3 18.9 C 0 km/h
1254 16-05-2008 11:03:02 19.1 C 8.85 g/m*3 19.1 C 0 km/h
1255 16-05-2008 11:15:02 19.4 C 8.68 g/m*3 19.4 C 0 km/h
1256 16-05-2008 11:27:02 19.7 C 8.83 g/m*3 19.7 C 0 km/h
1257 16-05-2008 11:39:02 19.9 C 8.59 g/m*3 19.9 C 0 km/h
1258 16-05-2008 11:51:01 20 C 8.47 g/m*3 20 C 0 km/h
1259 16-05-2008 12:03:02 21.2 C 8.71 g/m*3 21.2 C 0 km/h
1260 16-05-2008 12:15:02 22 C 8.73 g/m*3 22 C 0 km/h
1261 16-05-2008 12:27:02 21.9 C 8.3 g/m*3 21.9 C 0 km/h
1262 16-05-2008 12:39:02 21.8 C 8.06 g/m*3 21.8 C 0 km/h
1263 16-05-2008 12:51:02 22.6 C 8.24 g/m*3 22.6 C 0 km/h
1264 16-05-2008 13:03:02 23.3 C 7.74 g/m*3 23.3 C 0 km/h
1265 16-05-2008 13:15:01 23.8 C 7.31 g/m*3 23.8 C 0 km/h
1266 16-05-2008 13:27:01 23.8 C 6.67 g/m*3 23.8 C 0 km/h
1267 16-05-2008 13:39:02 24.3 C 6.64 g/m*3 24.3 C 0 km/h
1268 16-05-2008 13:51:02 24.2 C 6.6 g/m*3 24.2 C 0 km/h
1269 16-05-2008 14:03:02 24 C 6.53 g/m*3 24 C 0 km/h
1270 16-05-2008 14:15:03 24 C 6.74 g/m*3 24 C 0 km/h
1271 16-05-2008 14:27:03 24.8 C 7.28 g/m*3 24.8 C 0 km/h
1272 16-05-2008 14:39:02 24.5 C 6.94 g/m*3 24.5 C 0 km/h
1273 16-05-2008 14:51:02 24.4 C 6.68 g/m*3 24.4 C 0 km/h
1274 16-05-2008 15:03:01 23.6 C 6.81 g/m*3 23.6 C 0 km/h
1275 16-05-2008 15:15:01 23.8 C 7.1 g/m*3 23.8 C 0 km/h
Sensor: Nr:Datum:Temp:Abs-Feuchte:Windchill:Wind:
Aussen-T/F 1276 16-05-2008 15:27:01 23.3 C 7.11 g/m*3 23.3 C 0 km/h
1277 16-05-2008 15:39:02 23.8 C 6.88 g/m*3 23.8 C 0 km/h
1278 16-05-2008 15:51:02 23.4 C 8.83 g/m*3 23.4 C 0 km/h
1279 16-05-2008 16:03:02 22.9 C 8.38 g/m*3 22.9 C 0 km/h
1280 16-05-2008 16:15:02 22.2 C 8.05 g/m*3 22.2 C 0 km/h
1281 16-05-2008 16:27:02 21.3 C 8.76 g/m*3 21.3 C 0 km/h
1282 16-05-2008 16:39:02 20.4 C 10.44 g/m*3 20.4 C 0 km/h
1283 16-05-2008 16:51:01 19.6 C 8.78 g/m*3 19.6 C 0 km/h
1284 16-05-2008 17:03:01 18.3 C 10.01 g/m*3 18.3 C 0 km/h
1285 16-05-2008 17:15:02 18.3 C 10.16 g/m*3 18.3 C 0 km/h
1286 16-05-2008 17:27:02 19 C 9.94 g/m*3 19 C 0 km/h
1287 16-05-2008 17:39:01 19.7 C 9.68 g/m*3 19.7 C 0 km/h
1288 16-05-2008 17:51:01 20.8 C 9.78 g/m*3 20.8 C 0 km/h
1289 16-05-2008 18:03:02 21.5 C 9.62 g/m*3 21.5 C 0 km/h
1290 16-05-2008 18:15:02 22.5 C 9.39 g/m*3 22.5 C 0 km/h
1291 16-05-2008 18:27:03 22.7 C 9.5 g/m*3 22.7 C 0 km/h
1292 16-05-2008 18:39:01 23.4 C 9.46 g/m*3 23.4 C 0 km/h
1293 16-05-2008 18:51:01 24 C 8.7 g/m*3 24 C 0 km/h
1294 16-05-2008 19:03:02 24 C 8.27 g/m*3 24 C 0 km/h
1295 16-05-2008 19:15:01 23.2 C 8.52 g/m*3 23.2 C 0 km/h
1296 16-05-2008 19:27:01 22.2 C 9.03 g/m*3 22.2 C 0 km/h
1297 16-05-2008 19:39:01 22.1 C 9.17 g/m*3 22.1 C 0 km/h
1298 16-05-2008 19:51:01 21.8 C 9.21 g/m*3 21.8 C 0 km/h
1299 16-05-2008 20:03:02 21.8 C 9.02 g/m*3 21.8 C 0 km/h
1300 16-05-2008 20:15:01 21.1 C 8.84 g/m*3 21.1 C 0 km/h
Sensor: Nr:Datum:Temp:Abs-Feuchte:Windchill:Wind:
Aussen-T/F 1301 16-05-2008 20:27:01 20.3 C 8.79 g/m*3 20.3 C 0 km/h
1302 16-05-2008 20:39:01 19.7 C 8.49 g/m*3 19.7 C 0 km/h
1303 16-05-2008 20:51:01 18.7 C 8.49 g/m*3 18.7 C 0 km/h
1304 16-05-2008 21:03:02 18.2 C 8.39 g/m*3 18.2 C 0 km/h
1305 16-05-2008 21:15:01 17.8 C 8.35 g/m*3 17.8 C 0 km/h
1306 16-05-2008 21:27:01 17.5 C 8.5 g/m*3 17.5 C 0 km/h
1307 16-05-2008 21:39:02 17.2 C 8.64 g/m*3 17.2 C 0 km/h
1308 16-05-2008 21:51:02 17.1 C 8.88 g/m*3 17.1 C 0 km/h
1309 16-05-2008 22:03:02 16.8 C 9.15 g/m*3 16.8 C 0 km/h
1310 16-05-2008 22:15:02 16.7 C 9.52 g/m*3 16.7 C 0 km/h
1311 16-05-2008 22:27:02 16.5 C 9.41 g/m*3 16.5 C 0 km/h
1312 16-05-2008 22:39:02 16.4 C 9.49 g/m*3 16.4 C 0 km/h
1313 16-05-2008 22:51:02 16.3 C 9.43 g/m*3 16.3 C 0 km/h
1314 16-05-2008 23:03:02 16.2 C 9.52 g/m*3 16.2 C 0 km/h
1315 16-05-2008 23:15:02 16.1 C 9.46 g/m*3 16.1 C 0 km/h
1316 16-05-2008 23:27:02 16 C 9.54 g/m*3 16 C 0 km/h
1317 16-05-2008 23:39:02 15.9 C 9.62 g/m*3 15.9 C 0 km/h
1318 16-05-2008 23:51:02 15.7 C 9.63 g/m*3 15.7 C 0 km/h
1319 17-05-2008 00:03:02 15.8 C 9.69 g/m*3 15.8 C 0 km/h
1320 17-05-2008 00:15:02 15.7 C 9.63 g/m*3 15.7 C 0 km/h
1321 17-05-2008 00:27:02 15.6 C 9.71 g/m*3 15.6 C 0 km/h
1322 17-05-2008 00:39:02 15.6 C 9.71 g/m*3 15.6 C 0 km/h
1323 17-05-2008 00:51:02 15.6 C 9.71 g/m*3 15.6 C 0 km/h
1324 17-05-2008 01:03:02 15.6 C 9.71 g/m*3 15.6 C 0 km/h
1325 17-05-2008 01:15:02 15.5 C 9.78 g/m*3 15.5 C 0 km/h
Sensor: Nr:Datum:Temp:Abs-Feuchte:Windchill:Wind:
Aussen-T/F 1326 17-05-2008 01:27:02 15.3 C 9.66 g/m*3 15.3 C 0 km/h
1327 17-05-2008 01:39:02 15.4 C 9.72 g/m*3 15.4 C 0 km/h
1328 17-05-2008 01:51:03 15.5 C 9.78 g/m*3 15.5 C 0 km/h
1329 17-05-2008 02:03:03 15 C 9.87 g/m*3 15 C 0 km/h
1330 17-05-2008 02:15:03 14.4 C 10.51 g/m*3 14.4 C 0 km/h
1331 17-05-2008 02:27:03 14.4 C 10.75 g/m*3 14.4 C 0 km/h
1332 17-05-2008 02:39:03 14.4 C 10.88 g/m*3 14.4 C 0 km/h
1333 17-05-2008 02:51:03 14.3 C 10.81 g/m*3 14.3 C 0 km/h
1334 17-05-2008 03:03:03 14.5 C 11.07 g/m*3 14.5 C 0 km/h
1335 17-05-2008 03:15:03 14.5 C 11.07 g/m*3 14.5 C 0 km/h
1336 17-05-2008 03:27:03 14.3 C 10.81 g/m*3 14.3 C 0 km/h
1337 17-05-2008 03:39:03 14.3 C 10.81 g/m*3 14.3 C 0 km/h
1338 17-05-2008 03:51:03 14.3 C 10.81 g/m*3 14.3 C 0 km/h
1339 17-05-2008 04:03:03 14.3 C 10.81 g/m*3 14.3 C 0 km/h
1340 17-05-2008 04:15:03 14.1 C 10.68 g/m*3 14.1 C 0 km/h
1341 17-05-2008 04:27:03 14 C 10.61 g/m*3 14 C 0 km/h
1342 17-05-2008 04:39:03 14.1 C 10.68 g/m*3 14.1 C 0 km/h
1343 17-05-2008 04:51:03 14.1 C 10.68 g/m*3 14.1 C 0 km/h
1344 17-05-2008 05:03:03 14.1 C 10.68 g/m*3 14.1 C 0 km/h
1345 17-05-2008 05:15:03 14.1 C 10.68 g/m*3 14.1 C 0 km/h
1346 17-05-2008 05:27:03 14 C 10.61 g/m*3 14 C 0 km/h
1347 17-05-2008 05:39:03 14 C 10.61 g/m*3 14 C 0 km/h
1348 17-05-2008 05:51:04 14.1 C 10.68 g/m*3 14.1 C 0 km/h
1349 17-05-2008 06:03:04 14.1 C 10.68 g/m*3 14.1 C 0 km/h
1350 17-05-2008 06:15:04 14.2 C 10.75 g/m*3 14.2 C 0 km/h
Sensor: Nr:Datum:Temp:Abs-Feuchte:Windchill:Wind:
Aussen-T/F 1351 17-05-2008 06:27:04 14.3 C 10.81 g/m*3 14.3 C 0 km/h
1352 17-05-2008 06:39:04 14.3 C 10.69 g/m*3 14.3 C 0 km/h
1353 17-05-2008 06:51:04 14.6 C 10.89 g/m*3 14.6 C 0 km/h
1354 17-05-2008 07:03:04 14.8 C 11.02 g/m*3 14.8 C 0 km/h
1355 17-05-2008 07:15:04 15 C 10.9 g/m*3 15 C 0 km/h
1356 17-05-2008 07:27:04 15.1 C 10.97 g/m*3 15.1 C 0 km/h
1357 17-05-2008 07:39:04 15.1 C 10.97 g/m*3 15.1 C 0 km/h
1358 17-05-2008 07:51:04 15.4 C 11.04 g/m*3 15.4 C 0 km/h
1359 17-05-2008 08:03:01 15.6 C 11.04 g/m*3 15.6 C 0 km/h
1360 17-05-2008 08:15:01 15.9 C 11.1 g/m*3 15.9 C 0 km/h
1361 17-05-2008 08:27:01 16.4 C 11.03 g/m*3 16.4 C 0 km/h
1362 17-05-2008 08:39:01 16.4 C 10.33 g/m*3 16.4 C 0 km/h
1363 17-05-2008 08:51:01 16.3 C 9.85 g/m*3 16.3 C 0 km/h
1364 17-05-2008 09:03:01 16.5 C 9.83 g/m*3 16.5 C 0 km/h
1365 17-05-2008 09:15:01 16.7 C 9.81 g/m*3 16.7 C 0 km/h
1366 17-05-2008 09:27:01 16.9 C 9.64 g/m*3 16.9 C 0 km/h
1367 17-05-2008 09:39:01 17.5 C 9.84 g/m*3 17.5 C 0 km/h
1368 17-05-2008 09:51:02 17.8 C 9.87 g/m*3 17.8 C 0 km/h
1369 17-05-2008 10:03:01 18.3 C 9.69 g/m*3 18.3 C 0 km/h
1370 17-05-2008 10:15:01 17.9 C 9.47 g/m*3 17.9 C 0 km/h
1371 17-05-2008 10:27:01 17.9 C 9.47 g/m*3 17.9 C 0 km/h
1372 17-05-2008 10:39:02 18.6 C 9.39 g/m*3 18.6 C 0 km/h
1373 17-05-2008 10:51:02 18.3 C 9.07 g/m*3 18.3 C 0 km/h
1374 17-05-2008 11:03:01 18.8 C 9.18 g/m*3 18.8 C 0 km/h
1375 17-05-2008 11:15:01 19.2 C 9.07 g/m*3 19.2 C 0 km/h
Sensor: Nr:Datum:Temp:Abs-Feuchte:Windchill:Wind:
Aussen-T/F 1376 17-05-2008 11:27:01 19 C 8.64 g/m*3 19 C 0 km/h
1377 17-05-2008 11:39:02 19.1 C 9.02 g/m*3 19.1 C 0 km/h
1378 17-05-2008 11:51:02 19.8 C 8.71 g/m*3 19.8 C 0 km/h
1379 17-05-2008 12:03:01 19.4 C 8.34 g/m*3 19.4 C 0 km/h
1380 17-05-2008 12:15:02 19.9 C 8.59 g/m*3 19.9 C 0 km/h
1381 17-05-2008 12:27:02 20.6 C 8.23 g/m*3 20.6 C 0 km/h
1382 17-05-2008 12:39:01 20.8 C 8.33 g/m*3 20.8 C 0 km/h
1383 17-05-2008 12:51:01 21.2 C 7.97 g/m*3 21.2 C 0 km/h
1384 17-05-2008 13:03:01 21.5 C 8.11 g/m*3 21.5 C 0 km/h
1385 17-05-2008 13:15:02 21.6 C 7.97 g/m*3 21.6 C 0 km/h
1386 17-05-2008 13:27:02 21.8 C 7.87 g/m*3 21.8 C 0 km/h
1387 17-05-2008 13:39:01 21.9 C 7.53 g/m*3 21.9 C 0 km/h
1388 17-05-2008 13:51:01 21.2 C 7.78 g/m*3 21.2 C 0 km/h
1389 17-05-2008 14:03:01 21.5 C 7.54 g/m*3 21.5 C 0 km/h
1390 17-05-2008 14:15:01 21 C 7.51 g/m*3 21 C 0 km/h
1391 17-05-2008 14:27:01 20.6 C 8.05 g/m*3 20.6 C 0 km/h
1392 17-05-2008 14:39:02 21.1 C 8.11 g/m*3 21.1 C 0 km/h
1393 17-05-2008 14:51:02 20.4 C 7.96 g/m*3 20.4 C 0 km/h
1394 17-05-2008 15:03:01 21 C 7.88 g/m*3 21 C 0 km/h
1395 17-05-2008 15:15:01 21.2 C 7.78 g/m*3 21.2 C 0 km/h
1396 17-05-2008 15:27:01 20.8 C 7.79 g/m*3 20.8 C 0 km/h
1397 17-05-2008 15:39:01 21.4 C 7.87 g/m*3 21.4 C 0 km/h
1398 17-05-2008 15:51:01 21.6 C 7.78 g/m*3 21.6 C 0 km/h
1399 17-05-2008 16:03:02 21.5 C 7.73 g/m*3 21.5 C 0 km/h
1400 17-05-2008 16:15:01 22.1 C 7.42 g/m*3 22.1 C 0 km/h
Sensor: Nr:Datum:Temp:Abs-Feuchte:Windchill:Wind:
Aussen-T/F 1401 17-05-2008 16:27:01 21.9 C 7.72 g/m*3 21.9 C 0 km/h
1402 17-05-2008 16:39:02 22 C 7.18 g/m*3 22 C 0 km/h
1403 17-05-2008 16:51:02 20.7 C 8.64 g/m*3 20.7 C 0 km/h
1404 17-05-2008 17:03:01 20.6 C 8.59 g/m*3 20.6 C 0 km/h
1405 17-05-2008 17:15:02 21.6 C 8.53 g/m*3 21.6 C 0 km/h
1406 17-05-2008 17:27:02 22.7 C 8.28 g/m*3 22.7 C 0 km/h
1407 17-05-2008 17:39:01 21.2 C 7.97 g/m*3 21.2 C 0 km/h
1408 17-05-2008 17:51:01 21.2 C 8.34 g/m*3 21.2 C 0 km/h
1409 17-05-2008 18:03:01 20.2 C 8.22 g/m*3 20.2 C 0 km/h
1410 17-05-2008 18:15:02 18.3 C 8.76 g/m*3 18.3 C 0 km/h
1411 17-05-2008 18:27:02 16.4 C 10.89 g/m*3 16.4 C 0 km/h
1412 17-05-2008 18:39:01 17.1 C 11.35 g/m*3 17.1 C 0 km/h
1413 17-05-2008 18:51:01 17 C 10.85 g/m*3 17 C 0 km/h
1414 17-05-2008 19:03:02 17.2 C 11.13 g/m*3 17.2 C 0 km/h
1415 17-05-2008 19:15:01 18.5 C 11.23 g/m*3 18.5 C 0 km/h
1416 17-05-2008 19:27:02 17.9 C 10.69 g/m*3 17.9 C 0 km/h
1417 17-05-2008 19:39:01 17 C 9.98 g/m*3 17 C 0 km/h
1418 17-05-2008 19:51:01 17.3 C 10.16 g/m*3 17.3 C 0 km/h
1419 17-05-2008 20:03:02 17.2 C 9.96 g/m*3 17.2 C 0 km/h
1420 17-05-2008 20:15:01 17.3 C 10.16 g/m*3 17.3 C 0 km/h
1421 17-05-2008 20:27:01 16.7 C 10.09 g/m*3 16.7 C 0 km/h
1422 17-05-2008 20:39:01 16.7 C 10.37 g/m*3 16.7 C 0 km/h
1423 17-05-2008 20:51:01 16.4 C 10.33 g/m*3 16.4 C 0 km/h
1424 17-05-2008 21:03:02 16.2 C 10.34 g/m*3 16.2 C 0 km/h
1425 17-05-2008 21:15:01 15.9 C 10.16 g/m*3 15.9 C 0 km/h
Sensor: Nr:Datum:Temp:Abs-Feuchte:Windchill:Wind:
Aussen-T/F 1426 17-05-2008 21:27:01 15.1 C 10.45 g/m*3 15.1 C 0 km/h
1427 17-05-2008 21:39:01 14.9 C 10.71 g/m*3 14.9 C 0 km/h
1428 17-05-2008 21:51:01 14.7 C 10.83 g/m*3 14.7 C 0 km/h
1429 17-05-2008 22:03:02 14.7 C 10.95 g/m*3 14.7 C 0 km/h
1430 17-05-2008 22:15:01 14.6 C 11.01 g/m*3 14.6 C 0 km/h
1431 17-05-2008 22:27:01 14.3 C 10.81 g/m*3 14.3 C 0 km/h
1432 17-05-2008 22:39:02 14.1 C 10.68 g/m*3 14.1 C 0 km/h
1433 17-05-2008 22:51:02 14 C 10.74 g/m*3 14 C 0 km/h
1434 17-05-2008 23:04:06 13.9 C 10.67 g/m*3 13.9 C 0 km/h
1435 17-05-2008 23:16:06 13.7 C 10.54 g/m*3 13.7 C 0 km/h
1436 17-05-2008 23:28:06 13.5 C 10.41 g/m*3 13.5 C 0 km/h
1437 17-05-2008 23:40:06 13.1 C 10.04 g/m*3 13.1 C 0 km/h
1438 17-05-2008 23:52:06 12.8 C 9.97 g/m*3 12.8 C 0 km/h
1439 18-05-2008 00:04:06 12.6 C 9.85 g/m*3 12.6 C 0 km/h
1440 18-05-2008 00:16:06 12.5 C 9.78 g/m*3 12.5 C 0 km/h
1441 18-05-2008 00:28:06 12.6 C 9.85 g/m*3 12.6 C 0 km/h
1442 18-05-2008 00:40:06 13 C 10.09 g/m*3 13 C 0 km/h
1443 18-05-2008 00:52:06 13.2 C 10.22 g/m*3 13.2 C 0 km/h
1444 18-05-2008 01:04:06 13.3 C 10.28 g/m*3 13.3 C 0 km/h
1445 18-05-2008 01:16:06 13.4 C 10.35 g/m*3 13.4 C 0 km/h
1446 18-05-2008 01:28:06 13.4 C 10.23 g/m*3 13.4 C 0 km/h
1447 18-05-2008 01:40:06 13.4 C 10.11 g/m*3 13.4 C 0 km/h
1448 18-05-2008 01:52:06 13.4 C 10.11 g/m*3 13.4 C 0 km/h
1449 18-05-2008 02:04:06 13.5 C 10.06 g/m*3 13.5 C 0 km/h
1450 18-05-2008 02:16:06 13.5 C 10.06 g/m*3 13.5 C 0 km/h
Sensor: Nr:Datum:Temp:Abs-Feuchte:Windchill:Wind:
Aussen-T/F 1451 18-05-2008 02:28:06 13.4 C 10 g/m*3 13.4 C 0 km/h
1452 18-05-2008 02:40:07 13.2 C 9.87 g/m*3 13.2 C 0 km/h
1453 18-05-2008 02:52:07 13.2 C 9.87 g/m*3 13.2 C 0 km/h
1454 18-05-2008 03:04:07 13.1 C 9.81 g/m*3 13.1 C 0 km/h
1455 18-05-2008 03:16:07 13.2 C 9.87 g/m*3 13.2 C 0 km/h
1456 18-05-2008 03:28:07 13.2 C 9.87 g/m*3 13.2 C 0 km/h
1457 18-05-2008 03:40:07 13.2 C 9.87 g/m*3 13.2 C 0 km/h
1458 18-05-2008 03:52:07 13.1 C 9.81 g/m*3 13.1 C 0 km/h
1459 18-05-2008 04:04:07 13.1 C 9.81 g/m*3 13.1 C 0 km/h
1460 18-05-2008 04:16:07 13.2 C 9.87 g/m*3 13.2 C 0 km/h
1461 18-05-2008 04:28:07 13.3 C 9.94 g/m*3 13.3 C 0 km/h
1462 18-05-2008 04:40:07 13.3 C 9.94 g/m*3 13.3 C 0 km/h
1463 18-05-2008 04:52:07 13.3 C 9.82 g/m*3 13.3 C 0 km/h
1464 18-05-2008 05:04:07 13.1 C 9.7 g/m*3 13.1 C 0 km/h
1465 18-05-2008 05:16:07 13.1 C 9.7 g/m*3 13.1 C 0 km/h
1466 18-05-2008 05:28:07 13 C 9.53 g/m*3 13 C 0 km/h
1467 18-05-2008 05:40:07 13.1 C 9.59 g/m*3 13.1 C 0 km/h
1468 18-05-2008 05:52:07 12.8 C 9.41 g/m*3 12.8 C 0 km/h
1469 18-05-2008 06:04:07 12.6 C 9.4 g/m*3 12.6 C 0 km/h
1470 18-05-2008 06:16:07 12.6 C 9.62 g/m*3 12.6 C 0 km/h
1471 18-05-2008 06:28:07 12.2 C 9.39 g/m*3 12.2 C 0 km/h
1472 18-05-2008 06:40:05 12.2 C 9.5 g/m*3 12.2 C 0 km/h
1473 18-05-2008 06:52:02 12.4 C 9.72 g/m*3 12.4 C 0 km/h
1474 18-05-2008 07:04:02 12.6 C 9.96 g/m*3 12.6 C 0 km/h
1475 18-05-2008 07:16:02 12.7 C 10.02 g/m*3 12.7 C 0 km/h
Sensor: Nr:Datum:Temp:Abs-Feuchte:Windchill:Wind:
Aussen-T/F 1476 18-05-2008 07:28:03 13 C 10.09 g/m*3 13 C 0 km/h
1477 18-05-2008 07:40:02 13.2 C 10.22 g/m*3 13.2 C 0 km/h
1478 18-05-2008 07:52:02 13.1 C 10.04 g/m*3 13.1 C 0 km/h
1479 18-05-2008 08:04:02 13.3 C 9.94 g/m*3 13.3 C 0 km/h
1480 18-05-2008 08:16:03 13.6 C 9.89 g/m*3 13.6 C 0 km/h
1481 18-05-2008 08:28:03 13.7 C 9.71 g/m*3 13.7 C 0 km/h
1482 18-05-2008 08:40:02 13.8 C 9.53 g/m*3 13.8 C 0 km/h
1483 18-05-2008 08:52:01 13.8 C 9.29 g/m*3 13.8 C 0 km/h
1484 18-05-2008 09:04:02 14.3 C 9.46 g/m*3 14.3 C 0 km/h
1485 18-05-2008 09:16:02 14.7 C 9.19 g/m*3 14.7 C 0 km/h
1486 18-05-2008 09:28:02 14.4 C 9.15 g/m*3 14.4 C 0 km/h
1487 18-05-2008 09:40:01 14.4 C 9.15 g/m*3 14.4 C 0 km/h
1488 18-05-2008 09:52:02 14.9 C 9.56 g/m*3 14.9 C 0 km/h
1489 18-05-2008 10:04:02 15.1 C 9.16 g/m*3 15.1 C 0 km/h
1490 18-05-2008 10:16:02 15.5 C 9.39 g/m*3 15.5 C 0 km/h
1491 18-05-2008 10:28:02 15 C 8.85 g/m*3 15 C 0 km/h
1492 18-05-2008 10:40:02 14.4 C 8.9 g/m*3 14.4 C 0 km/h
1493 18-05-2008 10:52:01 13.8 C 8.7 g/m*3 13.8 C 0 km/h
1494 18-05-2008 11:04:02 13.8 C 8.82 g/m*3 13.8 C 0 km/h
1495 18-05-2008 11:16:02 13.8 C 8.82 g/m*3 13.8 C 0 km/h
1496 18-05-2008 11:28:02 13.8 C 8.58 g/m*3 13.8 C 0 km/h
1497 18-05-2008 11:40:02 14.4 C 8.53 g/m*3 14.4 C 0 km/h
1498 18-05-2008 11:52:02 14.8 C 8.36 g/m*3 14.8 C 0 km/h
1499 18-05-2008 12:04:01 14.3 C 8.35 g/m*3 14.3 C 0 km/h
1500 18-05-2008 12:16:02 15 C 8.46 g/m*3 15 C 0 km/h
Sensor: Nr:Datum:Temp:Abs-Feuchte:Windchill:Wind:
Aussen-T/F 1501 18-05-2008 12:28:02 15.1 C 8.39 g/m*3 15.1 C 0 km/h
1502 18-05-2008 12:40:02 14.6 C 8.13 g/m*3 14.6 C 0 km/h
1503 18-05-2008 12:52:02 14.9 C 8.28 g/m*3 14.9 C 0 km/h
1504 18-05-2008 13:04:02 15.2 C 8.18 g/m*3 15.2 C 0 km/h
1505 18-05-2008 13:16:02 15.1 C 8.13 g/m*3 15.1 C 0 km/h
1506 18-05-2008 13:28:02 15.2 C 8.05 g/m*3 15.2 C 0 km/h
1507 18-05-2008 13:40:02 15.6 C 7.98 g/m*3 15.6 C 0 km/h
1508 18-05-2008 13:52:02 15.6 C 7.85 g/m*3 15.6 C 0 km/h
1509 18-05-2008 14:04:01 16 C 7.9 g/m*3 16 C 0 km/h
1510 18-05-2008 14:16:01 16 C 7.63 g/m*3 16 C 0 km/h
1511 18-05-2008 14:28:01 16.2 C 7.72 g/m*3 16.2 C 0 km/h
1512 18-05-2008 14:40:02 16 C 7.63 g/m*3 16 C 0 km/h
1513 18-05-2008 14:52:02 15.9 C 7.72 g/m*3 15.9 C 0 km/h
1514 18-05-2008 15:04:02 15.7 C 7.63 g/m*3 15.7 C 0 km/h
1515 18-05-2008 15:16:02 15.6 C 7.45 g/m*3 15.6 C 0 km/h
1516 18-05-2008 15:28:02 15.5 C 7.27 g/m*3 15.5 C 0 km/h
1517 18-05-2008 15:40:02 15.6 C 7.31 g/m*3 15.6 C 0 km/h
1518 18-05-2008 15:52:02 15.2 C 7.27 g/m*3 15.2 C 0 km/h
1519 18-05-2008 16:04:03 15.6 C 7.31 g/m*3 15.6 C 0 km/h
1520 18-05-2008 16:16:02 15.8 C 7.27 g/m*3 15.8 C 0 km/h
1521 18-05-2008 16:28:02 15.6 C 6.92 g/m*3 15.6 C 0 km/h
1522 18-05-2008 16:40:02 16.1 C 7.13 g/m*3 16.1 C 0 km/h
1523 18-05-2008 16:52:01 15.9 C 6.91 g/m*3 15.9 C 0 km/h
1524 18-05-2008 17:04:02 15.8 C 6.87 g/m*3 15.8 C 0 km/h
1525 18-05-2008 17:16:01 15.3 C 6.79 g/m*3 15.3 C 0 km/h
Sensor: Nr:Datum:Temp:Abs-Feuchte:Windchill:Wind:
Aussen-T/F 1526 18-05-2008 17:28:01 15.2 C 7.01 g/m*3 15.2 C 0 km/h
1527 18-05-2008 17:40:01 15 C 6.67 g/m*3 15 C 0 km/h
1528 18-05-2008 17:52:01 15 C 6.8 g/m*3 15 C 0 km/h
1529 18-05-2008 18:04:02 14.9 C 6.63 g/m*3 14.9 C 0 km/h
1530 18-05-2008 18:16:01 14.7 C 6.67 g/m*3 14.7 C 0 km/h
1531 18-05-2008 18:28:01 14.6 C 6.63 g/m*3 14.6 C 0 km/h
1532 18-05-2008 18:40:02 14.9 C 6.75 g/m*3 14.9 C 0 km/h
1533 18-05-2008 18:52:03 15.2 C 6.62 g/m*3 15.2 C 0 km/h
1534 18-05-2008 19:04:02 15.2 C 6.49 g/m*3 15.2 C 0 km/h
1535 18-05-2008 19:16:02 14.8 C 6.46 g/m*3 14.8 C 0 km/h
1536 18-05-2008 19:28:02 14.9 C 6.63 g/m*3 14.9 C 0 km/h
1537 18-05-2008 19:40:02 14.8 C 6.33 g/m*3 14.8 C 0 km/h
1538 18-05-2008 19:52:03 14.8 C 6.21 g/m*3 14.8 C 0 km/h
1539 18-05-2008 20:04:02 14.8 C 6.08 g/m*3 14.8 C 0 km/h
1540 18-05-2008 20:16:02 14.7 C 6.17 g/m*3 14.7 C 0 km/h
1541 18-05-2008 20:28:02 14.6 C 6.13 g/m*3 14.6 C 0 km/h
1542 18-05-2008 20:40:02 14.4 C 6.3 g/m*3 14.4 C 0 km/h
1543 18-05-2008 20:52:02 14.1 C 6.19 g/m*3 14.1 C 0 km/h
1544 18-05-2008 21:04:02 14.1 C 6.31 g/m*3 14.1 C 0 km/h
1545 18-05-2008 21:16:02 13.9 C 6.35 g/m*3 13.9 C 0 km/h
1546 18-05-2008 21:28:02 13.8 C 6.31 g/m*3 13.8 C 0 km/h
1547 18-05-2008 21:40:02 13.6 C 6.12 g/m*3 13.6 C 0 km/h
1548 18-05-2008 21:52:02 13.5 C 6.2 g/m*3 13.5 C 0 km/h
1549 18-05-2008 22:04:02 13.4 C 6.16 g/m*3 13.4 C 0 km/h
1550 18-05-2008 22:16:02 13.4 C 6.28 g/m*3 13.4 C 0 km/h
Sensor: Nr:Datum:Temp:Abs-Feuchte:Windchill:Wind:
Aussen-T/F 1551 18-05-2008 22:28:02 13.4 C 6.39 g/m*3 13.4 C 0 km/h
1552 18-05-2008 22:40:01 13.2 C 6.43 g/m*3 13.2 C 0 km/h
1553 18-05-2008 22:53:02 13.2 C 6.43 g/m*3 13.2 C 0 km/h
1554 18-05-2008 23:05:02 13.1 C 6.5 g/m*3 13.1 C 0 km/h
1555 18-05-2008 23:17:02 13 C 6.58 g/m*3 13 C 0 km/h
1556 18-05-2008 23:29:02 12.8 C 6.72 g/m*3 12.8 C 0 km/h
1557 18-05-2008 23:41:02 12.8 C 6.83 g/m*3 12.8 C 0 km/h
1558 18-05-2008 23:53:02 12.7 C 6.68 g/m*3 12.7 C 0 km/h
1559 19-05-2008 00:05:02 12.7 C 6.57 g/m*3 12.7 C 0 km/h
1560 19-05-2008 00:17:02 12.6 C 6.64 g/m*3 12.6 C 0 km/h
1561 19-05-2008 00:29:02 12.4 C 6.66 g/m*3 12.4 C 0 km/h
1562 19-05-2008 00:41:02 12.2 C 6.58 g/m*3 12.2 C 0 km/h
1563 19-05-2008 00:53:02 12.2 C 6.69 g/m*3 12.2 C 0 km/h
1564 19-05-2008 01:05:02 12.2 C 6.8 g/m*3 12.2 C 0 km/h
1565 19-05-2008 01:17:02 11.9 C 6.67 g/m*3 11.9 C 0 km/h
1566 19-05-2008 01:29:02 11.8 C 6.74 g/m*3 11.8 C 0 km/h
1567 19-05-2008 01:41:03 11.8 C 6.74 g/m*3 11.8 C 0 km/h
1568 19-05-2008 01:53:03 11.8 C 6.74 g/m*3 11.8 C 0 km/h
1569 19-05-2008 02:05:03 11.7 C 6.69 g/m*3 11.7 C 0 km/h
1570 19-05-2008 02:17:03 11.5 C 6.61 g/m*3 11.5 C 0 km/h
1571 19-05-2008 02:29:03 11.5 C 6.71 g/m*3 11.5 C 0 km/h
1572 19-05-2008 02:41:03 11.5 C 6.82 g/m*3 11.5 C 0 km/h
1573 19-05-2008 02:53:03 11.4 C 6.67 g/m*3 11.4 C 0 km/h
1574 19-05-2008 03:05:03 11.5 C 6.71 g/m*3 11.5 C 0 km/h
1575 19-05-2008 03:17:03 11.4 C 6.77 g/m*3 11.4 C 0 km/h
Sensor: Nr:Datum:Temp:Abs-Feuchte:Windchill:Wind:
Aussen-T/F 1576 19-05-2008 03:29:03 11.3 C 6.73 g/m*3 11.3 C 0 km/h
1577 19-05-2008 03:41:03 11.2 C 6.79 g/m*3 11.2 C 0 km/h
1578 19-05-2008 03:53:03 11.1 C 6.75 g/m*3 11.1 C 0 km/h
1579 19-05-2008 04:05:03 10.9 C 6.66 g/m*3 10.9 C 0 km/h
1580 19-05-2008 04:17:03 10.7 C 6.68 g/m*3 10.7 C 0 km/h
1581 19-05-2008 04:29:03 10.6 C 6.64 g/m*3 10.6 C 0 km/h
1582 19-05-2008 04:41:03 10.4 C 6.55 g/m*3 10.4 C 0 km/h
1583 19-05-2008 04:53:03 10.2 C 6.57 g/m*3 10.2 C 0 km/h
1584 19-05-2008 05:05:03 10 C 6.48 g/m*3 10 C 0 km/h
1585 19-05-2008 05:17:03 10.1 C 6.43 g/m*3 10.1 C 0 km/h
1586 19-05-2008 05:29:03 10.1 C 6.52 g/m*3 10.1 C 0 km/h
1587 19-05-2008 05:41:04 10.1 C 6.52 g/m*3 10.1 C 0 km/h
1588 19-05-2008 05:53:04 10.1 C 6.43 g/m*3 10.1 C 0 km/h
1589 19-05-2008 06:05:04 10.1 C 6.43 g/m*3 10.1 C 0 km/h
1590 19-05-2008 06:17:04 10.1 C 6.52 g/m*3 10.1 C 0 km/h
1591 19-05-2008 06:29:04 10.3 C 6.51 g/m*3 10.3 C 0 km/h
1592 19-05-2008 06:41:04 10.5 C 6.6 g/m*3 10.5 C 0 km/h
1593 19-05-2008 06:53:04 10.5 C 6.6 g/m*3 10.5 C 0 km/h
1594 19-05-2008 07:05:04 11 C 6.71 g/m*3 11 C 0 km/h
1595 19-05-2008 07:17:04 11.3 C 6.43 g/m*3 11.3 C 0 km/h
1596 19-05-2008 07:29:04 11.5 C 6.4 g/m*3 11.5 C 0 km/h
1597 19-05-2008 07:41:02 11.8 C 6.53 g/m*3 11.8 C 0 km/h
1598 19-05-2008 07:53:02 11.8 C 6.42 g/m*3 11.8 C 0 km/h
1599 19-05-2008 08:05:02 11.6 C 6.24 g/m*3 11.6 C 0 km/h
1600 19-05-2008 08:17:02 11.4 C 6.16 g/m*3 11.4 C 0 km/h
Sensor: Nr:Datum:Temp:Abs-Feuchte:Windchill:Wind:
Aussen-T/F 1601 19-05-2008 08:29:02 11.5 C 5.78 g/m*3 11.5 C 0 km/h
1602 19-05-2008 08:41:01 11.8 C 5.68 g/m*3 11.8 C 0 km/h
1603 19-05-2008 08:53:01 12.1 C 5.79 g/m*3 12.1 C 0 km/h
1604 19-05-2008 09:05:02 12.4 C 5.68 g/m*3 12.4 C 0 km/h
1605 19-05-2008 09:17:02 12.6 C 5.53 g/m*3 12.6 C 0 km/h
1606 19-05-2008 09:29:02 13 C 5.67 g/m*3 13 C 0 km/h
1607 19-05-2008 09:41:01 12.9 C 5.64 g/m*3 12.9 C 0 km/h
1608 19-05-2008 09:53:01 13.8 C 5.72 g/m*3 13.8 C 0 km/h
1609 19-05-2008 10:05:02 14.2 C 5.49 g/m*3 14.2 C 0 km/h
1610 19-05-2008 10:17:02 14.6 C 5.38 g/m*3 14.6 C 0 km/h
1611 19-05-2008 10:29:02 15.2 C 5.58 g/m*3 15.2 C 0 km/h
1612 19-05-2008 10:41:01 14.7 C 5.16 g/m*3 14.7 C 0 km/h
1613 19-05-2008 10:53:02 15.4 C 5.39 g/m*3 15.4 C 0 km/h
1614 19-05-2008 11:05:03 16.5 C 5.34 g/m*3 16.5 C 0 km/h
1615 19-05-2008 11:17:02 15.7 C 5.35 g/m*3 15.7 C 0 km/h
1616 19-05-2008 11:29:02 15.4 C 5.26 g/m*3 15.4 C 0 km/h
1617 19-05-2008 11:41:03 15.9 C 5.42 g/m*3 15.9 C 0 km/h
1618 19-05-2008 11:53:02 16.5 C 4.91 g/m*3 16.5 C 0 km/h
1619 19-05-2008 12:05:01 16.4 C 4.89 g/m*3 16.4 C 0 km/h
1620 19-05-2008 12:17:01 17.2 C 4.69 g/m*3 17.2 C 0 km/h
1621 19-05-2008 12:29:01 17.4 C 4.74 g/m*3 17.4 C 0 km/h
1622 19-05-2008 12:41:02 18.4 C 4.72 g/m*3 18.4 C 0 km/h
1623 19-05-2008 12:53:02 18.5 C 4.75 g/m*3 18.5 C 0 km/h
1624 19-05-2008 13:05:02 17.8 C 5.01 g/m*3 17.8 C 0 km/h
1625 19-05-2008 13:17:03 18 C 4.45 g/m*3 18 C 0 km/h
Sensor: Nr:Datum:Temp:Abs-Feuchte:Windchill:Wind:
Aussen-T/F 1626 19-05-2008 13:29:03 18.2 C 4.82 g/m*3 18.2 C 0 km/h
1627 19-05-2008 13:41:02 19 C 4.4 g/m*3 19 C 0 km/h
1628 19-05-2008 13:53:02 18.8 C 4.19 g/m*3 18.8 C 0 km/h
1629 19-05-2008 14:05:01 19.9 C 4.47 g/m*3 19.9 C 0 km/h
1630 19-05-2008 14:17:02 18.4 C 4.25 g/m*3 18.4 C 0 km/h
1631 19-05-2008 14:29:02 17.4 C 4.15 g/m*3 17.4 C 0 km/h
1632 19-05-2008 14:41:02 17.6 C 4.5 g/m*3 17.6 C 0 km/h
1633 19-05-2008 14:53:03 18 C 4.3 g/m*3 18 C 0 km/h
1634 19-05-2008 15:05:02 18.9 C 4.37 g/m*3 18.9 C 0 km/h
1635 19-05-2008 15:17:02 18.4 C 3.93 g/m*3 18.4 C 0 km/h
1636 19-05-2008 15:29:02 20.4 C 4.42 g/m*3 20.4 C 0 km/h
1637 19-05-2008 15:41:03 20.3 C 3.87 g/m*3 20.3 C 0 km/h
1638 19-05-2008 15:53:02 20.2 C 4.37 g/m*3 20.2 C 0 km/h
1639 19-05-2008 16:05:02 19.6 C 3.88 g/m*3 19.6 C 0 km/h
1640 19-05-2008 16:17:02 19.6 C 4.22 g/m*3 19.6 C 0 km/h
1641 19-05-2008 16:29:02 19.9 C 4.3 g/m*3 19.9 C 0 km/h
1642 19-05-2008 16:41:02 19.3 C 3.81 g/m*3 19.3 C 0 km/h
1643 19-05-2008 16:53:02 18.9 C 4.05 g/m*3 18.9 C 0 km/h
1644 19-05-2008 17:05:02 19.2 C 4.12 g/m*3 19.2 C 0 km/h
1645 19-05-2008 17:17:01 19.1 C 3.93 g/m*3 19.1 C 0 km/h
1646 19-05-2008 17:29:01 19.4 C 4.17 g/m*3 19.4 C 0 km/h
1647 19-05-2008 17:41:02 18.3 C 3.91 g/m*3 18.3 C 0 km/h
1648 19-05-2008 17:53:02 19 C 4.07 g/m*3 19 C 0 km/h
1649 19-05-2008 18:05:02 19.5 C 3.86 g/m*3 19.5 C 0 km/h
1650 19-05-2008 18:17:02 18.4 C 3.93 g/m*3 18.4 C 0 km/h
Sensor: Nr:Datum:Temp:Abs-Feuchte:Windchill:Wind:
Aussen-T/F 1651 19-05-2008 18:29:02 17.5 C 4.17 g/m*3 17.5 C 0 km/h
1652 19-05-2008 18:41:02 17.2 C 4.39 g/m*3 17.2 C 0 km/h
1653 19-05-2008 18:53:01 17.3 C 4.42 g/m*3 17.3 C 0 km/h
1654 19-05-2008 19:05:02 17.3 C 4.42 g/m*3 17.3 C 0 km/h
1655 19-05-2008 19:17:02 17.3 C 4.27 g/m*3 17.3 C 0 km/h
1656 19-05-2008 19:29:02 17.2 C 4.39 g/m*3 17.2 C 0 km/h
1657 19-05-2008 19:41:02 16.6 C 4.38 g/m*3 16.6 C 0 km/h
1658 19-05-2008 19:53:02 16.5 C 4.49 g/m*3 16.5 C 0 km/h
1659 19-05-2008 20:05:02 16.2 C 4.41 g/m*3 16.2 C 0 km/h
1660 19-05-2008 20:17:03 15.9 C 4.33 g/m*3 15.9 C 0 km/h
1661 19-05-2008 20:29:03 15.8 C 4.44 g/m*3 15.8 C 0 km/h
1662 19-05-2008 20:41:02 15.5 C 4.49 g/m*3 15.5 C 0 km/h
1663 19-05-2008 20:53:02 15.4 C 4.47 g/m*3 15.4 C 0 km/h
1664 19-05-2008 21:05:01 15.2 C 4.54 g/m*3 15.2 C 0 km/h
1665 19-05-2008 21:17:02 15 C 4.62 g/m*3 15 C 0 km/h
1666 19-05-2008 21:29:02 14.9 C 4.72 g/m*3 14.9 C 0 km/h
1667 19-05-2008 21:41:01 14.7 C 4.66 g/m*3 14.7 C 0 km/h
1668 19-05-2008 21:53:02 14.6 C 4.63 g/m*3 14.6 C 0 km/h
1669 19-05-2008 22:05:02 14.5 C 4.48 g/m*3 14.5 C 0 km/h
1670 19-05-2008 22:17:02 14.5 C 4.6 g/m*3 14.5 C 0 km/h
1671 19-05-2008 22:29:03 14.4 C 4.7 g/m*3 14.4 C 0 km/h
1672 19-05-2008 22:41:02 14.2 C 4.52 g/m*3 14.2 C 0 km/h
1673 19-05-2008 22:54:03 13.9 C 4.44 g/m*3 13.9 C 0 km/h
1674 19-05-2008 23:06:03 14 C 4.34 g/m*3 14 C 0 km/h
1675 19-05-2008 23:18:03 13.8 C 4.41 g/m*3 13.8 C 0 km/h
Sensor: Nr:Datum:Temp:Abs-Feuchte:Windchill:Wind:
Aussen-T/F 1676 19-05-2008 23:30:03 13.6 C 4.47 g/m*3 13.6 C 0 km/h
1677 19-05-2008 23:42:03 13.5 C 4.44 g/m*3 13.5 C 0 km/h
1678 19-05-2008 23:54:03 13.3 C 4.51 g/m*3 13.3 C 0 km/h
1679 20-05-2008 00:06:04 13.2 C 4.48 g/m*3 13.2 C 0 km/h
1680 20-05-2008 00:18:04 13.1 C 4.45 g/m*3 13.1 C 0 km/h
1681 20-05-2008 00:30:04 13 C 4.54 g/m*3 13 C 0 km/h
1682 20-05-2008 00:42:04 12.8 C 4.7 g/m*3 12.8 C 0 km/h
1683 20-05-2008 00:54:04 12.6 C 4.65 g/m*3 12.6 C 0 km/h
1684 20-05-2008 01:06:04 12.4 C 4.7 g/m*3 12.4 C 0 km/h
1685 20-05-2008 01:18:04 12 C 4.8 g/m*3 12 C 0 km/h
1686 20-05-2008 01:30:04 11.5 C 4.75 g/m*3 11.5 C 0 km/h
1687 20-05-2008 01:42:04 11 C 4.7 g/m*3 11 C 0 km/h
1688 20-05-2008 01:54:04 10.5 C 4.85 g/m*3 10.5 C 0 km/h
1689 20-05-2008 02:06:04 10.3 C 4.88 g/m*3 10.3 C 0 km/h
1690 20-05-2008 02:18:04 10.3 C 4.88 g/m*3 10.3 C 0 km/h
1691 20-05-2008 02:30:04 10.4 C 4.92 g/m*3 10.4 C 0 km/h
1692 20-05-2008 02:42:04 10.3 C 4.88 g/m*3 10.3 C 0 km/h
1693 20-05-2008 02:54:04 10.3 C 4.88 g/m*3 10.3 C 0 km/h
1694 20-05-2008 03:06:04 10.3 C 4.88 g/m*3 10.3 C 0 km/h
1695 20-05-2008 03:18:04 10.4 C 5.01 g/m*3 10.4 C 0 km/h
1696 20-05-2008 03:30:04 10.4 C 4.92 g/m*3 10.4 C 0 km/h
1697 20-05-2008 03:42:04 10.4 C 5.01 g/m*3 10.4 C 0 km/h
1698 20-05-2008 03:54:04 10.4 C 5.01 g/m*3 10.4 C 0 km/h
1699 20-05-2008 04:06:05 10.4 C 5.01 g/m*3 10.4 C 0 km/h
1700 20-05-2008 04:18:05 10.5 C 5.04 g/m*3 10.5 C 0 km/h
Sensor: Nr:Datum:Temp:Abs-Feuchte:Windchill:Wind:
Aussen-T/F 1701 20-05-2008 04:30:05 10.6 C 5.17 g/m*3 10.6 C 0 km/h
1702 20-05-2008 04:42:05 10.5 C 5.14 g/m*3 10.5 C 0 km/h
1703 20-05-2008 04:54:05 10.4 C 5.2 g/m*3 10.4 C 0 km/h
1704 20-05-2008 05:06:05 10.4 C 5.2 g/m*3 10.4 C 0 km/h
1705 20-05-2008 05:18:05 10.4 C 5.2 g/m*3 10.4 C 0 km/h
1706 20-05-2008 05:30:05 10.3 C 5.27 g/m*3 10.3 C 0 km/h
1707 20-05-2008 05:42:05 10.1 C 5.2 g/m*3 10.1 C 0 km/h
1708 20-05-2008 05:54:05 10.1 C 5.3 g/m*3 10.1 C 0 km/h
1709 20-05-2008 06:06:05 10.1 C 5.39 g/m*3 10.1 C 0 km/h
1710 20-05-2008 06:18:05 10.2 C 5.33 g/m*3 10.2 C 0 km/h
1711 20-05-2008 06:30:05 10.5 C 5.43 g/m*3 10.5 C 0 km/h
1712 20-05-2008 06:42:03 10.5 C 5.33 g/m*3 10.5 C 0 km/h
1713 20-05-2008 06:54:02 10.8 C 5.44 g/m*3 10.8 C 0 km/h
1714 20-05-2008 07:06:01 10.8 C 5.44 g/m*3 10.8 C 0 km/h
1715 20-05-2008 07:18:02 11.1 C 5.44 g/m*3 11.1 C 0 km/h
1716 20-05-2008 07:30:02 11.2 C 5.47 g/m*3 11.2 C 0 km/h
1717 20-05-2008 07:42:01 11.6 C 5.61 g/m*3 11.6 C 0 km/h
1718 20-05-2008 07:54:02 11.9 C 5.51 g/m*3 11.9 C 0 km/h
1719 20-05-2008 08:06:02 12.1 C 5.58 g/m*3 12.1 C 0 km/h
1720 20-05-2008 08:18:02 12.4 C 5.57 g/m*3 12.4 C 0 km/h
1721 20-05-2008 08:30:02 12.9 C 5.64 g/m*3 12.9 C 0 km/h
1722 20-05-2008 08:42:02 13.1 C 5.48 g/m*3 13.1 C 0 km/h
1723 20-05-2008 08:54:01 13.5 C 5.5 g/m*3 13.5 C 0 km/h
1724 20-05-2008 09:06:02 13.7 C 5.33 g/m*3 13.7 C 0 km/h
1725 20-05-2008 09:18:01 14.1 C 5.22 g/m*3 14.1 C 0 km/h
Sensor: Nr:Datum:Temp:Abs-Feuchte:Windchill:Wind:
Aussen-T/F 1726 20-05-2008 09:30:01 14.4 C 5.19 g/m*3 14.4 C 0 km/h
1727 20-05-2008 09:42:02 14.7 C 5.29 g/m*3 14.7 C 0 km/h
1728 20-05-2008 09:54:02 14.7 C 5.16 g/m*3 14.7 C 0 km/h
1729 20-05-2008 10:06:02 15.6 C 5.32 g/m*3 15.6 C 0 km/h
1730 20-05-2008 10:18:02 15.9 C 5.01 g/m*3 15.9 C 0 km/h
1731 20-05-2008 10:30:02 15.9 C 5.01 g/m*3 15.9 C 0 km/h
1732 20-05-2008 10:42:02 16.2 C 5.1 g/m*3 16.2 C 0 km/h
1733 20-05-2008 10:54:02 16.9 C 5.18 g/m*3 16.9 C 0 km/h
1734 20-05-2008 11:06:01 17.4 C 5.04 g/m*3 17.4 C 0 km/h
1735 20-05-2008 11:18:02 17.6 C 5.1 g/m*3 17.6 C 0 km/h
1736 20-05-2008 11:30:02 17.1 C 5.09 g/m*3 17.1 C 0 km/h
1737 20-05-2008 11:42:01 17.8 C 5.16 g/m*3 17.8 C 0 km/h
1738 20-05-2008 11:54:02 18.3 C 5 g/m*3 18.3 C 0 km/h
1739 20-05-2008 12:06:02 19.6 C 5.06 g/m*3 19.6 C 0 km/h
1740 20-05-2008 12:18:02 18.1 C 4.94 g/m*3 18.1 C 0 km/h
1741 20-05-2008 12:30:02 20.3 C 4.75 g/m*3 20.3 C 0 km/h
1742 20-05-2008 12:42:02 20.4 C 3.71 g/m*3 20.4 C 0 km/h
1743 20-05-2008 12:54:02 20 C 3.46 g/m*3 20 C 0 km/h
1744 20-05-2008 13:06:02 20.2 C 3.85 g/m*3 20.2 C 0 km/h
1745 20-05-2008 13:18:02 20.1 C 4.52 g/m*3 20.1 C 0 km/h
1746 20-05-2008 13:30:03 19.6 C 3.88 g/m*3 19.6 C 0 km/h
1747 20-05-2008 13:42:02 19.6 C 4.22 g/m*3 19.6 C 0 km/h
1748 20-05-2008 13:54:02 20.2 C 3.67 g/m*3 20.2 C 0 km/h
1749 20-05-2008 14:06:02 20.4 C 3.71 g/m*3 20.4 C 0 km/h
1750 20-05-2008 14:18:02 20.3 C 3.87 g/m*3 20.3 C 0 km/h
Sensor: Nr:Datum:Temp:Abs-Feuchte:Windchill:Wind:
Aussen-T/F 1751 20-05-2008 14:30:02 20.7 C 3.78 g/m*3 20.7 C 0 km/h
1752 20-05-2008 14:42:01 21.2 C 3.71 g/m*3 21.2 C 0 km/h
1753 20-05-2008 14:54:02 20.6 C 3.58 g/m*3 20.6 C 0 km/h
1754 20-05-2008 15:06:02 20.4 C 3.54 g/m*3 20.4 C 0 km/h
1755 20-05-2008 15:18:01 20.9 C 3.64 g/m*3 20.9 C 0 km/h
1756 20-05-2008 15:30:01 21.1 C 3.69 g/m*3 21.1 C 0 km/h
1757 20-05-2008 15:42:02 22.9 C 4.09 g/m*3 22.9 C 0 km/h
1758 20-05-2008 15:54:02 21.8 C 3.84 g/m*3 21.8 C 0 km/h
1759 20-05-2008 16:06:01 22.6 C 4.02 g/m*3 22.6 C 0 km/h
1760 20-05-2008 16:18:01 23.5 C 4.23 g/m*3 23.5 C 0 km/h
1761 20-05-2008 16:30:01 21.8 C 3.84 g/m*3 21.8 C 0 km/h
1762 20-05-2008 16:42:01 22.8 C 4.06 g/m*3 22.8 C 0 km/h
1763 20-05-2008 16:54:02 20.9 C 3.64 g/m*3 20.9 C 0 km/h
1764 20-05-2008 17:06:02 22.2 C 3.93 g/m*3 22.2 C 0 km/h
1765 20-05-2008 17:18:02 22.8 C 4.06 g/m*3 22.8 C 0 km/h
1766 20-05-2008 17:30:02 21 C 3.66 g/m*3 21 C 0 km/h
1767 20-05-2008 17:42:02 21.1 C 3.69 g/m*3 21.1 C 0 km/h
1768 20-05-2008 17:54:02 20.1 C 3.48 g/m*3 20.1 C 0 km/h
1769 20-05-2008 18:06:02 20 C 3.63 g/m*3 20 C 0 km/h
1770 20-05-2008 18:18:01 19.7 C 3.91 g/m*3 19.7 C 0 km/h
1771 20-05-2008 18:30:01 19.7 C 3.91 g/m*3 19.7 C 0 km/h
1772 20-05-2008 18:42:01 19.8 C 3.76 g/m*3 19.8 C 0 km/h
1773 20-05-2008 18:54:02 19.2 C 3.96 g/m*3 19.2 C 0 km/h
1774 20-05-2008 19:06:02 19.4 C 3.84 g/m*3 19.4 C 0 km/h
1775 20-05-2008 19:18:02 19 C 3.91 g/m*3 19 C 0 km/h
Sensor: Nr:Datum:Temp:Abs-Feuchte:Windchill:Wind:
Aussen-T/F 1776 20-05-2008 19:30:02 18.5 C 4.11 g/m*3 18.5 C 0 km/h
1777 20-05-2008 19:42:03 18.3 C 4.07 g/m*3 18.3 C 0 km/h
1778 20-05-2008 19:54:02 18.1 C 4.17 g/m*3 18.1 C 0 km/h
1779 20-05-2008 20:06:02 17.7 C 4.38 g/m*3 17.7 C 0 km/h
1780 20-05-2008 20:18:02 17.4 C 4.45 g/m*3 17.4 C 0 km/h
1781 20-05-2008 20:30:02 17.2 C 4.54 g/m*3 17.2 C 0 km/h
1782 20-05-2008 20:42:02 16.9 C 4.46 g/m*3 16.9 C 0 km/h
1783 20-05-2008 20:54:02 16.8 C 4.43 g/m*3 16.8 C 0 km/h
1784 20-05-2008 21:06:01 16.5 C 4.63 g/m*3 16.5 C 0 km/h
1785 20-05-2008 21:18:02 16.3 C 4.58 g/m*3 16.3 C 0 km/h
1786 20-05-2008 21:30:02 16.2 C 4.69 g/m*3 16.2 C 0 km/h
1787 20-05-2008 21:42:02 15.7 C 4.68 g/m*3 15.7 C 0 km/h
1788 20-05-2008 21:54:02 15.4 C 4.6 g/m*3 15.4 C 0 km/h
1789 20-05-2008 22:06:01 15.2 C 4.54 g/m*3 15.2 C 0 km/h
1790 20-05-2008 22:18:02 15 C 4.62 g/m*3 15 C 0 km/h
1791 20-05-2008 22:30:02 14.7 C 4.66 g/m*3 14.7 C 0 km/h
1792 20-05-2008 22:42:02 14.5 C 4.73 g/m*3 14.5 C 0 km/h
1793 20-05-2008 22:54:02 14.6 C 4.76 g/m*3 14.6 C 0 km/h
1794 20-05-2008 23:07:01 14.4 C 4.7 g/m*3 14.4 C 0 km/h
1795 20-05-2008 23:19:01 14.4 C 4.82 g/m*3 14.4 C 0 km/h
1796 20-05-2008 23:31:02 14 C 4.82 g/m*3 14 C 0 km/h
1797 20-05-2008 23:43:02 13.7 C 4.86 g/m*3 13.7 C 0 km/h
1798 20-05-2008 23:55:02 13.5 C 4.8 g/m*3 13.5 C 0 km/h
1799 21-05-2008 00:07:02 13.2 C 4.82 g/m*3 13.2 C 0 km/h
1800 21-05-2008 00:19:02 12.9 C 4.85 g/m*3 12.9 C 0 km/h
Sensor: Nr:Datum:Temp:Abs-Feuchte:Windchill:Wind:
Aussen-T/F 1801 21-05-2008 00:31:02 12.7 C 4.9 g/m*3 12.7 C 0 km/h
1802 21-05-2008 00:43:02 12.3 C 4.89 g/m*3 12.3 C 0 km/h
1803 21-05-2008 00:55:02 12.1 C 4.93 g/m*3 12.1 C 0 km/h
1804 21-05-2008 01:07:02 12 C 5.01 g/m*3 12 C 0 km/h
1805 21-05-2008 01:19:02 11.9 C 5.08 g/m*3 11.9 C 0 km/h
1806 21-05-2008 01:31:02 11.9 C 5.08 g/m*3 11.9 C 0 km/h
1807 21-05-2008 01:43:02 11.9 C 5.19 g/m*3 11.9 C 0 km/h
1808 21-05-2008 01:55:02 11.8 C 5.26 g/m*3 11.8 C 0 km/h
1809 21-05-2008 02:07:02 11.6 C 5.2 g/m*3 11.6 C 0 km/h
1810 21-05-2008 02:19:02 11.6 C 5.2 g/m*3 11.6 C 0 km/h
1811 21-05-2008 02:31:02 11.6 C 5.3 g/m*3 11.6 C 0 km/h
1812 21-05-2008 02:43:02 11.6 C 5.3 g/m*3 11.6 C 0 km/h
1813 21-05-2008 02:55:02 11.4 C 5.23 g/m*3 11.4 C 0 km/h
1814 21-05-2008 03:07:02 11.5 C 5.27 g/m*3 11.5 C 0 km/h
1815 21-05-2008 03:19:02 11.5 C 5.27 g/m*3 11.5 C 0 km/h
1816 21-05-2008 03:31:03 11.5 C 5.27 g/m*3 11.5 C 0 km/h
1817 21-05-2008 03:43:03 11.7 C 5.23 g/m*3 11.7 C 0 km/h
1818 21-05-2008 03:55:03 11.8 C 5.16 g/m*3 11.8 C 0 km/h
1819 21-05-2008 04:07:03 12.1 C 4.83 g/m*3 12.1 C 0 km/h
1820 21-05-2008 04:19:03 12.1 C 5.04 g/m*3 12.1 C 0 km/h
1821 21-05-2008 04:31:03 12.1 C 4.83 g/m*3 12.1 C 0 km/h
1822 21-05-2008 04:43:03 12.1 C 4.72 g/m*3 12.1 C 0 km/h
1823 21-05-2008 04:55:03 12.2 C 4.75 g/m*3 12.2 C 0 km/h
1824 21-05-2008 05:07:03 12.3 C 4.67 g/m*3 12.3 C 0 km/h
1825 21-05-2008 05:19:03 12.4 C 4.7 g/m*3 12.4 C 0 km/h
Sensor: Nr:Datum:Temp:Abs-Feuchte:Windchill:Wind:
Aussen-T/F 1826 21-05-2008 05:31:03 12.2 C 4.75 g/m*3 12.2 C 0 km/h
1827 21-05-2008 05:43:03 12.3 C 4.78 g/m*3 12.3 C 0 km/h
1828 21-05-2008 05:55:03 12.3 C 4.78 g/m*3 12.3 C 0 km/h
1829 21-05-2008 06:07:03 12.3 C 4.78 g/m*3 12.3 C 0 km/h
1830 21-05-2008 06:19:03 12.4 C 4.81 g/m*3 12.4 C 0 km/h
1831 21-05-2008 06:31:03 12.5 C 4.73 g/m*3 12.5 C 0 km/h
1832 21-05-2008 06:43:03 12.6 C 4.76 g/m*3 12.6 C 0 km/h
1833 21-05-2008 06:55:03 12.8 C 4.82 g/m*3 12.8 C 0 km/h
1834 21-05-2008 07:07:01 13 C 4.54 g/m*3 13 C 0 km/h
1835 21-05-2008 07:19:02 13.1 C 4.79 g/m*3 13.1 C 0 km/h
1836 21-05-2008 07:31:01 13.3 C 4.74 g/m*3 13.3 C 0 km/h
1837 21-05-2008 07:43:01 13.5 C 4.68 g/m*3 13.5 C 0 km/h
1838 21-05-2008 07:55:02 13.6 C 4.71 g/m*3 13.6 C 0 km/h
1839 21-05-2008 08:07:01 13.9 C 4.68 g/m*3 13.9 C 0 km/h
1840 21-05-2008 08:19:02 14 C 4.58 g/m*3 14 C 0 km/h
1841 21-05-2008 08:31:01 14.2 C 4.64 g/m*3 14.2 C 0 km/h
1842 21-05-2008 08:43:01 14.4 C 4.57 g/m*3 14.4 C 0 km/h
1843 21-05-2008 08:55:02 14.6 C 4.63 g/m*3 14.6 C 0 km/h
1844 21-05-2008 09:07:02 15.2 C 4.67 g/m*3 15.2 C 0 km/h
1845 21-05-2008 09:19:02 15.6 C 4.79 g/m*3 15.6 C 0 km/h
1846 21-05-2008 09:31:01 15.8 C 4.71 g/m*3 15.8 C 0 km/h
1847 21-05-2008 09:43:01 16.1 C 4.66 g/m*3 16.1 C 0 km/h
1848 21-05-2008 09:55:01 16.6 C 4.8 g/m*3 16.6 C 0 km/h
1849 21-05-2008 10:07:02 17.3 C 4.86 g/m*3 17.3 C 0 km/h
1850 21-05-2008 10:19:01 17.5 C 4.77 g/m*3 17.5 C 0 km/h
Sensor: Nr:Datum:Temp:Abs-Feuchte:Windchill:Wind:
Aussen-T/F 1851 21-05-2008 10:31:02 17.9 C 4.73 g/m*3 17.9 C 0 km/h
1852 21-05-2008 10:43:02 18.3 C 4.69 g/m*3 18.3 C 0 km/h
1853 21-05-2008 10:55:02 18.3 C 4.53 g/m*3 18.3 C 0 km/h
1854 21-05-2008 11:07:01 18.2 C 4.51 g/m*3 18.2 C 0 km/h
1855 21-05-2008 11:19:01 18.7 C 4.64 g/m*3 18.7 C 0 km/h
1856 21-05-2008 11:31:01 19.6 C 4.56 g/m*3 19.6 C 0 km/h
1857 21-05-2008 11:43:01 19.5 C 4.7 g/m*3 19.5 C 0 km/h
1858 21-05-2008 11:55:02 19.6 C 4.22 g/m*3 19.6 C 0 km/h
1859 21-05-2008 12:07:02 20.6 C 4.47 g/m*3 20.6 C 0 km/h
1860 21-05-2008 12:19:02 19.9 C 3.78 g/m*3 19.9 C 0 km/h
1861 21-05-2008 12:31:02 19.6 C 3.55 g/m*3 19.6 C 0 km/h
1862 21-05-2008 12:43:02 20.4 C 3.71 g/m*3 20.4 C 0 km/h
1863 21-05-2008 12:55:02 20.7 C 3.6 g/m*3 20.7 C 0 km/h
1864 21-05-2008 13:07:02 21.8 C 3.84 g/m*3 21.8 C 0 km/h
1865 21-05-2008 13:19:02 21.5 C 3.77 g/m*3 21.5 C 0 km/h
1866 21-05-2008 13:31:02 21 C 3.66 g/m*3 21 C 0 km/h
1867 21-05-2008 13:43:02 21.1 C 3.87 g/m*3 21.1 C 0 km/h
1868 21-05-2008 13:55:02 21.9 C 3.86 g/m*3 21.9 C 0 km/h
1869 21-05-2008 14:07:03 22.7 C 4.04 g/m*3 22.7 C 0 km/h
1870 21-05-2008 14:19:02 22.4 C 3.97 g/m*3 22.4 C 0 km/h
1871 21-05-2008 14:31:02 21.8 C 4.03 g/m*3 21.8 C 0 km/h
1872 21-05-2008 14:43:02 22.9 C 4.09 g/m*3 22.9 C 0 km/h
1873 21-05-2008 14:55:02 23.2 C 4.16 g/m*3 23.2 C 0 km/h
1874 21-05-2008 15:07:02 22.4 C 3.97 g/m*3 22.4 C 0 km/h
1875 21-05-2008 15:19:02 22.1 C 3.9 g/m*3 22.1 C 0 km/h
Sensor: Nr:Datum:Temp:Abs-Feuchte:Windchill:Wind:
Aussen-T/F 1876 21-05-2008 15:31:03 21.8 C 3.84 g/m*3 21.8 C 0 km/h
1877 21-05-2008 15:43:03 23.1 C 4.13 g/m*3 23.1 C 0 km/h
1878 21-05-2008 15:55:02 22.1 C 3.9 g/m*3 22.1 C 0 km/h
1879 21-05-2008 16:07:02 22.3 C 3.95 g/m*3 22.3 C 0 km/h
1880 21-05-2008 16:19:02 22.7 C 4.04 g/m*3 22.7 C 0 km/h
1881 21-05-2008 16:31:02 22.3 C 3.95 g/m*3 22.3 C 0 km/h
1882 21-05-2008 16:43:02 22.8 C 4.06 g/m*3 22.8 C 0 km/h
1883 21-05-2008 16:55:02 22.2 C 3.93 g/m*3 22.2 C 0 km/h
1884 21-05-2008 17:07:01 22.5 C 3.99 g/m*3 22.5 C 0 km/h
1885 21-05-2008 17:19:01 22.8 C 4.06 g/m*3 22.8 C 0 km/h
1886 21-05-2008 17:31:02 22.6 C 4.02 g/m*3 22.6 C 0 km/h
1887 21-05-2008 17:43:02 22.1 C 3.9 g/m*3 22.1 C 0 km/h
1888 21-05-2008 17:55:02 22 C 3.88 g/m*3 22 C 0 km/h
1889 21-05-2008 18:07:02 21.6 C 3.79 g/m*3 21.6 C 0 km/h
1890 21-05-2008 18:19:02 23 C 4.11 g/m*3 23 C 0 km/h
1891 21-05-2008 18:31:02 22 C 3.88 g/m*3 22 C 0 km/h
1892 21-05-2008 18:43:02 21.3 C 3.73 g/m*3 21.3 C 0 km/h
1893 21-05-2008 18:55:02 20.9 C 3.82 g/m*3 20.9 C 0 km/h
1894 21-05-2008 19:07:01 20.5 C 3.74 g/m*3 20.5 C 0 km/h
1895 21-05-2008 19:19:02 20.6 C 3.76 g/m*3 20.6 C 0 km/h
1896 21-05-2008 19:31:02 20.5 C 3.56 g/m*3 20.5 C 0 km/h
1897 21-05-2008 19:43:02 19.7 C 3.91 g/m*3 19.7 C 0 km/h
1898 21-05-2008 19:55:02 19.5 C 4.36 g/m*3 19.5 C 0 km/h
1899 21-05-2008 20:07:01 19.2 C 4.29 g/m*3 19.2 C 0 km/h
1900 21-05-2008 20:19:01 18.7 C 4.16 g/m*3 18.7 C 0 km/h
Sensor: Nr:Datum:Temp:Abs-Feuchte:Windchill:Wind:
Aussen-T/F 1901 21-05-2008 20:31:02 18.4 C 4.09 g/m*3 18.4 C 0 km/h
1902 21-05-2008 20:43:02 18 C 4.3 g/m*3 18 C 0 km/h
1903 21-05-2008 20:55:02 17.8 C 4.55 g/m*3 17.8 C 0 km/h
1904 21-05-2008 21:07:02 17.6 C 4.5 g/m*3 17.6 C 0 km/h
1905 21-05-2008 21:19:02 17.5 C 4.62 g/m*3 17.5 C 0 km/h
1906 21-05-2008 21:31:02 17.3 C 4.42 g/m*3 17.3 C 0 km/h
1907 21-05-2008 21:43:02 17.2 C 4.54 g/m*3 17.2 C 0 km/h
1908 21-05-2008 21:55:02 17.2 C 4.54 g/m*3 17.2 C 0 km/h
1909 21-05-2008 22:07:02 16.8 C 4.58 g/m*3 16.8 C 0 km/h
1910 21-05-2008 22:19:01 16.7 C 4.55 g/m*3 16.7 C 0 km/h
1911 21-05-2008 22:31:02 16.5 C 4.63 g/m*3 16.5 C 0 km/h
1912 21-05-2008 22:43:02 16.3 C 4.72 g/m*3 16.3 C 0 km/h
1913 21-05-2008 22:55:02 16.2 C 4.83 g/m*3 16.2 C 0 km/h
1914 21-05-2008 23:07:01 16.1 C 4.8 g/m*3 16.1 C 0 km/h
1915 21-05-2008 23:19:01 15.9 C 4.88 g/m*3 15.9 C 0 km/h
1916 21-05-2008 23:31:02 15.7 C 4.95 g/m*3 15.7 C 0 km/h
1917 21-05-2008 23:43:02 15.8 C 4.85 g/m*3 15.8 C 0 km/h
1918 21-05-2008 23:56:26 15.8 C 4.98 g/m*3 15.8 C 0 km/h
1919 22-05-2008 00:08:26 15.6 C 4.92 g/m*3 15.6 C 0 km/h
1920 22-05-2008 00:20:26 15.5 C 4.89 g/m*3 15.5 C 0 km/h
1921 22-05-2008 00:32:26 15.5 C 4.89 g/m*3 15.5 C 0 km/h
1922 22-05-2008 00:44:26 15.4 C 4.86 g/m*3 15.4 C 0 km/h
1923 22-05-2008 00:56:26 15.3 C 4.83 g/m*3 15.3 C 0 km/h
1924 22-05-2008 01:08:26 15 C 4.87 g/m*3 15 C 0 km/h
1925 22-05-2008 01:20:26 15 C 4.87 g/m*3 15 C 0 km/h
Sensor: Nr:Datum:Temp:Abs-Feuchte:Windchill:Wind:
Aussen-T/F 1926 22-05-2008 01:32:26 15 C 5 g/m*3 15 C 0 km/h
1927 22-05-2008 01:44:26 14.8 C 5.07 g/m*3 14.8 C 0 km/h
1928 22-05-2008 01:56:26 14.8 C 5.07 g/m*3 14.8 C 0 km/h
1929 22-05-2008 02:08:26 14.7 C 5.16 g/m*3 14.7 C 0 km/h
1930 22-05-2008 02:20:27 14.7 C 5.29 g/m*3 14.7 C 0 km/h
1931 22-05-2008 02:32:27 14.7 C 5.29 g/m*3 14.7 C 0 km/h
1932 22-05-2008 02:44:27 14.5 C 5.22 g/m*3 14.5 C 0 km/h
1933 22-05-2008 02:56:27 14.4 C 5.19 g/m*3 14.4 C 0 km/h
1934 22-05-2008 03:08:27 14.2 C 5.37 g/m*3 14.2 C 0 km/h
1935 22-05-2008 03:20:27 14.1 C 5.34 g/m*3 14.1 C 0 km/h
1936 22-05-2008 03:32:27 14.1 C 5.34 g/m*3 14.1 C 0 km/h
1937 22-05-2008 03:44:27 14 C 5.31 g/m*3 14 C 0 km/h
1938 22-05-2008 03:56:27 14 C 5.43 g/m*3 14 C 0 km/h
1939 22-05-2008 04:08:27 14 C 5.43 g/m*3 14 C 0 km/h
1940 22-05-2008 04:20:27 14 C 5.43 g/m*3 14 C 0 km/h
1941 22-05-2008 04:32:27 13.9 C 5.39 g/m*3 13.9 C 0 km/h
1942 22-05-2008 04:44:27 13.8 C 5.36 g/m*3 13.8 C 0 km/h
1943 22-05-2008 04:56:27 13.8 C 5.48 g/m*3 13.8 C 0 km/h
1944 22-05-2008 05:08:27 13.7 C 5.45 g/m*3 13.7 C 0 km/h
1945 22-05-2008 05:20:27 13.6 C 5.53 g/m*3 13.6 C 0 km/h
1946 22-05-2008 05:32:27 13.7 C 5.57 g/m*3 13.7 C 0 km/h
1947 22-05-2008 05:44:27 13.7 C 5.57 g/m*3 13.7 C 0 km/h
1948 22-05-2008 05:56:27 13.6 C 5.53 g/m*3 13.6 C 0 km/h
1949 22-05-2008 06:08:27 13.5 C 5.5 g/m*3 13.5 C 0 km/h
1950 22-05-2008 06:20:27 13.5 C 5.5 g/m*3 13.5 C 0 km/h
Sensor: Nr:Datum:Temp:Abs-Feuchte:Windchill:Wind:
Aussen-T/F 1951 22-05-2008 06:32:28 13.5 C 5.61 g/m*3 13.5 C 0 km/h
1952 22-05-2008 06:44:28 13.7 C 5.8 g/m*3 13.7 C 0 km/h
1953 22-05-2008 06:56:28 13.8 C 5.84 g/m*3 13.8 C 0 km/h
1954 22-05-2008 07:08:03 13.7 C 5.57 g/m*3 13.7 C 0 km/h
1955 22-05-2008 07:20:03 13.8 C 5.72 g/m*3 13.8 C 0 km/h
1956 22-05-2008 07:32:03 14.1 C 5.83 g/m*3 14.1 C 0 km/h
1957 22-05-2008 07:44:03 14.2 C 5.86 g/m*3 14.2 C 0 km/h
1958 22-05-2008 07:56:02 14.8 C 6.08 g/m*3 14.8 C 0 km/h
1959 22-05-2008 08:08:03 15.2 C 5.71 g/m*3 15.2 C 0 km/h
1960 22-05-2008 08:20:03 15.6 C 5.59 g/m*3 15.6 C 0 km/h
1961 22-05-2008 08:32:03 15.9 C 5.69 g/m*3 15.9 C 0 km/h
1962 22-05-2008 08:44:03 16.2 C 5.65 g/m*3 16.2 C 0 km/h
1963 22-05-2008 08:56:02 16.8 C 5.72 g/m*3 16.8 C 0 km/h
1964 22-05-2008 09:08:03 17.2 C 5.56 g/m*3 17.2 C 0 km/h
1965 22-05-2008 09:20:02 17.7 C 5.73 g/m*3 17.7 C 0 km/h
1966 22-05-2008 09:32:02 17.9 C 5.65 g/m*3 17.9 C 0 km/h
1967 22-05-2008 09:44:02 18.3 C 5.63 g/m*3 18.3 C 0 km/h
1968 22-05-2008 09:56:02 18.7 C 5.76 g/m*3 18.7 C 0 km/h
1969 22-05-2008 10:08:02 18.7 C 5.6 g/m*3 18.7 C 0 km/h
1970 22-05-2008 10:20:03 19.3 C 5.47 g/m*3 19.3 C 0 km/h
1971 22-05-2008 10:32:02 19.7 C 5.43 g/m*3 19.7 C 0 km/h
1972 22-05-2008 10:44:02 20 C 5.36 g/m*3 20 C 0 km/h
1973 22-05-2008 10:56:02 20.2 C 5.42 g/m*3 20.2 C 0 km/h
1974 22-05-2008 11:08:02 20.7 C 5.4 g/m*3 20.7 C 0 km/h
1975 22-05-2008 11:20:01 20.7 C 5.4 g/m*3 20.7 C 0 km/h
Sensor: Nr:Datum:Temp:Abs-Feuchte:Windchill:Wind:
Aussen-T/F 1976 22-05-2008 11:32:02 20.3 C 5.28 g/m*3 20.3 C 0 km/h
1977 22-05-2008 11:44:02 20.5 C 5.34 g/m*3 20.5 C 0 km/h
1978 22-05-2008 11:56:02 21.3 C 5.59 g/m*3 21.3 C 0 km/h
1979 22-05-2008 12:08:02 20.8 C 5.43 g/m*3 20.8 C 0 km/h
1980 22-05-2008 12:20:01 20.6 C 5.37 g/m*3 20.6 C 0 km/h
1981 22-05-2008 12:32:02 20.1 C 5.39 g/m*3 20.1 C 0 km/h
1982 22-05-2008 12:44:02 20.1 C 5.56 g/m*3 20.1 C 0 km/h
1983 22-05-2008 12:56:02 21.6 C 5.12 g/m*3 21.6 C 0 km/h
1984 22-05-2008 13:08:02 21.7 C 5.34 g/m*3 21.7 C 0 km/h
1985 22-05-2008 13:20:02 21.6 C 4.93 g/m*3 21.6 C 0 km/h
1986 22-05-2008 13:32:02 21.7 C 5.15 g/m*3 21.7 C 0 km/h
1987 22-05-2008 13:44:02 22 C 4.85 g/m*3 22 C 0 km/h
1988 22-05-2008 13:56:02 21.9 C 5.02 g/m*3 21.9 C 0 km/h
1989 22-05-2008 14:08:02 22 C 5.05 g/m*3 22 C 0 km/h
1990 22-05-2008 14:20:01 22.8 C 5.08 g/m*3 22.8 C 0 km/h
1991 22-05-2008 14:32:02 22.1 C 4.88 g/m*3 22.1 C 0 km/h
1992 22-05-2008 14:44:02 22.4 C 4.96 g/m*3 22.4 C 0 km/h
1993 22-05-2008 14:56:02 22.7 C 5.05 g/m*3 22.7 C 0 km/h
1994 22-05-2008 15:08:01 23.2 C 4.99 g/m*3 23.2 C 0 km/h
1995 22-05-2008 15:20:01 23.3 C 4.81 g/m*3 23.3 C 0 km/h
1996 22-05-2008 15:32:02 22.4 C 4.96 g/m*3 22.4 C 0 km/h
1997 22-05-2008 15:44:02 21.3 C 4.85 g/m*3 21.3 C 0 km/h
1998 22-05-2008 15:56:02 21.5 C 5.09 g/m*3 21.5 C 0 km/h
1999 22-05-2008 16:08:02 21.9 C 5.21 g/m*3 21.9 C 0 km/h
2000 22-05-2008 16:20:01 22 C 4.85 g/m*3 22 C 0 km/h
Sensor: Nr:Datum:Temp:Abs-Feuchte:Windchill:Wind:
Aussen-T/F 2001 22-05-2008 16:32:02 22.8 C 5.08 g/m*3 22.8 C 0 km/h
2002 22-05-2008 16:44:02 23.2 C 4.78 g/m*3 23.2 C 0 km/h
2003 22-05-2008 16:56:02 23 C 4.73 g/m*3 23 C 0 km/h
2004 22-05-2008 17:08:01 23.2 C 4.57 g/m*3 23.2 C 0 km/h
2005 22-05-2008 17:20:01 24.7 C 4.53 g/m*3 24.7 C 0 km/h
2006 22-05-2008 17:32:01 26.2 C 4.92 g/m*3 26.2 C 0 km/h
2007 22-05-2008 17:44:01 24.8 C 4.78 g/m*3 24.8 C 0 km/h
2008 22-05-2008 17:56:02 24.6 C 4.5 g/m*3 24.6 C 0 km/h
2009 22-05-2008 18:08:02 26.4 C 4.98 g/m*3 26.4 C 0 km/h
2010 22-05-2008 18:20:01 24.8 C 4.55 g/m*3 24.8 C 0 km/h
2011 22-05-2008 18:32:02 23.5 C 4.65 g/m*3 23.5 C 0 km/h
2012 22-05-2008 18:44:03 22.6 C 5.02 g/m*3 22.6 C 0 km/h
2013 22-05-2008 18:56:02 22.2 C 4.91 g/m*3 22.2 C 0 km/h
2014 22-05-2008 19:08:02 21.8 C 5.18 g/m*3 21.8 C 0 km/h
2015 22-05-2008 19:20:03 21.2 C 4.63 g/m*3 21.2 C 0 km/h
2016 22-05-2008 19:32:02 20.8 C 4.71 g/m*3 20.8 C 0 km/h
2017 22-05-2008 19:44:02 20.7 C 4.86 g/m*3 20.7 C 0 km/h
2018 22-05-2008 19:56:02 20.5 C 5.16 g/m*3 20.5 C 0 km/h
2019 22-05-2008 20:08:01 20.3 C 5.28 g/m*3 20.3 C 0 km/h
2020 22-05-2008 20:20:02 20 C 5.36 g/m*3 20 C 0 km/h
2021 22-05-2008 20:32:01 19.6 C 5.4 g/m*3 19.6 C 0 km/h
2022 22-05-2008 20:44:01 19.1 C 5.57 g/m*3 19.1 C 0 km/h
2023 22-05-2008 20:56:02 18.6 C 5.57 g/m*3 18.6 C 0 km/h
2024 22-05-2008 21:08:01 18.5 C 5.54 g/m*3 18.5 C 0 km/h
2025 22-05-2008 21:20:02 18.2 C 5.44 g/m*3 18.2 C 0 km/h
Sensor: Nr:Datum:Temp:Abs-Feuchte:Windchill:Wind:
Aussen-T/F 2026 22-05-2008 21:32:02 18.1 C 5.87 g/m*3 18.1 C 0 km/h
2027 22-05-2008 21:44:02 18 C 5.68 g/m*3 18 C 0 km/h
2028 22-05-2008 21:56:02 17.8 C 5.62 g/m*3 17.8 C 0 km/h
2029 22-05-2008 22:08:02 17.5 C 5.67 g/m*3 17.5 C 0 km/h
2030 22-05-2008 22:20:02 17.5 C 5.81 g/m*3 17.5 C 0 km/h
2031 22-05-2008 22:32:02 17.5 C 5.67 g/m*3 17.5 C 0 km/h
2032 22-05-2008 22:44:02 17.4 C 5.78 g/m*3 17.4 C 0 km/h
2033 22-05-2008 22:57:03 17.2 C 5.86 g/m*3 17.2 C 0 km/h
2034 22-05-2008 23:09:03 17.2 C 5.86 g/m*3 17.2 C 0 km/h
2035 22-05-2008 23:21:03 17 C 5.79 g/m*3 17 C 0 km/h
2036 22-05-2008 23:33:03 16.8 C 5.86 g/m*3 16.8 C 0 km/h
2037 22-05-2008 23:45:03 16.7 C 5.97 g/m*3 16.7 C 0 km/h
2038 22-05-2008 23:57:03 16.6 C 6.07 g/m*3 16.6 C 0 km/h
2039 23-05-2008 00:09:03 16.4 C 6 g/m*3 16.4 C 0 km/h
2040 23-05-2008 00:21:03 16.1 C 5.89 g/m*3 16.1 C 0 km/h
2041 23-05-2008 00:33:03 16 C 5.86 g/m*3 16 C 0 km/h
2042 23-05-2008 00:45:03 16 C 5.86 g/m*3 16 C 0 km/h
2043 23-05-2008 00:57:03 15.8 C 5.92 g/m*3 15.8 C 0 km/h
2044 23-05-2008 01:09:03 15.8 C 5.92 g/m*3 15.8 C 0 km/h
2045 23-05-2008 01:21:03 15.8 C 6.06 g/m*3 15.8 C 0 km/h
2046 23-05-2008 01:33:03 15.6 C 5.98 g/m*3 15.6 C 0 km/h
2047 23-05-2008 01:45:04 15.5 C 5.95 g/m*3 15.5 C 0 km/h
2048 23-05-2008 01:57:04 15.4 C 6.04 g/m*3 15.4 C 0 km/h
2049 23-05-2008 02:09:04 15.1 C 6.19 g/m*3 15.1 C 0 km/h
2050 23-05-2008 02:21:04 14.8 C 6.08 g/m*3 14.8 C 0 km/h
Sensor: Nr:Datum:Temp:Abs-Feuchte:Windchill:Wind:
Aussen-T/F 2051 23-05-2008 02:33:04 14.7 C 6.17 g/m*3 14.7 C 0 km/h
2052 23-05-2008 02:45:04 14.6 C 6.26 g/m*3 14.6 C 0 km/h
2053 23-05-2008 02:57:04 14.6 C 6.26 g/m*3 14.6 C 0 km/h
2054 23-05-2008 03:09:04 14.5 C 6.34 g/m*3 14.5 C 0 km/h
2055 23-05-2008 03:21:04 14.4 C 6.43 g/m*3 14.4 C 0 km/h
2056 23-05-2008 03:33:04 14.4 C 6.43 g/m*3 14.4 C 0 km/h
2057 23-05-2008 03:45:04 14.3 C 6.51 g/m*3 14.3 C 0 km/h
2058 23-05-2008 03:57:04 14.2 C 6.47 g/m*3 14.2 C 0 km/h
2059 23-05-2008 04:09:04 14.1 C 6.55 g/m*3 14.1 C 0 km/h
2060 23-05-2008 04:21:04 14.1 C 6.55 g/m*3 14.1 C 0 km/h
2061 23-05-2008 04:33:04 14.2 C 6.59 g/m*3 14.2 C 0 km/h
2062 23-05-2008 04:45:04 14.1 C 6.67 g/m*3 14.1 C 0 km/h
2063 23-05-2008 04:57:04 14 C 6.75 g/m*3 14 C 0 km/h
2064 23-05-2008 05:09:04 14 C 6.75 g/m*3 14 C 0 km/h
2065 23-05-2008 05:21:04 13.9 C 7.07 g/m*3 13.9 C 0 km/h
2066 23-05-2008 05:33:05 13.8 C 6.91 g/m*3 13.8 C 0 km/h
2067 23-05-2008 05:45:05 13.5 C 7.02 g/m*3 13.5 C 0 km/h
2068 23-05-2008 05:57:05 13.6 C 7.06 g/m*3 13.6 C 0 km/h
2069 23-05-2008 06:09:05 13.8 C 7.15 g/m*3 13.8 C 0 km/h
2070 23-05-2008 06:21:05 13.8 C 7.03 g/m*3 13.8 C 0 km/h
2071 23-05-2008 06:33:05 14.1 C 6.92 g/m*3 14.1 C 0 km/h
2072 23-05-2008 06:45:03 14.4 C 7.05 g/m*3 14.4 C 0 km/h
2073 23-05-2008 06:57:03 14.6 C 6.88 g/m*3 14.6 C 0 km/h
2074 23-05-2008 07:09:02 15 C 6.92 g/m*3 15 C 0 km/h
2075 23-05-2008 07:21:02 15.4 C 6.7 g/m*3 15.4 C 0 km/h
Sensor: Nr:Datum:Temp:Abs-Feuchte:Windchill:Wind:
Aussen-T/F 2076 23-05-2008 07:33:02 15.4 C 6.44 g/m*3 15.4 C 0 km/h
2077 23-05-2008 07:45:02 15.2 C 6.49 g/m*3 15.2 C 0 km/h
2078 23-05-2008 07:57:02 15.1 C 6.45 g/m*3 15.1 C 0 km/h
2079 23-05-2008 08:09:02 15 C 6.41 g/m*3 15 C 0 km/h
2080 23-05-2008 08:21:02 15.1 C 6.58 g/m*3 15.1 C 0 km/h
2081 23-05-2008 08:33:02 15.2 C 6.75 g/m*3 15.2 C 0 km/h
2082 23-05-2008 08:45:02 15.4 C 6.7 g/m*3 15.4 C 0 km/h
2083 23-05-2008 08:57:03 15.8 C 6.87 g/m*3 15.8 C 0 km/h
2084 23-05-2008 09:09:01 16.1 C 6.85 g/m*3 16.1 C 0 km/h
2085 23-05-2008 09:21:02 16.8 C 6.72 g/m*3 16.8 C 0 km/h
2086 23-05-2008 09:33:01 17.2 C 6.74 g/m*3 17.2 C 0 km/h
2087 23-05-2008 09:45:02 17.8 C 6.68 g/m*3 17.8 C 0 km/h
2088 23-05-2008 09:57:02 18.3 C 6.41 g/m*3 18.3 C 0 km/h
2089 23-05-2008 10:09:02 18.5 C 6.33 g/m*3 18.5 C 0 km/h
2090 23-05-2008 10:21:01 19 C 6.52 g/m*3 19 C 0 km/h
2091 23-05-2008 10:33:02 19.3 C 6.3 g/m*3 19.3 C 0 km/h
2092 23-05-2008 10:45:01 19.4 C 6.17 g/m*3 19.4 C 0 km/h
2093 23-05-2008 10:57:01 20 C 6.05 g/m*3 20 C 0 km/h
2094 23-05-2008 11:09:01 20 C 6.05 g/m*3 20 C 0 km/h
2095 23-05-2008 11:21:02 20.8 C 6.16 g/m*3 20.8 C 0 km/h
2096 23-05-2008 11:33:01 20.9 C 5.83 g/m*3 20.9 C 0 km/h
2097 23-05-2008 11:45:02 21.5 C 5.66 g/m*3 21.5 C 0 km/h
2098 23-05-2008 11:57:02 21.5 C 5.47 g/m*3 21.5 C 0 km/h
2099 23-05-2008 12:09:01 22.1 C 5.47 g/m*3 22.1 C 0 km/h
2100 23-05-2008 12:21:02 23.3 C 5.44 g/m*3 23.3 C 0 km/h
Sensor: Nr:Datum:Temp:Abs-Feuchte:Windchill:Wind:
Aussen-T/F 2101 23-05-2008 12:33:02 23.7 C 5.35 g/m*3 23.7 C 0 km/h
2102 23-05-2008 12:45:02 23.6 C 5.32 g/m*3 23.6 C 0 km/h
2103 23-05-2008 12:57:02 24.2 C 4.84 g/m*3 24.2 C 0 km/h
2104 23-05-2008 13:09:02 24.2 C 4.62 g/m*3 24.2 C 0 km/h
2105 23-05-2008 13:21:02 24.7 C 4.75 g/m*3 24.7 C 0 km/h
2106 23-05-2008 13:33:02 23.6 C 4.25 g/m*3 23.6 C 0 km/h
2107 23-05-2008 13:45:02 22.9 C 5.11 g/m*3 22.9 C 0 km/h
2108 23-05-2008 13:57:02 22.9 C 5.11 g/m*3 22.9 C 0 km/h
2109 23-05-2008 14:09:03 24.3 C 4.87 g/m*3 24.3 C 0 km/h
2110 23-05-2008 14:21:02 24.6 C 4.73 g/m*3 24.6 C 0 km/h
2111 23-05-2008 14:33:02 24.8 C 5.01 g/m*3 24.8 C 0 km/h
2112 23-05-2008 14:45:01 24.3 C 5.09 g/m*3 24.3 C 0 km/h
2113 23-05-2008 14:57:01 25 C 5.06 g/m*3 25 C 0 km/h
2114 23-05-2008 15:09:01 25.3 C 4.92 g/m*3 25.3 C 0 km/h
2115 23-05-2008 15:21:01 24.8 C 5.01 g/m*3 24.8 C 0 km/h
2116 23-05-2008 15:33:02 25.7 C 4.79 g/m*3 25.7 C 0 km/h
2117 23-05-2008 15:45:02 24.6 C 5.18 g/m*3 24.6 C 0 km/h
2118 23-05-2008 15:57:02 23.8 C 5.59 g/m*3 23.8 C 0 km/h
2119 23-05-2008 16:09:02 22.8 C 5.49 g/m*3 22.8 C 0 km/h
2120 23-05-2008 16:21:02 22.9 C 5.52 g/m*3 22.9 C 0 km/h
2121 23-05-2008 16:33:02 23.4 C 5.47 g/m*3 23.4 C 0 km/h
2122 23-05-2008 16:45:02 24.8 C 5.69 g/m*3 24.8 C 0 km/h
2123 23-05-2008 16:57:02 26.1 C 5.39 g/m*3 26.1 C 0 km/h
2124 23-05-2008 17:09:02 25.4 C 5.41 g/m*3 25.4 C 0 km/h
2125 23-05-2008 17:21:02 25.2 C 5.35 g/m*3 25.2 C 0 km/h
Sensor: Nr:Datum:Temp:Abs-Feuchte:Windchill:Wind:
Aussen-T/F 2126 23-05-2008 17:33:01 25 C 5.75 g/m*3 25 C 0 km/h
2127 23-05-2008 17:45:01 25.8 C 5.78 g/m*3 25.8 C 0 km/h
2128 23-05-2008 17:57:01 27 C 5.4 g/m*3 27 C 0 km/h
2129 23-05-2008 18:09:02 26.9 C 5.89 g/m*3 26.9 C 0 km/h
2130 23-05-2008 18:21:02 26 C 5.36 g/m*3 26 C 0 km/h
2131 23-05-2008 18:33:01 26 C 5.6 g/m*3 26 C 0 km/h
2132 23-05-2008 18:45:02 25.2 C 5.82 g/m*3 25.2 C 0 km/h
2133 23-05-2008 18:57:02 25.4 C 5.41 g/m*3 25.4 C 0 km/h
2134 23-05-2008 19:09:01 24.3 C 5.53 g/m*3 24.3 C 0 km/h
2135 23-05-2008 19:21:02 23.4 C 5.68 g/m*3 23.4 C 0 km/h
2136 23-05-2008 19:33:02 22.8 C 6.1 g/m*3 22.8 C 0 km/h
2137 23-05-2008 19:45:02 22.5 C 6.19 g/m*3 22.5 C 0 km/h
2138 23-05-2008 19:57:02 21.8 C 6.33 g/m*3 21.8 C 0 km/h
2139 23-05-2008 20:09:02 21.6 C 6.45 g/m*3 21.6 C 0 km/h
2140 23-05-2008 20:21:02 21.1 C 6.45 g/m*3 21.1 C 0 km/h
2141 23-05-2008 20:33:02 20.8 C 6.7 g/m*3 20.8 C 0 km/h
2142 23-05-2008 20:45:02 20.2 C 6.64 g/m*3 20.2 C 0 km/h
2143 23-05-2008 20:57:03 19.8 C 6.66 g/m*3 19.8 C 0 km/h
2144 23-05-2008 21:09:01 19.3 C 6.63 g/m*3 19.3 C 0 km/h
2145 23-05-2008 21:21:01 18.7 C 6.56 g/m*3 18.7 C 0 km/h
2146 23-05-2008 21:33:02 18.1 C 6.49 g/m*3 18.1 C 0 km/h
2147 23-05-2008 21:45:02 17.9 C 6.72 g/m*3 17.9 C 0 km/h
2148 23-05-2008 21:57:02 17.6 C 6.75 g/m*3 17.6 C 0 km/h
2149 23-05-2008 22:09:02 17.3 C 6.63 g/m*3 17.3 C 0 km/h
2150 23-05-2008 22:21:02 17 C 6.8 g/m*3 17 C 0 km/h
Sensor: Nr:Datum:Temp:Abs-Feuchte:Windchill:Wind:
Aussen-T/F 2151 23-05-2008 22:33:02 16.6 C 6.78 g/m*3 16.6 C 0 km/h
2152 23-05-2008 22:45:02 16.4 C 6.7 g/m*3 16.4 C 0 km/h
2153 23-05-2008 22:57:02 16.2 C 6.76 g/m*3 16.2 C 0 km/h
2154 23-05-2008 23:09:02 16 C 6.81 g/m*3 16 C 0 km/h
2155 23-05-2008 23:22:03 15.8 C 6.87 g/m*3 15.8 C 0 km/h
2156 23-05-2008 23:34:03 15.6 C 6.92 g/m*3 15.6 C 0 km/h
2157 23-05-2008 23:46:03 15.4 C 6.96 g/m*3 15.4 C 0 km/h
2158 23-05-2008 23:58:03 15.2 C 7.01 g/m*3 15.2 C 0 km/h
2159 24-05-2008 00:10:03 15.2 C 7.14 g/m*3 15.2 C 0 km/h
2160 24-05-2008 00:22:03 14.8 C 7.09 g/m*3 14.8 C 0 km/h
2161 24-05-2008 00:34:03 14.5 C 7.09 g/m*3 14.5 C 0 km/h
2162 24-05-2008 00:46:03 14.2 C 7.2 g/m*3 14.2 C 0 km/h
2163 24-05-2008 00:58:03 13.9 C 7.31 g/m*3 13.9 C 0 km/h
2164 24-05-2008 01:10:03 13.7 C 7.34 g/m*3 13.7 C 0 km/h
2165 24-05-2008 01:22:03 13.8 C 7.39 g/m*3 13.8 C 0 km/h
2166 24-05-2008 01:34:03 13.8 C 7.51 g/m*3 13.8 C 0 km/h
2167 24-05-2008 01:46:03 13.5 C 7.49 g/m*3 13.5 C 0 km/h
2168 24-05-2008 01:58:03 13.4 C 7.44 g/m*3 13.4 C 0 km/h
2169 24-05-2008 02:10:03 13.2 C 7.58 g/m*3 13.2 C 0 km/h
2170 24-05-2008 02:22:03 13.1 C 7.65 g/m*3 13.1 C 0 km/h
2171 24-05-2008 02:34:03 13.1 C 7.65 g/m*3 13.1 C 0 km/h
2172 24-05-2008 02:46:04 12.9 C 7.66 g/m*3 12.9 C 0 km/h
2173 24-05-2008 02:58:04 12.5 C 7.48 g/m*3 12.5 C 0 km/h
2174 24-05-2008 03:10:04 12.5 C 7.59 g/m*3 12.5 C 0 km/h
2175 24-05-2008 03:22:04 12.2 C 7.45 g/m*3 12.2 C 0 km/h
Sensor: Nr:Datum:Temp:Abs-Feuchte:Windchill:Wind:
Aussen-T/F 2176 24-05-2008 03:34:04 12.2 C 7.55 g/m*3 12.2 C 0 km/h
2177 24-05-2008 03:46:04 12.1 C 7.61 g/m*3 12.1 C 0 km/h
2178 24-05-2008 03:58:04 12 C 7.57 g/m*3 12 C 0 km/h
2179 24-05-2008 04:10:04 12.1 C 7.72 g/m*3 12.1 C 0 km/h
2180 24-05-2008 04:22:04 11.8 C 7.68 g/m*3 11.8 C 0 km/h
2181 24-05-2008 04:34:04 11.6 C 7.59 g/m*3 11.6 C 0 km/h
2182 24-05-2008 04:46:04 11.5 C 7.64 g/m*3 11.5 C 0 km/h
2183 24-05-2008 04:58:04 11.4 C 7.6 g/m*3 11.4 C 0 km/h
2184 24-05-2008 05:10:04 11.2 C 7.5 g/m*3 11.2 C 0 km/h
2185 24-05-2008 05:22:04 11.1 C 7.45 g/m*3 11.1 C 0 km/h
2186 24-05-2008 05:34:04 10.8 C 7.51 g/m*3 10.8 C 0 km/h
2187 24-05-2008 05:46:04 10.8 C 7.61 g/m*3 10.8 C 0 km/h
2188 24-05-2008 05:58:04 10.6 C 7.71 g/m*3 10.6 C 0 km/h
2189 24-05-2008 06:10:04 10.8 C 7.81 g/m*3 10.8 C 0 km/h
2190 24-05-2008 06:22:04 10.9 C 7.86 g/m*3 10.9 C 0 km/h
2191 24-05-2008 06:34:05 11.1 C 7.86 g/m*3 11.1 C 0 km/h
2192 24-05-2008 06:46:05 11.4 C 8.01 g/m*3 11.4 C 0 km/h
2193 24-05-2008 06:58:05 11.7 C 8.05 g/m*3 11.7 C 0 km/h
2194 24-05-2008 07:10:05 11.9 C 8.05 g/m*3 11.9 C 0 km/h
2195 24-05-2008 07:22:05 12.1 C 8.04 g/m*3 12.1 C 0 km/h
2196 24-05-2008 07:34:05 12.5 C 8.25 g/m*3 12.5 C 0 km/h
2197 24-05-2008 07:46:01 13.3 C 8.32 g/m*3 13.3 C 0 km/h
2198 24-05-2008 07:58:01 14.1 C 8.25 g/m*3 14.1 C 0 km/h
2199 24-05-2008 08:10:02 14.2 C 8.18 g/m*3 14.2 C 0 km/h
2200 24-05-2008 08:22:02 14.7 C 8.18 g/m*3 14.7 C 0 km/h
Sensor: Nr:Datum:Temp:Abs-Feuchte:Windchill:Wind:
Aussen-T/F 2201 24-05-2008 08:34:02 14.8 C 7.98 g/m*3 14.8 C 0 km/h
2202 24-05-2008 08:46:02 14.9 C 7.77 g/m*3 14.9 C 0 km/h
2203 24-05-2008 08:58:02 15.2 C 7.66 g/m*3 15.2 C 0 km/h
2204 24-05-2008 09:10:02 15.8 C 7.54 g/m*3 15.8 C 0 km/h
2205 24-05-2008 09:22:02 16.9 C 7.48 g/m*3 16.9 C 0 km/h
2206 24-05-2008 09:34:02 17.2 C 7.32 g/m*3 17.2 C 0 km/h
2207 24-05-2008 09:46:02 17.3 C 7.22 g/m*3 17.3 C 0 km/h
2208 24-05-2008 09:58:02 17.5 C 7.31 g/m*3 17.5 C 0 km/h
2209 24-05-2008 10:10:02 18.1 C 7.42 g/m*3 18.1 C 0 km/h
2210 24-05-2008 10:22:03 19 C 7.5 g/m*3 19 C 0 km/h
2211 24-05-2008 10:34:02 19.4 C 7.34 g/m*3 19.4 C 0 km/h
2212 24-05-2008 10:46:02 19.6 C 7.26 g/m*3 19.6 C 0 km/h
2213 24-05-2008 10:58:02 20 C 7.26 g/m*3 20 C 0 km/h
2214 24-05-2008 11:10:01 20.5 C 7.3 g/m*3 20.5 C 0 km/h
2215 24-05-2008 11:22:02 20.9 C 7.47 g/m*3 20.9 C 0 km/h
2216 24-05-2008 11:34:01 21.7 C 7.44 g/m*3 21.7 C 0 km/h
2217 24-05-2008 11:46:01 22 C 7.18 g/m*3 22 C 0 km/h
2218 24-05-2008 11:58:01 21.6 C 7.21 g/m*3 21.6 C 0 km/h
2219 24-05-2008 12:10:02 21.7 C 7.44 g/m*3 21.7 C 0 km/h
2220 24-05-2008 12:22:02 21.7 C 7.44 g/m*3 21.7 C 0 km/h
2221 24-05-2008 12:34:01 21.9 C 7.53 g/m*3 21.9 C 0 km/h
2222 24-05-2008 12:46:01 22.4 C 7.15 g/m*3 22.4 C 0 km/h
2223 24-05-2008 12:58:01 22.6 C 7.03 g/m*3 22.6 C 0 km/h
2224 24-05-2008 13:10:02 22.6 C 7.03 g/m*3 22.6 C 0 km/h
2225 24-05-2008 13:22:01 23.3 C 7.11 g/m*3 23.3 C 0 km/h
Sensor: Nr:Datum:Temp:Abs-Feuchte:Windchill:Wind:
Aussen-T/F 2226 24-05-2008 13:34:02 24.2 C 6.6 g/m*3 24.2 C 0 km/h
2227 24-05-2008 13:46:03 24.7 C 6.79 g/m*3 24.7 C 0 km/h
2228 24-05-2008 13:58:03 26.1 C 6.12 g/m*3 26.1 C 0 km/h
2229 24-05-2008 14:10:02 25.2 C 6.05 g/m*3 25.2 C 0 km/h
2230 24-05-2008 14:22:02 25 C 5.99 g/m*3 25 C 0 km/h
2231 24-05-2008 14:34:03 24.5 C 6.27 g/m*3 24.5 C 0 km/h
2232 24-05-2008 14:46:02 25.4 C 6.12 g/m*3 25.4 C 0 km/h
2233 24-05-2008 14:58:02 26.1 C 5.63 g/m*3 26.1 C 0 km/h
2234 24-05-2008 15:10:02 25.2 C 5.82 g/m*3 25.2 C 0 km/h
2235 24-05-2008 15:22:01 24.9 C 6.18 g/m*3 24.9 C 0 km/h
2236 24-05-2008 15:34:02 24.5 C 6.04 g/m*3 24.5 C 0 km/h
2237 24-05-2008 15:46:02 24 C 6.31 g/m*3 24 C 0 km/h
2238 24-05-2008 15:58:02 23.9 C 6.49 g/m*3 23.9 C 0 km/h
2239 24-05-2008 16:10:01 22.7 C 7.27 g/m*3 22.7 C 0 km/h
2240 24-05-2008 16:22:01 24.2 C 7.04 g/m*3 24.2 C 0 km/h
2241 24-05-2008 16:34:02 25.6 C 6.43 g/m*3 25.6 C 0 km/h
2242 24-05-2008 16:46:02 25.9 C 6.05 g/m*3 25.9 C 0 km/h
2243 24-05-2008 16:58:03 26.2 C 6.15 g/m*3 26.2 C 0 km/h
2244 24-05-2008 17:10:02 25.1 C 6.02 g/m*3 25.1 C 0 km/h
2245 24-05-2008 17:22:02 24.5 C 6.27 g/m*3 24.5 C 0 km/h
2246 24-05-2008 17:34:02 24.5 C 6.27 g/m*3 24.5 C 0 km/h
2247 24-05-2008 17:46:02 24.5 C 6.27 g/m*3 24.5 C 0 km/h
2248 24-05-2008 17:58:02 24.6 C 6.3 g/m*3 24.6 C 0 km/h
2249 24-05-2008 18:10:02 24.2 C 6.16 g/m*3 24.2 C 0 km/h
2250 24-05-2008 18:22:02 23.6 C 7.23 g/m*3 23.6 C 0 km/h
Sensor: Nr:Datum:Temp:Abs-Feuchte:Windchill:Wind:
Aussen-T/F 2251 24-05-2008 18:34:02 22.9 C 7.36 g/m*3 22.9 C 0 km/h
2252 24-05-2008 18:46:02 22.4 C 7.15 g/m*3 22.4 C 0 km/h
2253 24-05-2008 18:58:02 22.1 C 7.03 g/m*3 22.1 C 0 km/h
2254 24-05-2008 19:10:03 21.8 C 7.1 g/m*3 21.8 C 0 km/h
2255 24-05-2008 19:22:02 21.6 C 7.02 g/m*3 21.6 C 0 km/h
2256 24-05-2008 19:34:02 21.3 C 7.08 g/m*3 21.3 C 0 km/h
2257 24-05-2008 19:46:01 21.1 C 7 g/m*3 21.1 C 0 km/h
2258 24-05-2008 19:58:01 20.9 C 7.29 g/m*3 20.9 C 0 km/h
2259 24-05-2008 20:10:01 20.7 C 7.2 g/m*3 20.7 C 0 km/h
2260 24-05-2008 20:22:02 20.5 C 7.3 g/m*3 20.5 C 0 km/h
2261 24-05-2008 20:34:01 20.3 C 7.03 g/m*3 20.3 C 0 km/h
2262 24-05-2008 20:46:01 20.2 C 6.99 g/m*3 20.2 C 0 km/h
2263 24-05-2008 20:58:01 20.1 C 7.13 g/m*3 20.1 C 0 km/h
2264 24-05-2008 21:10:02 19.9 C 7.39 g/m*3 19.9 C 0 km/h
2265 24-05-2008 21:22:02 18.1 C 8.81 g/m*3 18.1 C 0 km/h
2266 24-05-2008 21:34:01 17.7 C 9.2 g/m*3 17.7 C 0 km/h
2267 24-05-2008 21:46:01 18.3 C 9.22 g/m*3 18.3 C 0 km/h
2268 24-05-2008 21:58:01 18.5 C 8.86 g/m*3 18.5 C 0 km/h
2269 24-05-2008 22:10:02 18.5 C 8.39 g/m*3 18.5 C 0 km/h
2270 24-05-2008 22:22:01 18.8 C 8.05 g/m*3 18.8 C 0 km/h
2271 24-05-2008 22:34:01 18.9 C 7.94 g/m*3 18.9 C 0 km/h
2272 24-05-2008 22:47:04 18.9 C 7.78 g/m*3 18.9 C 0 km/h
2273 24-05-2008 22:59:04 18.8 C 8.05 g/m*3 18.8 C 0 km/h
2274 24-05-2008 23:11:04 18.4 C 7.86 g/m*3 18.4 C 0 km/h
2275 24-05-2008 23:23:04 18.1 C 7.88 g/m*3 18.1 C 0 km/h
Sensor: Nr:Datum:Temp:Abs-Feuchte:Windchill:Wind:
Aussen-T/F 2276 24-05-2008 23:35:04 17.7 C 8.3 g/m*3 17.7 C 0 km/h
2277 24-05-2008 23:47:04 18.2 C 7.77 g/m*3 18.2 C 0 km/h
2278 24-05-2008 23:59:04 16.8 C 8.86 g/m*3 16.8 C 0 km/h
2279 25-05-2008 00:11:04 16.8 C 9.29 g/m*3 16.8 C 0 km/h
2280 25-05-2008 00:23:04 17.1 C 9.03 g/m*3 17.1 C 0 km/h
2281 25-05-2008 00:35:04 17.3 C 8.69 g/m*3 17.3 C 0 km/h
2282 25-05-2008 00:47:04 17.3 C 8.54 g/m*3 17.3 C 0 km/h
2283 25-05-2008 00:59:04 17.4 C 8.45 g/m*3 17.4 C 0 km/h
2284 25-05-2008 01:11:04 17.3 C 8.4 g/m*3 17.3 C 0 km/h
2285 25-05-2008 01:23:04 17.2 C 8.35 g/m*3 17.2 C 0 km/h
2286 25-05-2008 01:35:04 17.1 C 8.3 g/m*3 17.1 C 0 km/h
2287 25-05-2008 01:47:04 16.6 C 8.33 g/m*3 16.6 C 0 km/h
2288 25-05-2008 01:59:05 16.5 C 8.28 g/m*3 16.5 C 0 km/h
2289 25-05-2008 02:11:05 16.4 C 8.23 g/m*3 16.4 C 0 km/h
2290 25-05-2008 02:23:05 16.4 C 8.37 g/m*3 16.4 C 0 km/h
2291 25-05-2008 02:35:05 16.6 C 8.48 g/m*3 16.6 C 0 km/h
2292 25-05-2008 02:47:05 16.8 C 8.29 g/m*3 16.8 C 0 km/h
2293 25-05-2008 02:59:05 17 C 8.25 g/m*3 17 C 0 km/h
2294 25-05-2008 03:11:05 17 C 8.25 g/m*3 17 C 0 km/h
2295 25-05-2008 03:23:05 17 C 8.25 g/m*3 17 C 0 km/h
2296 25-05-2008 03:35:05 16.7 C 8.95 g/m*3 16.7 C 0 km/h
2297 25-05-2008 03:47:05 16.6 C 9.32 g/m*3 16.6 C 0 km/h
2298 25-05-2008 03:59:05 16.5 C 8.71 g/m*3 16.5 C 0 km/h
2299 25-05-2008 04:11:05 16.5 C 8.85 g/m*3 16.5 C 0 km/h
2300 25-05-2008 04:23:05 16.5 C 8.85 g/m*3 16.5 C 0 km/h
Sensor: Nr:Datum:Temp:Abs-Feuchte:Windchill:Wind:
Aussen-T/F 2301 25-05-2008 04:35:05 16.4 C 8.79 g/m*3 16.4 C 0 km/h
2302 25-05-2008 04:47:05 16.4 C 8.79 g/m*3 16.4 C 0 km/h
2303 25-05-2008 04:59:05 16.1 C 8.91 g/m*3 16.1 C 0 km/h
2304 25-05-2008 05:11:05 16.2 C 9.24 g/m*3 16.2 C 0 km/h
2305 25-05-2008 05:23:05 16.2 C 8.96 g/m*3 16.2 C 0 km/h
2306 25-05-2008 05:35:05 16.2 C 8.83 g/m*3 16.2 C 0 km/h
2307 25-05-2008 05:47:06 16.1 C 8.77 g/m*3 16.1 C 0 km/h
2308 25-05-2008 05:59:06 16 C 8.86 g/m*3 16 C 0 km/h
2309 25-05-2008 06:11:06 15.8 C 9.02 g/m*3 15.8 C 0 km/h
2310 25-05-2008 06:23:06 15.6 C 8.91 g/m*3 15.6 C 0 km/h
2311 25-05-2008 06:35:06 15.8 C 9.02 g/m*3 15.8 C 0 km/h
2312 25-05-2008 06:47:06 16 C 8.99 g/m*3 16 C 0 km/h
2313 25-05-2008 06:59:06 16.5 C 9.13 g/m*3 16.5 C 0 km/h
2314 25-05-2008 07:11:06 16.8 C 9.15 g/m*3 16.8 C 0 km/h
2315 25-05-2008 07:23:06 16.8 C 9.15 g/m*3 16.8 C 0 km/h
2316 25-05-2008 07:35:06 16.6 C 9.18 g/m*3 16.6 C 0 km/h
2317 25-05-2008 07:47:06 16.9 C 9.35 g/m*3 16.9 C 0 km/h
2318 25-05-2008 07:59:06 17.4 C 9.34 g/m*3 17.4 C 0 km/h
2319 25-05-2008 08:11:06 17.6 C 9.15 g/m*3 17.6 C 0 km/h
2320 25-05-2008 08:23:06 18 C 9.22 g/m*3 18 C 0 km/h
2321 25-05-2008 08:35:03 18.5 C 9.18 g/m*3 18.5 C 0 km/h
2322 25-05-2008 08:47:02 18.7 C 9.45 g/m*3 18.7 C 0 km/h
2323 25-05-2008 08:59:02 18.7 C 9.13 g/m*3 18.7 C 0 km/h
2324 25-05-2008 09:11:02 19.1 C 9.02 g/m*3 19.1 C 0 km/h
2325 25-05-2008 09:23:02 19.5 C 9.23 g/m*3 19.5 C 0 km/h
Sensor: Nr:Datum:Temp:Abs-Feuchte:Windchill:Wind:
Aussen-T/F 2326 25-05-2008 09:35:02 19.9 C 9.45 g/m*3 19.9 C 0 km/h
2327 25-05-2008 09:47:02 20.4 C 9.2 g/m*3 20.4 C 0 km/h
2328 25-05-2008 09:59:02 20.1 C 9.04 g/m*3 20.1 C 0 km/h
2329 25-05-2008 10:11:02 20.8 C 9.05 g/m*3 20.8 C 0 km/h
2330 25-05-2008 10:23:02 21.1 C 9.03 g/m*3 21.1 C 0 km/h
2331 25-05-2008 10:35:02 21.8 C 9.21 g/m*3 21.8 C 0 km/h
2332 25-05-2008 10:47:02 22.1 C 8.98 g/m*3 22.1 C 0 km/h
2333 25-05-2008 10:59:02 22.4 C 9.14 g/m*3 22.4 C 0 km/h
2334 25-05-2008 11:11:02 22.7 C 8.89 g/m*3 22.7 C 0 km/h
2335 25-05-2008 11:23:02 23.4 C 8.83 g/m*3 23.4 C 0 km/h
2336 25-05-2008 11:35:02 24 C 8.49 g/m*3 24 C 0 km/h
2337 25-05-2008 11:47:02 24 C 8.27 g/m*3 24 C 0 km/h
2338 25-05-2008 11:59:02 24.1 C 8.31 g/m*3 24.1 C 0 km/h
2339 25-05-2008 12:11:02 24.2 C 8.14 g/m*3 24.2 C 0 km/h
2340 25-05-2008 12:23:03 25.2 C 8.15 g/m*3 25.2 C 0 km/h
2341 25-05-2008 12:35:02 26.2 C 7.88 g/m*3 26.2 C 0 km/h
2342 25-05-2008 12:47:01 27 C 7.98 g/m*3 27 C 0 km/h
2343 25-05-2008 12:59:01 28.7 C 7.63 g/m*3 28.7 C 0 km/h
2344 25-05-2008 13:11:01 26.8 C 7.64 g/m*3 26.8 C 0 km/h
2345 25-05-2008 13:23:02 26 C 7.55 g/m*3 26 C 0 km/h
2346 25-05-2008 13:35:01 27.1 C 6.99 g/m*3 27.1 C 0 km/h
2347 25-05-2008 13:47:01 27 C 7.46 g/m*3 27 C 0 km/h
2348 25-05-2008 13:59:01 26.6 C 7.8 g/m*3 26.6 C 0 km/h
2349 25-05-2008 14:11:02 27.2 C 7.55 g/m*3 27.2 C 0 km/h
2350 25-05-2008 14:23:02 27.9 C 7.84 g/m*3 27.9 C 0 km/h
Sensor: Nr:Datum:Temp:Abs-Feuchte:Windchill:Wind:
Aussen-T/F 2351 25-05-2008 14:35:01 27.5 C 7.41 g/m*3 27.5 C 0 km/h
2352 25-05-2008 14:47:01 27 C 7.72 g/m*3 27 C 0 km/h
2353 25-05-2008 14:59:01 27.9 C 7.57 g/m*3 27.9 C 0 km/h
2354 25-05-2008 15:11:02 28.6 C 7.59 g/m*3 28.6 C 0 km/h
2355 25-05-2008 15:23:01 27.8 C 7.26 g/m*3 27.8 C 0 km/h
2356 25-05-2008 15:35:01 27.4 C 7.37 g/m*3 27.4 C 0 km/h
2357 25-05-2008 15:47:02 23.9 C 8.44 g/m*3 23.9 C 0 km/h
2358 25-05-2008 15:59:02 20.9 C 13.11 g/m*3 20.9 C 0 km/h
2359 25-05-2008 16:11:02 23.4 C 14.93 g/m*3 23.4 C 0 km/h
2360 25-05-2008 16:23:02 24.4 C 14.02 g/m*3 24.4 C 0 km/h
2361 25-05-2008 16:35:03 25.6 C 12.38 g/m*3 25.6 C 0 km/h
2362 25-05-2008 16:47:02 27.1 C 10.35 g/m*3 27.1 C 0 km/h
2363 25-05-2008 16:59:02 28.4 C 9.17 g/m*3 28.4 C 0 km/h
2364 25-05-2008 17:11:03 29.9 C 9.35 g/m*3 29.9 C 0 km/h
2365 25-05-2008 17:23:02 30.2 C 8.28 g/m*3 30.2 C 0 km/h
2366 25-05-2008 17:35:02 30.2 C 8.28 g/m*3 30.2 C 0 km/h
2367 25-05-2008 17:47:02 29.1 C 8.66 g/m*3 29.1 C 0 km/h
2368 25-05-2008 17:59:02 28.7 C 10.17 g/m*3 28.7 C 0 km/h
2369 25-05-2008 18:11:01 29.7 C 9.55 g/m*3 29.7 C 0 km/h
2370 25-05-2008 18:23:02 28.1 C 8.2 g/m*3 28.1 C 0 km/h
2371 25-05-2008 18:35:01 28.7 C 8.19 g/m*3 28.7 C 0 km/h
2372 25-05-2008 18:47:01 28.7 C 9.04 g/m*3 28.7 C 0 km/h
2373 25-05-2008 18:59:01 28.4 C 8.06 g/m*3 28.4 C 0 km/h
2374 25-05-2008 19:11:03 27.7 C 9.63 g/m*3 27.7 C 0 km/h
2375 25-05-2008 19:23:02 27.2 C 9.11 g/m*3 27.2 C 0 km/h
Sensor: Nr:Datum:Temp:Abs-Feuchte:Windchill:Wind:
Aussen-T/F 2376 25-05-2008 19:35:02 27.3 C 9.42 g/m*3 27.3 C 0 km/h
2377 25-05-2008 19:47:02 27.3 C 9.68 g/m*3 27.3 C 0 km/h
2378 25-05-2008 19:59:02 26.3 C 9.9 g/m*3 26.3 C 0 km/h
2379 25-05-2008 20:11:02 25.4 C 10.12 g/m*3 25.4 C 0 km/h
2380 25-05-2008 20:23:02 24.6 C 10.13 g/m*3 24.6 C 0 km/h
2381 25-05-2008 20:35:02 23.9 C 10.17 g/m*3 23.9 C 0 km/h
2382 25-05-2008 20:47:02 23.2 C 9.98 g/m*3 23.2 C 0 km/h
2383 25-05-2008 20:59:02 22.5 C 9.99 g/m*3 22.5 C 0 km/h
2384 25-05-2008 21:11:02 21.9 C 10.03 g/m*3 21.9 C 0 km/h
2385 25-05-2008 21:23:02 21.6 C 9.86 g/m*3 21.6 C 0 km/h
2386 25-05-2008 21:35:02 21.3 C 9.69 g/m*3 21.3 C 0 km/h
2387 25-05-2008 21:47:02 21 C 9.53 g/m*3 21 C 0 km/h
2388 25-05-2008 21:59:02 20.8 C 9.6 g/m*3 20.8 C 0 km/h
2389 25-05-2008 22:11:02 20.5 C 9.61 g/m*3 20.5 C 0 km/h
2390 25-05-2008 22:23:02 20.4 C 9.73 g/m*3 20.4 C 0 km/h
2391 25-05-2008 22:35:02 20.3 C 9.5 g/m*3 20.3 C 0 km/h
2392 25-05-2008 22:47:02 20.3 C 9.67 g/m*3 20.3 C 0 km/h
2393 25-05-2008 22:59:02 20.3 C 9.67 g/m*3 20.3 C 0 km/h
2394 25-05-2008 23:12:02 20.2 C 9.62 g/m*3 20.2 C 0 km/h
2395 25-05-2008 23:24:02 20.2 C 9.62 g/m*3 20.2 C 0 km/h
2396 25-05-2008 23:36:02 20 C 9.51 g/m*3 20 C 0 km/h
2397 25-05-2008 23:48:02 19.9 C 9.79 g/m*3 19.9 C 0 km/h
2398 26-05-2008 00:00:03 19.7 C 9.68 g/m*3 19.7 C 0 km/h
2399 26-05-2008 00:12:03 20 C 9.68 g/m*3 20 C 0 km/h
2400 26-05-2008 00:24:03 19.3 C 9.62 g/m*3 19.3 C 0 km/h
Sensor: Nr:Datum:Temp:Abs-Feuchte:Windchill:Wind:
Aussen-T/F 2401 26-05-2008 00:36:03 19.3 C 9.62 g/m*3 19.3 C 0 km/h
2402 26-05-2008 00:48:03 19.3 C 9.79 g/m*3 19.3 C 0 km/h
2403 26-05-2008 01:00:03 19.5 C 9.73 g/m*3 19.5 C 0 km/h
2404 26-05-2008 01:12:03 19.5 C 9.73 g/m*3 19.5 C 0 km/h
2405 26-05-2008 01:24:03 19.4 C 9.84 g/m*3 19.4 C 0 km/h
2406 26-05-2008 01:36:03 19.3 C 9.79 g/m*3 19.3 C 0 km/h
2407 26-05-2008 01:48:03 19.3 C 9.79 g/m*3 19.3 C 0 km/h
2408 26-05-2008 02:00:03 19.3 C 9.95 g/m*3 19.3 C 0 km/h
2409 26-05-2008 02:12:03 19.1 C 10 g/m*3 19.1 C 0 km/h
2410 26-05-2008 02:24:03 19 C 9.94 g/m*3 19 C 0 km/h
2411 26-05-2008 02:36:03 18.9 C 10.04 g/m*3 18.9 C 0 km/h
2412 26-05-2008 02:48:03 18.9 C 10.21 g/m*3 18.9 C 0 km/h
2413 26-05-2008 03:00:03 18.9 C 10.21 g/m*3 18.9 C 0 km/h
2414 26-05-2008 03:12:03 18.9 C 10.21 g/m*3 18.9 C 0 km/h
2415 26-05-2008 03:24:03 18.9 C 10.21 g/m*3 18.9 C 0 km/h
2416 26-05-2008 03:36:03 18.8 C 10.31 g/m*3 18.8 C 0 km/h
2417 26-05-2008 03:48:03 18.8 C 10.31 g/m*3 18.8 C 0 km/h
2418 26-05-2008 04:00:04 18.2 C 10.72 g/m*3 18.2 C 0 km/h
2419 26-05-2008 04:12:04 17.6 C 11.55 g/m*3 17.6 C 0 km/h
2420 26-05-2008 04:24:04 17.3 C 11.79 g/m*3 17.3 C 0 km/h
2421 26-05-2008 04:36:04 17 C 11.87 g/m*3 17 C 0 km/h
2422 26-05-2008 04:48:04 17 C 12.15 g/m*3 17 C 0 km/h
2423 26-05-2008 05:00:04 17.1 C 12.23 g/m*3 17.1 C 0 km/h
2424 26-05-2008 05:12:04 17 C 12.3 g/m*3 17 C 0 km/h
2425 26-05-2008 05:24:04 17.3 C 12.52 g/m*3 17.3 C 0 km/h
Sensor: Nr:Datum:Temp:Abs-Feuchte:Windchill:Wind:
Aussen-T/F 2426 26-05-2008 05:36:04 16.8 C 12.44 g/m*3 16.8 C 0 km/h
2427 26-05-2008 05:48:04 17 C 12.44 g/m*3 17 C 0 km/h
2428 26-05-2008 06:00:04 17.1 C 12.52 g/m*3 17.1 C 0 km/h
2429 26-05-2008 06:12:04 17.2 C 12.45 g/m*3 17.2 C 0 km/h
2430 26-05-2008 06:24:04 17.2 C 12.3 g/m*3 17.2 C 0 km/h
2431 26-05-2008 06:36:04 17.2 C 12.3 g/m*3 17.2 C 0 km/h
2432 26-05-2008 06:48:02 17.1 C 12.08 g/m*3 17.1 C 0 km/h
2433 26-05-2008 07:00:02 17.2 C 12.01 g/m*3 17.2 C 0 km/h
2434 26-05-2008 07:12:02 17.3 C 12.08 g/m*3 17.3 C 0 km/h
2435 26-05-2008 07:24:02 17.2 C 12.01 g/m*3 17.2 C 0 km/h
2436 26-05-2008 07:36:02 17.3 C 12.08 g/m*3 17.3 C 0 km/h
2437 26-05-2008 07:48:02 17.6 C 12.15 g/m*3 17.6 C 0 km/h
2438 26-05-2008 08:00:02 17.8 C 12.29 g/m*3 17.8 C 0 km/h
2439 26-05-2008 08:12:02 17.9 C 12.21 g/m*3 17.9 C 0 km/h
2440 26-05-2008 08:24:03 17.8 C 12.14 g/m*3 17.8 C 0 km/h
2441 26-05-2008 08:36:03 17.9 C 12.21 g/m*3 17.9 C 0 km/h
2442 26-05-2008 08:48:02 17.8 C 12.14 g/m*3 17.8 C 0 km/h
2443 26-05-2008 09:00:02 17.7 C 12.07 g/m*3 17.7 C 0 km/h
2444 26-05-2008 09:12:03 17.8 C 12.29 g/m*3 17.8 C 0 km/h
2445 26-05-2008 09:24:02 17.9 C 12.37 g/m*3 17.9 C 0 km/h
2446 26-05-2008 09:36:02 18.1 C 12.21 g/m*3 18.1 C 0 km/h
2447 26-05-2008 09:48:02 18.2 C 12.28 g/m*3 18.2 C 0 km/h
2448 26-05-2008 10:00:02 18.1 C 12.36 g/m*3 18.1 C 0 km/h
2449 26-05-2008 10:12:03 18.2 C 12.59 g/m*3 18.2 C 0 km/h
2450 26-05-2008 10:24:02 18.5 C 12.82 g/m*3 18.5 C 0 km/h
Sensor: Nr:Datum:Temp:Abs-Feuchte:Windchill:Wind:
Aussen-T/F 2451 26-05-2008 10:36:02 19 C 12.87 g/m*3 19 C 0 km/h
2452 26-05-2008 10:48:02 19.7 C 12.74 g/m*3 19.7 C 0 km/h
2453 26-05-2008 11:00:02 20.1 C 12.52 g/m*3 20.1 C 0 km/h
2454 26-05-2008 11:12:02 20.4 C 12.38 g/m*3 20.4 C 0 km/h
2455 26-05-2008 11:24:02 20.5 C 12.28 g/m*3 20.5 C 0 km/h
2456 26-05-2008 11:36:02 20.4 C 12.21 g/m*3 20.4 C 0 km/h
2457 26-05-2008 11:48:02 20.5 C 12.28 g/m*3 20.5 C 0 km/h
2458 26-05-2008 12:00:02 21 C 11.91 g/m*3 21 C 0 km/h
2459 26-05-2008 12:12:02 22.1 C 12.1 g/m*3 22.1 C 0 km/h
2460 26-05-2008 12:24:02 22.1 C 11.52 g/m*3 22.1 C 0 km/h
2461 26-05-2008 12:36:02 21.9 C 11.96 g/m*3 21.9 C 0 km/h
2462 26-05-2008 12:48:02 21.3 C 11.93 g/m*3 21.3 C 0 km/h
2463 26-05-2008 13:00:02 21.2 C 11.86 g/m*3 21.2 C 0 km/h
2464 26-05-2008 13:12:02 21.7 C 12.21 g/m*3 21.7 C 0 km/h
2465 26-05-2008 13:24:02 22.8 C 11.99 g/m*3 22.8 C 0 km/h
2466 26-05-2008 13:36:02 22.9 C 11.65 g/m*3 22.9 C 0 km/h
2467 26-05-2008 13:48:01 22.8 C 11.99 g/m*3 22.8 C 0 km/h
2468 26-05-2008 14:00:01 22.9 C 11.85 g/m*3 22.9 C 0 km/h
2469 26-05-2008 14:12:02 23.2 C 11.43 g/m*3 23.2 C 0 km/h
2470 26-05-2008 14:24:02 23.8 C 11.4 g/m*3 23.8 C 0 km/h
2471 26-05-2008 14:36:02 25 C 10.82 g/m*3 25 C 0 km/h
2472 26-05-2008 14:48:02 25.1 C 9.95 g/m*3 25.1 C 0 km/h
2473 26-05-2008 15:00:02 25.3 C 9.36 g/m*3 25.3 C 0 km/h
2474 26-05-2008 15:12:02 26.5 C 9.01 g/m*3 26.5 C 0 km/h
2475 26-05-2008 15:24:01 27.6 C 9.04 g/m*3 27.6 C 0 km/h
Sensor: Nr:Datum:Temp:Abs-Feuchte:Windchill:Wind:
Aussen-T/F 2476 26-05-2008 15:36:02 27.3 C 9.16 g/m*3 27.3 C 0 km/h
2477 26-05-2008 15:48:02 27.6 C 9.04 g/m*3 27.6 C 0 km/h
2478 26-05-2008 16:00:02 28.2 C 8.52 g/m*3 28.2 C 0 km/h
2479 26-05-2008 16:12:01 28.2 C 8.52 g/m*3 28.2 C 0 km/h
2480 26-05-2008 16:24:01 28 C 8.43 g/m*3 28 C 0 km/h
2481 26-05-2008 16:36:02 28 C 8.7 g/m*3 28 C 0 km/h
2482 26-05-2008 16:48:02 27.7 C 9.36 g/m*3 27.7 C 0 km/h
2483 26-05-2008 17:00:02 27.7 C 8.83 g/m*3 27.7 C 0 km/h
2484 26-05-2008 17:12:02 27.5 C 9 g/m*3 27.5 C 0 km/h
2485 26-05-2008 17:24:02 27.1 C 9.06 g/m*3 27.1 C 0 km/h
2486 26-05-2008 17:36:03 27 C 9.26 g/m*3 27 C 0 km/h
2487 26-05-2008 17:48:02 27.8 C 9.41 g/m*3 27.8 C 0 km/h
2488 26-05-2008 18:00:02 27.6 C 9.04 g/m*3 27.6 C 0 km/h
2489 26-05-2008 18:12:02 26.9 C 9.47 g/m*3 26.9 C 0 km/h
2490 26-05-2008 18:24:02 26.3 C 9.41 g/m*3 26.3 C 0 km/h
2491 26-05-2008 18:36:02 26.9 C 9.47 g/m*3 26.9 C 0 km/h
2492 26-05-2008 18:48:02 26.8 C 9.42 g/m*3 26.8 C 0 km/h
2493 26-05-2008 19:00:02 26.4 C 9.46 g/m*3 26.4 C 0 km/h
2494 26-05-2008 19:12:02 26.2 C 9.6 g/m*3 26.2 C 0 km/h
2495 26-05-2008 19:24:02 25.8 C 9.63 g/m*3 25.8 C 0 km/h
2496 26-05-2008 19:36:02 25.8 C 9.39 g/m*3 25.8 C 0 km/h
2497 26-05-2008 19:48:01 25.4 C 9.18 g/m*3 25.4 C 0 km/h
2498 26-05-2008 20:00:01 24.7 C 9.28 g/m*3 24.7 C 0 km/h
2499 26-05-2008 20:12:02 24.1 C 9.85 g/m*3 24.1 C 0 km/h
2500 26-05-2008 20:24:02 23.7 C 10.27 g/m*3 23.7 C 0 km/h
Sensor: Nr:Datum:Temp:Abs-Feuchte:Windchill:Wind:
Aussen-T/F 2501 26-05-2008 20:36:01 23.5 C 10.36 g/m*3 23.5 C 0 km/h
2502 26-05-2008 20:48:01 23.1 C 10.34 g/m*3 23.1 C 0 km/h
2503 26-05-2008 21:00:01 22.7 C 10.51 g/m*3 22.7 C 0 km/h
2504 26-05-2008 21:12:02 22.5 C 10.39 g/m*3 22.5 C 0 km/h
2505 26-05-2008 21:24:02 22.3 C 10.47 g/m*3 22.3 C 0 km/h
2506 26-05-2008 21:36:01 22.1 C 10.54 g/m*3 22.1 C 0 km/h
2507 26-05-2008 21:48:01 21.4 C 10.69 g/m*3 21.4 C 0 km/h
2508 26-05-2008 22:00:01 21.1 C 10.69 g/m*3 21.1 C 0 km/h
2509 26-05-2008 22:13:03 20.9 C 10.75 g/m*3 20.9 C 0 km/h
2510 26-05-2008 22:25:03 20.9 C 10.75 g/m*3 20.9 C 0 km/h
2511 26-05-2008 22:37:03 21 C 10.62 g/m*3 21 C 0 km/h
2512 26-05-2008 22:49:04 20.8 C 10.68 g/m*3 20.8 C 0 km/h
2513 26-05-2008 23:01:04 20.6 C 10.74 g/m*3 20.6 C 0 km/h
2514 26-05-2008 23:13:04 20.2 C 10.49 g/m*3 20.2 C 0 km/h
2515 26-05-2008 23:25:04 19.9 C 10.82 g/m*3 19.9 C 0 km/h
2516 26-05-2008 23:37:04 19.7 C 10.7 g/m*3 19.7 C 0 km/h
2517 26-05-2008 23:49:04 19.6 C 10.64 g/m*3 19.6 C 0 km/h
2518 27-05-2008 00:01:04 19.4 C 10.51 g/m*3 19.4 C 0 km/h
2519 27-05-2008 00:13:04 19.3 C 10.62 g/m*3 19.3 C 0 km/h
2520 27-05-2008 00:25:04 19.4 C 10.68 g/m*3 19.4 C 0 km/h
2521 27-05-2008 00:37:04 19.3 C 10.62 g/m*3 19.3 C 0 km/h
2522 27-05-2008 00:49:04 19.1 C 10.49 g/m*3 19.1 C 0 km/h
2523 27-05-2008 01:01:04 19 C 10.59 g/m*3 19 C 0 km/h
2524 27-05-2008 01:13:04 18.9 C 10.69 g/m*3 18.9 C 0 km/h
2525 27-05-2008 01:25:04 18.8 C 10.79 g/m*3 18.8 C 0 km/h
Sensor: Nr:Datum:Temp:Abs-Feuchte:Windchill:Wind:
Aussen-T/F 2526 27-05-2008 01:37:04 18.7 C 10.73 g/m*3 18.7 C 0 km/h
2527 27-05-2008 01:49:04 18.7 C 10.89 g/m*3 18.7 C 0 km/h
2528 27-05-2008 02:01:04 18.7 C 10.89 g/m*3 18.7 C 0 km/h
2529 27-05-2008 02:13:04 18.6 C 10.82 g/m*3 18.6 C 0 km/h
2530 27-05-2008 02:25:04 18.6 C 10.98 g/m*3 18.6 C 0 km/h
2531 27-05-2008 02:37:04 18.3 C 11.26 g/m*3 18.3 C 0 km/h
2532 27-05-2008 02:49:05 17.8 C 11.38 g/m*3 17.8 C 0 km/h
2533 27-05-2008 03:01:05 17.7 C 11.62 g/m*3 17.7 C 0 km/h
2534 27-05-2008 03:13:05 17.7 C 11.77 g/m*3 17.7 C 0 km/h
2535 27-05-2008 03:25:05 17.7 C 11.77 g/m*3 17.7 C 0 km/h
2536 27-05-2008 03:37:05 17.5 C 11.63 g/m*3 17.5 C 0 km/h
2537 27-05-2008 03:49:05 17.5 C 11.63 g/m*3 17.5 C 0 km/h
2538 27-05-2008 04:01:05 17.3 C 11.79 g/m*3 17.3 C 0 km/h
2539 27-05-2008 04:13:05 17.1 C 11.94 g/m*3 17.1 C 0 km/h
2540 27-05-2008 04:25:05 17 C 11.87 g/m*3 17 C 0 km/h
2541 27-05-2008 04:37:05 17.1 C 12.08 g/m*3 17.1 C 0 km/h
2542 27-05-2008 04:49:05 17.1 C 12.08 g/m*3 17.1 C 0 km/h
2543 27-05-2008 05:01:05 17.2 C 12.15 g/m*3 17.2 C 0 km/h
2544 27-05-2008 05:13:05 17.1 C 11.94 g/m*3 17.1 C 0 km/h
2545 27-05-2008 05:25:05 16.8 C 12.01 g/m*3 16.8 C 0 km/h
2546 27-05-2008 05:37:05 16.6 C 12.15 g/m*3 16.6 C 0 km/h
2547 27-05-2008 05:49:05 16.5 C 12.36 g/m*3 16.5 C 0 km/h
2548 27-05-2008 06:01:05 16.4 C 12.42 g/m*3 16.4 C 0 km/h
2549 27-05-2008 06:13:05 16.5 C 12.64 g/m*3 16.5 C 0 km/h
2550 27-05-2008 06:25:05 16.4 C 12.7 g/m*3 16.4 C 0 km/h
Sensor: Nr:Datum:Temp:Abs-Feuchte:Windchill:Wind:
Aussen-T/F 2551 27-05-2008 06:37:05 16.3 C 12.62 g/m*3 16.3 C 0 km/h
2552 27-05-2008 06:49:02 16.2 C 12.69 g/m*3 16.2 C 0 km/h
2553 27-05-2008 07:01:01 16.4 C 12.84 g/m*3 16.4 C 0 km/h
2554 27-05-2008 07:13:01 16.6 C 13 g/m*3 16.6 C 0 km/h
2555 27-05-2008 07:25:01 16.6 C 13 g/m*3 16.6 C 0 km/h
2556 27-05-2008 07:37:02 16.7 C 13.22 g/m*3 16.7 C 0 km/h
2557 27-05-2008 07:49:02 17 C 13.31 g/m*3 17 C 0 km/h
2558 27-05-2008 08:01:02 17.4 C 13.63 g/m*3 17.4 C 0 km/h
2559 27-05-2008 08:13:02 17.6 C 13.95 g/m*3 17.6 C 0 km/h
2560 27-05-2008 08:25:01 17.8 C 13.96 g/m*3 17.8 C 0 km/h
2561 27-05-2008 08:37:02 18.3 C 14.23 g/m*3 18.3 C 0 km/h
2562 27-05-2008 08:49:01 18.3 C 13.92 g/m*3 18.3 C 0 km/h
2563 27-05-2008 09:01:02 18.9 C 14.09 g/m*3 18.9 C 0 km/h
2564 27-05-2008 09:13:02 19.4 C 13.51 g/m*3 19.4 C 0 km/h
2565 27-05-2008 09:25:02 19.9 C 13.57 g/m*3 19.9 C 0 km/h
2566 27-05-2008 09:37:01 20.6 C 13.42 g/m*3 20.6 C 0 km/h
2567 27-05-2008 09:49:01 21 C 12.64 g/m*3 21 C 0 km/h
2568 27-05-2008 10:01:02 21.4 C 12.94 g/m*3 21.4 C 0 km/h
2569 27-05-2008 10:13:02 21.9 C 12.54 g/m*3 21.9 C 0 km/h
2570 27-05-2008 10:25:01 21.7 C 12.21 g/m*3 21.7 C 0 km/h
2571 27-05-2008 10:37:01 22 C 12.42 g/m*3 22 C 0 km/h
2572 27-05-2008 10:49:01 21.9 C 12.16 g/m*3 21.9 C 0 km/h
2573 27-05-2008 11:01:01 22.3 C 11.85 g/m*3 22.3 C 0 km/h
2574 27-05-2008 11:13:02 23.2 C 12.27 g/m*3 23.2 C 0 km/h
2575 27-05-2008 11:25:01 24.2 C 12.54 g/m*3 24.2 C 0 km/h
Sensor: Nr:Datum:Temp:Abs-Feuchte:Windchill:Wind:
Aussen-T/F 2576 27-05-2008 11:37:02 25.2 C 11.87 g/m*3 25.2 C 0 km/h
2577 27-05-2008 11:49:03 25.4 C 11.77 g/m*3 25.4 C 0 km/h
2578 27-05-2008 12:01:02 25.2 C 11.41 g/m*3 25.2 C 0 km/h
2579 27-05-2008 12:13:02 25.1 C 11.81 g/m*3 25.1 C 0 km/h
2580 27-05-2008 12:25:02 25.7 C 11.97 g/m*3 25.7 C 0 km/h
2581 27-05-2008 12:37:01 25.8 C 11.8 g/m*3 25.8 C 0 km/h
2582 27-05-2008 12:49:02 26.5 C 11.26 g/m*3 26.5 C 0 km/h
2583 27-05-2008 13:01:02 25.7 C 11.49 g/m*3 25.7 C 0 km/h
2584 27-05-2008 13:13:03 24.5 C 11.86 g/m*3 24.5 C 0 km/h
2585 27-05-2008 13:25:02 24.3 C 12.39 g/m*3 24.3 C 0 km/h
2586 27-05-2008 13:37:02 24.6 C 12.15 g/m*3 24.6 C 0 km/h
2587 27-05-2008 13:49:02 24.9 C 11.67 g/m*3 24.9 C 0 km/h
2588 27-05-2008 14:01:01 25.2 C 11.41 g/m*3 25.2 C 0 km/h
2589 27-05-2008 14:13:01 25.6 C 11.9 g/m*3 25.6 C 0 km/h
2590 27-05-2008 14:25:01 26.3 C 12.38 g/m*3 26.3 C 0 km/h
2591 27-05-2008 14:37:02 26.6 C 11.58 g/m*3 26.6 C 0 km/h
2592 27-05-2008 14:49:02 26.8 C 11.96 g/m*3 26.8 C 0 km/h
2593 27-05-2008 15:01:02 27.1 C 11.13 g/m*3 27.1 C 0 km/h
2594 27-05-2008 15:13:02 27.2 C 10.93 g/m*3 27.2 C 0 km/h
2595 27-05-2008 15:25:02 27.4 C 11.05 g/m*3 27.4 C 0 km/h
2596 27-05-2008 15:37:02 27.1 C 11.39 g/m*3 27.1 C 0 km/h
2597 27-05-2008 15:49:02 26.1 C 12 g/m*3 26.1 C 0 km/h
2598 27-05-2008 16:01:01 26 C 11.93 g/m*3 26 C 0 km/h
2599 27-05-2008 16:13:01 26.7 C 11.64 g/m*3 26.7 C 0 km/h
2600 27-05-2008 16:25:01 27.4 C 11.58 g/m*3 27.4 C 0 km/h
Sensor: Nr:Datum:Temp:Abs-Feuchte:Windchill:Wind:
Aussen-T/F 2601 27-05-2008 16:37:02 27.3 C 11.25 g/m*3 27.3 C 0 km/h
2602 27-05-2008 16:49:02 28.6 C 11.24 g/m*3 28.6 C 0 km/h
2603 27-05-2008 17:01:02 30 C 10.92 g/m*3 30 C 0 km/h
2604 27-05-2008 17:13:02 30 C 10.61 g/m*3 30 C 0 km/h
2605 27-05-2008 17:25:01 29.9 C 10.86 g/m*3 29.9 C 0 km/h
2606 27-05-2008 17:37:02 29.5 C 10.92 g/m*3 29.5 C 0 km/h
2607 27-05-2008 17:49:02 29.2 C 11.03 g/m*3 29.2 C 0 km/h
2608 27-05-2008 18:01:01 29.1 C 10.97 g/m*3 29.1 C 0 km/h
2609 27-05-2008 18:13:01 28.8 C 11.36 g/m*3 28.8 C 0 km/h
2610 27-05-2008 18:25:02 28.3 C 11.61 g/m*3 28.3 C 0 km/h
2611 27-05-2008 18:37:01 28.4 C 11.4 g/m*3 28.4 C 0 km/h
2612 27-05-2008 18:49:02 28.3 C 11.89 g/m*3 28.3 C 0 km/h
2613 27-05-2008 19:01:01 27.7 C 12.57 g/m*3 27.7 C 0 km/h
2614 27-05-2008 19:13:01 27.1 C 12.16 g/m*3 27.1 C 0 km/h
2615 27-05-2008 19:25:02 26.2 C 11.57 g/m*3 26.2 C 0 km/h
2616 27-05-2008 19:37:02 25.6 C 11.67 g/m*3 25.6 C 0 km/h
2617 27-05-2008 19:49:02 25.5 C 12.07 g/m*3 25.5 C 0 km/h
2618 27-05-2008 20:01:02 24.8 C 12.52 g/m*3 24.8 C 0 km/h
2619 27-05-2008 20:13:02 24.5 C 12.53 g/m*3 24.5 C 0 km/h
2620 27-05-2008 20:25:02 24.3 C 12.39 g/m*3 24.3 C 0 km/h
2621 27-05-2008 20:37:02 24.1 C 12.25 g/m*3 24.1 C 0 km/h
2622 27-05-2008 20:49:01 23.8 C 12.26 g/m*3 23.8 C 0 km/h
2623 27-05-2008 21:01:01 23.5 C 12.27 g/m*3 23.5 C 0 km/h
2624 27-05-2008 21:13:01 23.3 C 11.92 g/m*3 23.3 C 0 km/h
2625 27-05-2008 21:25:02 23.1 C 11.37 g/m*3 23.1 C 0 km/h
Sensor: Nr:Datum:Temp:Abs-Feuchte:Windchill:Wind:
Aussen-T/F 2626 27-05-2008 21:37:01 22.9 C 11.44 g/m*3 22.9 C 0 km/h
2627 27-05-2008 21:49:01 22.9 C 11.24 g/m*3 22.9 C 0 km/h
2628 27-05-2008 22:02:03 22.8 C 10.97 g/m*3 22.8 C 0 km/h
2629 27-05-2008 22:14:03 22.8 C 10.97 g/m*3 22.8 C 0 km/h
2630 27-05-2008 22:26:03 22.8 C 10.77 g/m*3 22.8 C 0 km/h
2631 27-05-2008 22:38:03 22.6 C 10.65 g/m*3 22.6 C 0 km/h
2632 27-05-2008 22:50:03 22.3 C 10.47 g/m*3 22.3 C 0 km/h
2633 27-05-2008 23:02:03 22.2 C 10.6 g/m*3 22.2 C 0 km/h
2634 27-05-2008 23:14:03 21.9 C 10.61 g/m*3 21.9 C 0 km/h
2635 27-05-2008 23:26:03 21.8 C 10.55 g/m*3 21.8 C 0 km/h
2636 27-05-2008 23:38:03 21.5 C 10.56 g/m*3 21.5 C 0 km/h
2637 27-05-2008 23:50:03 21.4 C 10.5 g/m*3 21.4 C 0 km/h
2638 28-05-2008 00:02:03 21.2 C 10.56 g/m*3 21.2 C 0 km/h
2639 28-05-2008 00:14:04 21.1 C 10.69 g/m*3 21.1 C 0 km/h
2640 28-05-2008 00:26:04 20.9 C 10.75 g/m*3 20.9 C 0 km/h
2641 28-05-2008 00:38:04 20.8 C 10.5 g/m*3 20.8 C 0 km/h
2642 28-05-2008 00:50:04 20.7 C 10.62 g/m*3 20.7 C 0 km/h
2643 28-05-2008 01:02:04 20.4 C 10.79 g/m*3 20.4 C 0 km/h
2644 28-05-2008 01:14:04 20.2 C 10.67 g/m*3 20.2 C 0 km/h
2645 28-05-2008 01:26:04 20.2 C 10.67 g/m*3 20.2 C 0 km/h
2646 28-05-2008 01:38:04 20.1 C 10.43 g/m*3 20.1 C 0 km/h
2647 28-05-2008 01:50:04 19.8 C 10.59 g/m*3 19.8 C 0 km/h
2648 28-05-2008 02:02:04 20 C 10.37 g/m*3 20 C 0 km/h
2649 28-05-2008 02:14:04 20 C 10.2 g/m*3 20 C 0 km/h
2650 28-05-2008 02:26:04 20 C 10.2 g/m*3 20 C 0 km/h
Sensor: Nr:Datum:Temp:Abs-Feuchte:Windchill:Wind:
Aussen-T/F 2651 28-05-2008 02:38:04 20 C 10.2 g/m*3 20 C 0 km/h
2652 28-05-2008 02:50:04 19.9 C 10.31 g/m*3 19.9 C 0 km/h
2653 28-05-2008 03:02:04 19.9 C 10.31 g/m*3 19.9 C 0 km/h
2654 28-05-2008 03:14:04 19.9 C 10.48 g/m*3 19.9 C 0 km/h
2655 28-05-2008 03:26:04 19.7 C 10.36 g/m*3 19.7 C 0 km/h
2656 28-05-2008 03:38:04 19.7 C 10.36 g/m*3 19.7 C 0 km/h
2657 28-05-2008 03:50:04 19.7 C 10.53 g/m*3 19.7 C 0 km/h
2658 28-05-2008 04:02:04 19.6 C 10.47 g/m*3 19.6 C 0 km/h
2659 28-05-2008 04:14:04 19.4 C 10.51 g/m*3 19.4 C 0 km/h
2660 28-05-2008 04:26:05 19.5 C 10.74 g/m*3 19.5 C 0 km/h
2661 28-05-2008 04:38:05 19.2 C 10.72 g/m*3 19.2 C 0 km/h
2662 28-05-2008 04:50:05 19.1 C 10.66 g/m*3 19.1 C 0 km/h
2663 28-05-2008 05:02:05 19.2 C 10.55 g/m*3 19.2 C 0 km/h
2664 28-05-2008 05:14:05 19.2 C 10.72 g/m*3 19.2 C 0 km/h
2665 28-05-2008 05:26:05 19 C 10.92 g/m*3 19 C 0 km/h
2666 28-05-2008 05:38:05 18.9 C 11.02 g/m*3 18.9 C 0 km/h
2667 28-05-2008 05:50:05 18.9 C 10.85 g/m*3 18.9 C 0 km/h
2668 28-05-2008 06:02:05 18.6 C 10.98 g/m*3 18.6 C 0 km/h
2669 28-05-2008 06:14:05 18.5 C 10.92 g/m*3 18.5 C 0 km/h
2670 28-05-2008 06:26:05 18.7 C 11.21 g/m*3 18.7 C 0 km/h
2671 28-05-2008 06:38:05 18.9 C 11.18 g/m*3 18.9 C 0 km/h
2672 28-05-2008 06:50:05 19.1 C 11.31 g/m*3 19.1 C 0 km/h
2673 28-05-2008 07:02:02 19.1 C 11.31 g/m*3 19.1 C 0 km/h
2674 28-05-2008 07:14:02 19.2 C 11.54 g/m*3 19.2 C 0 km/h
2675 28-05-2008 07:26:02 19.3 C 11.61 g/m*3 19.3 C 0 km/h
Sensor: Nr:Datum:Temp:Abs-Feuchte:Windchill:Wind:
Aussen-T/F 2676 28-05-2008 07:38:02 19.5 C 11.58 g/m*3 19.5 C 0 km/h
2677 28-05-2008 07:50:02 19.6 C 11.99 g/m*3 19.6 C 0 km/h
2678 28-05-2008 08:02:02 20 C 12.1 g/m*3 20 C 0 km/h
2679 28-05-2008 08:14:02 20.8 C 11.77 g/m*3 20.8 C 0 km/h
2680 28-05-2008 08:26:01 20.8 C 11.59 g/m*3 20.8 C 0 km/h
2681 28-05-2008 08:38:02 21 C 11.36 g/m*3 21 C 0 km/h
2682 28-05-2008 08:50:02 21.4 C 11.62 g/m*3 21.4 C 0 km/h
2683 28-05-2008 09:02:02 22.1 C 11.52 g/m*3 22.1 C 0 km/h
2684 28-05-2008 09:14:02 22.3 C 11.45 g/m*3 22.3 C 0 km/h
2685 28-05-2008 09:26:02 22.8 C 12.19 g/m*3 22.8 C 0 km/h
2686 28-05-2008 09:38:02 23.4 C 11.99 g/m*3 23.4 C 0 km/h
2687 28-05-2008 09:50:02 23.8 C 11.83 g/m*3 23.8 C 0 km/h
2688 28-05-2008 10:02:02 23.7 C 12.19 g/m*3 23.7 C 0 km/h
2689 28-05-2008 10:14:02 24.2 C 12.32 g/m*3 24.2 C 0 km/h
2690 28-05-2008 10:26:02 24.6 C 11.48 g/m*3 24.6 C 0 km/h
2691 28-05-2008 10:38:02 25.1 C 11.81 g/m*3 25.1 C 0 km/h
2692 28-05-2008 10:50:01 26 C 11.2 g/m*3 26 C 0 km/h
2693 28-05-2008 11:02:01 26.8 C 10.44 g/m*3 26.8 C 0 km/h
2694 28-05-2008 11:14:01 26.9 C 11.01 g/m*3 26.9 C 0 km/h
2695 28-05-2008 11:26:01 27.4 C 10.52 g/m*3 27.4 C 0 km/h
2696 28-05-2008 11:38:02 27.6 C 9.31 g/m*3 27.6 C 0 km/h
2697 28-05-2008 11:50:02 27.8 C 9.15 g/m*3 27.8 C 0 km/h
2698 28-05-2008 12:02:02 27.8 C 9.41 g/m*3 27.8 C 0 km/h
2699 28-05-2008 12:14:02 28.4 C 9.17 g/m*3 28.4 C 0 km/h
2700 28-05-2008 12:26:02 28.7 C 9.04 g/m*3 28.7 C 0 km/h
Sensor: Nr:Datum:Temp:Abs-Feuchte:Windchill:Wind:
Aussen-T/F 2701 28-05-2008 12:38:02 29.3 C 9.63 g/m*3 29.3 C 0 km/h
2702 28-05-2008 12:50:02 27.9 C 8.38 g/m*3 27.9 C 0 km/h
2703 28-05-2008 13:02:02 28.5 C 8.38 g/m*3 28.5 C 0 km/h
2704 28-05-2008 13:14:02 29.3 C 7.59 g/m*3 29.3 C 0 km/h
2705 28-05-2008 13:26:01 29.2 C 6.97 g/m*3 29.2 C 0 km/h
2706 28-05-2008 13:38:02 28.5 C 6.99 g/m*3 28.5 C 0 km/h
2707 28-05-2008 13:50:03 28.1 C 7.38 g/m*3 28.1 C 0 km/h
2708 28-05-2008 14:02:03 28.6 C 7.59 g/m*3 28.6 C 0 km/h
2709 28-05-2008 14:14:03 28.2 C 7.15 g/m*3 28.2 C 0 km/h
2710 28-05-2008 14:26:02 27.5 C 7.67 g/m*3 27.5 C 0 km/h
2711 28-05-2008 14:38:02 27.6 C 7.98 g/m*3 27.6 C 0 km/h
2712 28-05-2008 14:50:02 27 C 7.72 g/m*3 27 C 0 km/h
2713 28-05-2008 15:02:03 27.2 C 7.55 g/m*3 27.2 C 0 km/h
2714 28-05-2008 15:14:03 26.8 C 7.64 g/m*3 26.8 C 0 km/h
2715 28-05-2008 15:26:02 26.9 C 8.19 g/m*3 26.9 C 0 km/h
2716 28-05-2008 15:38:02 27.4 C 7.63 g/m*3 27.4 C 0 km/h
2717 28-05-2008 15:50:01 28 C 7.89 g/m*3 28 C 0 km/h
2718 28-05-2008 16:02:02 27.9 C 7.3 g/m*3 27.9 C 0 km/h
2719 28-05-2008 16:14:02 27.7 C 7.76 g/m*3 27.7 C 0 km/h
2720 28-05-2008 16:26:02 28.1 C 7.38 g/m*3 28.1 C 0 km/h
2721 28-05-2008 16:38:01 28 C 7.34 g/m*3 28 C 0 km/h
2722 28-05-2008 16:50:02 28.2 C 7.7 g/m*3 28.2 C 0 km/h
2723 28-05-2008 17:02:01 28.2 C 7.7 g/m*3 28.2 C 0 km/h
2724 28-05-2008 17:14:01 28.2 C 7.97 g/m*3 28.2 C 0 km/h
2725 28-05-2008 17:26:02 28.5 C 7.83 g/m*3 28.5 C 0 km/h
Sensor: Nr:Datum:Temp:Abs-Feuchte:Windchill:Wind:
Aussen-T/F 2726 28-05-2008 17:38:02 28.2 C 7.97 g/m*3 28.2 C 0 km/h
2727 28-05-2008 17:50:03 28.5 C 7.83 g/m*3 28.5 C 0 km/h
2728 28-05-2008 18:02:02 28.6 C 7.87 g/m*3 28.6 C 0 km/h
2729 28-05-2008 18:14:02 29.2 C 8.13 g/m*3 29.2 C 0 km/h
2730 28-05-2008 18:26:02 28.8 C 7.96 g/m*3 28.8 C 0 km/h
2731 28-05-2008 18:38:03 28.9 C 8 g/m*3 28.9 C 0 km/h
2732 28-05-2008 18:50:02 28.7 C 8.19 g/m*3 28.7 C 0 km/h
2733 28-05-2008 19:02:02 28.7 C 8.48 g/m*3 28.7 C 0 km/h
2734 28-05-2008 19:14:03 28.3 C 8.29 g/m*3 28.3 C 0 km/h
2735 28-05-2008 19:26:02 27.5 C 8.2 g/m*3 27.5 C 0 km/h
2736 28-05-2008 19:38:02 27.2 C 8.33 g/m*3 27.2 C 0 km/h
2737 28-05-2008 19:50:02 26.9 C 8.7 g/m*3 26.9 C 0 km/h
2738 28-05-2008 20:02:03 27 C 9.01 g/m*3 27 C 0 km/h
2739 28-05-2008 20:14:03 26.7 C 9.11 g/m*3 26.7 C 0 km/h
2740 28-05-2008 20:26:02 26.1 C 9.3 g/m*3 26.1 C 0 km/h
2741 28-05-2008 20:38:02 25.6 C 9.28 g/m*3 25.6 C 0 km/h
2742 28-05-2008 20:50:02 25 C 9.21 g/m*3 25 C 0 km/h
2743 28-05-2008 21:02:02 24.4 C 9.35 g/m*3 24.4 C 0 km/h
2744 28-05-2008 21:14:02 24.1 C 9.41 g/m*3 24.1 C 0 km/h
2745 28-05-2008 21:26:02 23.4 C 9.46 g/m*3 23.4 C 0 km/h
2746 28-05-2008 21:38:02 23 C 9.45 g/m*3 23 C 0 km/h
2747 28-05-2008 21:50:02 22.6 C 9.84 g/m*3 22.6 C 0 km/h
2748 28-05-2008 22:02:03 22.4 C 9.73 g/m*3 22.4 C 0 km/h
2749 28-05-2008 22:14:03 22.4 C 9.73 g/m*3 22.4 C 0 km/h
2750 28-05-2008 22:27:01 22.2 C 9.62 g/m*3 22.2 C 0 km/h
Sensor: Nr:Datum:Temp:Abs-Feuchte:Windchill:Wind:
Aussen-T/F 2751 28-05-2008 22:39:01 22 C 9.7 g/m*3 22 C 0 km/h
2752 28-05-2008 22:51:01 21.8 C 9.78 g/m*3 21.8 C 0 km/h
2753 28-05-2008 23:03:01 21.7 C 9.92 g/m*3 21.7 C 0 km/h
2754 28-05-2008 23:15:01 21.5 C 9.81 g/m*3 21.5 C 0 km/h
2755 28-05-2008 23:27:01 21.1 C 9.95 g/m*3 21.1 C 0 km/h
2756 28-05-2008 23:39:01 21 C 10.26 g/m*3 21 C 0 km/h
2757 28-05-2008 23:51:01 20.9 C 10.38 g/m*3 20.9 C 0 km/h
2758 29-05-2008 00:03:01 20.8 C 10.32 g/m*3 20.8 C 0 km/h
2759 29-05-2008 00:15:01 20.7 C 10.44 g/m*3 20.7 C 0 km/h
2760 29-05-2008 00:27:01 20.7 C 10.62 g/m*3 20.7 C 0 km/h
2761 29-05-2008 00:39:01 20.7 C 10.62 g/m*3 20.7 C 0 km/h
2762 29-05-2008 00:51:02 20.4 C 10.44 g/m*3 20.4 C 0 km/h
2763 29-05-2008 01:03:02 20.3 C 10.55 g/m*3 20.3 C 0 km/h
2764 29-05-2008 01:15:02 20.1 C 10.43 g/m*3 20.1 C 0 km/h
2765 29-05-2008 01:27:02 19.7 C 10.7 g/m*3 19.7 C 0 km/h
2766 29-05-2008 01:39:02 19.5 C 10.74 g/m*3 19.5 C 0 km/h
2767 29-05-2008 01:51:02 19.4 C 10.68 g/m*3 19.4 C 0 km/h
2768 29-05-2008 02:03:02 19.3 C 10.62 g/m*3 19.3 C 0 km/h
2769 29-05-2008 02:15:02 19.2 C 10.72 g/m*3 19.2 C 0 km/h
2770 29-05-2008 02:27:02 19 C 10.76 g/m*3 19 C 0 km/h
2771 29-05-2008 02:39:02 18.8 C 10.95 g/m*3 18.8 C 0 km/h
2772 29-05-2008 02:51:02 18.3 C 10.79 g/m*3 18.3 C 0 km/h
2773 29-05-2008 03:03:02 18.3 C 10.94 g/m*3 18.3 C 0 km/h
2774 29-05-2008 03:15:02 18.3 C 11.1 g/m*3 18.3 C 0 km/h
2775 29-05-2008 03:27:02 18.2 C 11.19 g/m*3 18.2 C 0 km/h
Sensor: Nr:Datum:Temp:Abs-Feuchte:Windchill:Wind:
Aussen-T/F 2776 29-05-2008 03:39:02 18.4 C 11.17 g/m*3 18.4 C 0 km/h
2777 29-05-2008 03:51:02 18.5 C 11.23 g/m*3 18.5 C 0 km/h
2778 29-05-2008 04:03:02 18.6 C 11.14 g/m*3 18.6 C 0 km/h
2779 29-05-2008 04:15:02 18.5 C 11.08 g/m*3 18.5 C 0 km/h
2780 29-05-2008 04:27:02 18.5 C 11.23 g/m*3 18.5 C 0 km/h
2781 29-05-2008 04:39:02 18.3 C 11.26 g/m*3 18.3 C 0 km/h
2782 29-05-2008 04:51:03 18.1 C 11.12 g/m*3 18.1 C 0 km/h
2783 29-05-2008 05:03:03 18.2 C 11.35 g/m*3 18.2 C 0 km/h
2784 29-05-2008 05:15:03 18 C 11.21 g/m*3 18 C 0 km/h
2785 29-05-2008 05:27:03 17.9 C 11.45 g/m*3 17.9 C 0 km/h
2786 29-05-2008 05:39:03 17.7 C 11.47 g/m*3 17.7 C 0 km/h
2787 29-05-2008 05:51:03 17.7 C 11.32 g/m*3 17.7 C 0 km/h
2788 29-05-2008 06:03:03 18 C 11.52 g/m*3 18 C 0 km/h
2789 29-05-2008 06:15:03 18.1 C 11.43 g/m*3 18.1 C 0 km/h
2790 29-05-2008 06:27:03 18.2 C 11.5 g/m*3 18.2 C 0 km/h
2791 29-05-2008 06:39:03 18.4 C 11.48 g/m*3 18.4 C 0 km/h
2792 29-05-2008 06:51:03 18.7 C 11.69 g/m*3 18.7 C 0 km/h
2793 29-05-2008 07:03:02 19 C 11.57 g/m*3 19 C 0 km/h
2794 29-05-2008 07:15:01 19.3 C 11.44 g/m*3 19.3 C 0 km/h
2795 29-05-2008 07:27:01 19.4 C 11.51 g/m*3 19.4 C 0 km/h
2796 29-05-2008 07:39:01 19.7 C 11.55 g/m*3 19.7 C 0 km/h
2797 29-05-2008 07:51:02 20 C 11.23 g/m*3 20 C 0 km/h
2798 29-05-2008 08:03:03 20.3 C 11.43 g/m*3 20.3 C 0 km/h
2799 29-05-2008 08:15:02 20.7 C 11.52 g/m*3 20.7 C 0 km/h
2800 29-05-2008 08:27:02 21.1 C 11.24 g/m*3 21.1 C 0 km/h
Sensor: Nr:Datum:Temp:Abs-Feuchte:Windchill:Wind:
Aussen-T/F 2801 29-05-2008 08:39:02 21.1 C 11.24 g/m*3 21.1 C 0 km/h
2802 29-05-2008 08:51:02 21.8 C 11.51 g/m*3 21.8 C 0 km/h
2803 29-05-2008 09:03:01 22.5 C 11.39 g/m*3 22.5 C 0 km/h
2804 29-05-2008 09:15:02 22.6 C 11.05 g/m*3 22.6 C 0 km/h
2805 29-05-2008 09:27:02 22.8 C 11.38 g/m*3 22.8 C 0 km/h
2806 29-05-2008 09:39:02 23 C 11.3 g/m*3 23 C 0 km/h
2807 29-05-2008 09:51:02 23.2 C 11.43 g/m*3 23.2 C 0 km/h
2808 29-05-2008 10:03:02 23.8 C 11.4 g/m*3 23.8 C 0 km/h
2809 29-05-2008 10:15:02 24.3 C 10.84 g/m*3 24.3 C 0 km/h
2810 29-05-2008 10:27:02 24.5 C 10.97 g/m*3 24.5 C 0 km/h
2811 29-05-2008 10:39:02 24.7 C 11.09 g/m*3 24.7 C 0 km/h
2812 29-05-2008 10:51:01 24.4 C 11.13 g/m*3 24.4 C 0 km/h
2813 29-05-2008 11:03:01 24.2 C 11 g/m*3 24.2 C 0 km/h
2814 29-05-2008 11:15:02 23.8 C 11.19 g/m*3 23.8 C 0 km/h
2815 29-05-2008 11:27:02 23.3 C 11.5 g/m*3 23.3 C 0 km/h
2816 29-05-2008 11:39:01 23.7 C 11.34 g/m*3 23.7 C 0 km/h
2817 29-05-2008 11:51:02 24.5 C 11.19 g/m*3 24.5 C 0 km/h
2818 29-05-2008 12:03:01 25.4 C 11.06 g/m*3 25.4 C 0 km/h
2819 29-05-2008 12:15:02 25.9 C 10.89 g/m*3 25.9 C 0 km/h
2820 29-05-2008 12:27:02 25.4 C 10.83 g/m*3 25.4 C 0 km/h
2821 29-05-2008 12:39:02 25.9 C 11.14 g/m*3 25.9 C 0 km/h
2822 29-05-2008 12:51:03 25.4 C 10.83 g/m*3 25.4 C 0 km/h
2823 29-05-2008 13:03:02 27.3 C 10.47 g/m*3 27.3 C 0 km/h
2824 29-05-2008 13:15:02 26.2 C 10.34 g/m*3 26.2 C 0 km/h
2825 29-05-2008 13:27:02 26.7 C 10.63 g/m*3 26.7 C 0 km/h
Sensor: Nr:Datum:Temp:Abs-Feuchte:Windchill:Wind:
Aussen-T/F 2826 29-05-2008 13:39:03 26.6 C 10.82 g/m*3 26.6 C 0 km/h
2827 29-05-2008 13:51:02 27.1 C 10.61 g/m*3 27.1 C 0 km/h
2828 29-05-2008 14:03:02 26.7 C 10.38 g/m*3 26.7 C 0 km/h
2829 29-05-2008 14:15:02 26.6 C 10.82 g/m*3 26.6 C 0 km/h
2830 29-05-2008 14:27:02 27.2 C 10.67 g/m*3 27.2 C 0 km/h
2831 29-05-2008 14:39:02 28.2 C 11 g/m*3 28.2 C 0 km/h
2832 29-05-2008 14:51:02 29.3 C 10.8 g/m*3 29.3 C 0 km/h
2833 29-05-2008 15:03:02 29.5 C 10.33 g/m*3 29.5 C 0 km/h
2834 29-05-2008 15:15:02 30 C 10.92 g/m*3 30 C 0 km/h
2835 29-05-2008 15:27:02 30.7 C 10.39 g/m*3 30.7 C 0 km/h
2836 29-05-2008 15:39:02 30.9 C 10.19 g/m*3 30.9 C 0 km/h
2837 29-05-2008 15:51:02 30.8 C 10.45 g/m*3 30.8 C 0 km/h
2838 29-05-2008 16:03:03 30.8 C 10.76 g/m*3 30.8 C 0 km/h
2839 29-05-2008 16:15:02 31.4 C 10.14 g/m*3 31.4 C 0 km/h
2840 29-05-2008 16:27:02 31.4 C 10.14 g/m*3 31.4 C 0 km/h
2841 29-05-2008 16:39:02 31.3 C 10.08 g/m*3 31.3 C 0 km/h
2842 29-05-2008 16:51:02 31.2 C 10.67 g/m*3 31.2 C 0 km/h
2843 29-05-2008 17:03:02 30.4 C 11.47 g/m*3 30.4 C 0 km/h
2844 29-05-2008 17:15:28 29.2 C 12.2 g/m*3 29.2 C 0 km/h
2845 29-05-2008 17:27:28 28 C 12.51 g/m*3 28 C 0 km/h
2846 29-05-2008 17:39:28 27.3 C 12.82 g/m*3 27.3 C 0 km/h
2847 29-05-2008 17:51:28 26.9 C 13.05 g/m*3 26.9 C 0 km/h
2848 29-05-2008 18:03:28 26.2 C 12.8 g/m*3 26.2 C 0 km/h
2849 29-05-2008 18:15:28 26 C 13.15 g/m*3 26 C 0 km/h
2850 29-05-2008 18:27:28 25.7 C 13.41 g/m*3 25.7 C 0 km/h
Sensor: Nr:Datum:Temp:Abs-Feuchte:Windchill:Wind:
Aussen-T/F 2851 29-05-2008 18:39:28 25.4 C 13.18 g/m*3 25.4 C 0 km/h
2852 29-05-2008 18:51:28 25.6 C 13.33 g/m*3 25.6 C 0 km/h
2853 29-05-2008 19:03:28 25.7 C 13.41 g/m*3 25.7 C 0 km/h
2854 29-05-2008 19:15:29 24.5 C 11.19 g/m*3 24.5 C 0 km/h
2855 29-05-2008 19:27:03 24.2 C 11 g/m*3 24.2 C 0 km/h
2856 29-05-2008 19:39:03 24.2 C 11 g/m*3 24.2 C 0 km/h
2857 29-05-2008 19:51:03 24.9 C 11.67 g/m*3 24.9 C 0 km/h
2858 29-05-2008 20:03:02 25.6 C 10.71 g/m*3 25.6 C 0 km/h
2859 29-05-2008 20:15:02 25.5 C 10.89 g/m*3 25.5 C 0 km/h
2860 29-05-2008 20:27:02 24.9 C 10.99 g/m*3 24.9 C 0 km/h
2861 29-05-2008 20:39:03 24.3 C 10.62 g/m*3 24.3 C 0 km/h
2862 29-05-2008 20:51:02 24.1 C 10.72 g/m*3 24.1 C 0 km/h
2863 29-05-2008 21:03:02 23.6 C 10.63 g/m*3 23.6 C 0 km/h
2864 29-05-2008 21:15:02 23.2 C 10.6 g/m*3 23.2 C 0 km/h
2865 29-05-2008 21:27:02 22.7 C 10.71 g/m*3 22.7 C 0 km/h
2866 29-05-2008 21:39:02 22.4 C 10.53 g/m*3 22.4 C 0 km/h
2867 29-05-2008 21:51:02 22.1 C 10.54 g/m*3 22.1 C 0 km/h
2868 29-05-2008 22:03:02 21.9 C 10.61 g/m*3 21.9 C 0 km/h
2869 29-05-2008 22:15:02 21.9 C 10.61 g/m*3 21.9 C 0 km/h
2870 29-05-2008 22:27:02 21.7 C 10.49 g/m*3 21.7 C 0 km/h
2871 29-05-2008 22:39:02 21.4 C 10.87 g/m*3 21.4 C 0 km/h
2872 29-05-2008 22:52:06 21.2 C 10.93 g/m*3 21.2 C 0 km/h
2873 29-05-2008 23:04:06 20.9 C 11.47 g/m*3 20.9 C 0 km/h
2874 29-05-2008 23:16:07 20.7 C 11.52 g/m*3 20.7 C 0 km/h
2875 29-05-2008 23:28:07 20.6 C 11.81 g/m*3 20.6 C 0 km/h
Sensor: Nr:Datum:Temp:Abs-Feuchte:Windchill:Wind:
Aussen-T/F 2876 29-05-2008 23:40:07 20.4 C 11.85 g/m*3 20.4 C 0 km/h
2877 29-05-2008 23:52:07 20.3 C 12.31 g/m*3 20.3 C 0 km/h
2878 30-05-2008 00:04:07 20.1 C 11.99 g/m*3 20.1 C 0 km/h
2879 30-05-2008 00:16:07 20.5 C 13.35 g/m*3 20.5 C 0 km/h
2880 30-05-2008 00:28:07 20.9 C 13.84 g/m*3 20.9 C 0 km/h
2881 30-05-2008 00:40:07 21.3 C 13.98 g/m*3 21.3 C 0 km/h
2882 30-05-2008 00:52:07 21.6 C 14.03 g/m*3 21.6 C 0 km/h
2883 30-05-2008 01:04:07 21.7 C 13.93 g/m*3 21.7 C 0 km/h
2884 30-05-2008 01:16:07 21.6 C 13.85 g/m*3 21.6 C 0 km/h
2885 30-05-2008 01:28:07 21.5 C 13.77 g/m*3 21.5 C 0 km/h
2886 30-05-2008 01:40:07 21.5 C 13.58 g/m*3 21.5 C 0 km/h
2887 30-05-2008 01:52:07 21.5 C 13.39 g/m*3 21.5 C 0 km/h
2888 30-05-2008 02:04:07 21.4 C 13.12 g/m*3 21.4 C 0 km/h
2889 30-05-2008 02:16:07 21.2 C 12.97 g/m*3 21.2 C 0 km/h
2890 30-05-2008 02:28:07 21.2 C 12.97 g/m*3 21.2 C 0 km/h
2891 30-05-2008 02:40:07 21 C 12.82 g/m*3 21 C 0 km/h
2892 30-05-2008 02:52:07 21.1 C 12.9 g/m*3 21.1 C 0 km/h
2893 30-05-2008 03:04:07 21.1 C 12.71 g/m*3 21.1 C 0 km/h
2894 30-05-2008 03:16:08 21 C 12.64 g/m*3 21 C 0 km/h
2895 30-05-2008 03:28:08 20.9 C 12.57 g/m*3 20.9 C 0 km/h
2896 30-05-2008 03:40:08 20.7 C 12.24 g/m*3 20.7 C 0 km/h
2897 30-05-2008 03:52:08 18.4 C 11.8 g/m*3 18.4 C 0 km/h
2898 30-05-2008 04:04:08 17.9 C 12.67 g/m*3 17.9 C 0 km/h
2899 30-05-2008 04:16:08 18.2 C 13.06 g/m*3 18.2 C 0 km/h
2900 30-05-2008 04:28:08 18.5 C 13.29 g/m*3 18.5 C 0 km/h
Sensor: Nr:Datum:Temp:Abs-Feuchte:Windchill:Wind:
Aussen-T/F 2901 30-05-2008 04:40:08 18.6 C 13.21 g/m*3 18.6 C 0 km/h
2902 30-05-2008 04:52:08 18.7 C 13.13 g/m*3 18.7 C 0 km/h
2903 30-05-2008 05:04:08 18.8 C 13.21 g/m*3 18.8 C 0 km/h
2904 30-05-2008 05:16:08 18.7 C 12.97 g/m*3 18.7 C 0 km/h
2905 30-05-2008 05:28:08 18.8 C 13.21 g/m*3 18.8 C 0 km/h
2906 30-05-2008 05:40:08 18.5 C 12.97 g/m*3 18.5 C 0 km/h
2907 30-05-2008 05:52:08 18.2 C 13.21 g/m*3 18.2 C 0 km/h
2908 30-05-2008 06:04:08 18.1 C 13.44 g/m*3 18.1 C 0 km/h
2909 30-05-2008 06:16:08 17.9 C 13.59 g/m*3 17.9 C 0 km/h
2910 30-05-2008 06:28:08 17.9 C 13.59 g/m*3 17.9 C 0 km/h
2911 30-05-2008 06:40:08 17.9 C 13.74 g/m*3 17.9 C 0 km/h
2912 30-05-2008 06:52:08 17.5 C 13.42 g/m*3 17.5 C 0 km/h
2913 30-05-2008 07:04:04 17.5 C 13.72 g/m*3 17.5 C 0 km/h
2914 30-05-2008 07:16:03 17.7 C 13.88 g/m*3 17.7 C 0 km/h
2915 30-05-2008 07:28:03 17.7 C 14.03 g/m*3 17.7 C 0 km/h
2916 30-05-2008 07:40:03 17.5 C 13.72 g/m*3 17.5 C 0 km/h
2917 30-05-2008 07:52:01 17.4 C 13.78 g/m*3 17.4 C 0 km/h
2918 30-05-2008 08:04:02 17.3 C 13.55 g/m*3 17.3 C 0 km/h
2919 30-05-2008 08:16:01 17.3 C 13.41 g/m*3 17.3 C 0 km/h
2920 30-05-2008 08:28:01 17.5 C 13.42 g/m*3 17.5 C 0 km/h
2921 30-05-2008 08:40:02 17.5 C 13.42 g/m*3 17.5 C 0 km/h
2922 30-05-2008 08:52:02 17.5 C 13.42 g/m*3 17.5 C 0 km/h
2923 30-05-2008 09:04:02 17.5 C 13.27 g/m*3 17.5 C 0 km/h
2924 30-05-2008 09:16:02 17.5 C 13.27 g/m*3 17.5 C 0 km/h
2925 30-05-2008 09:28:02 17.7 C 13.28 g/m*3 17.7 C 0 km/h
Sensor: Nr:Datum:Temp:Abs-Feuchte:Windchill:Wind:
Aussen-T/F 2926 30-05-2008 09:40:02 18.2 C 13.52 g/m*3 18.2 C 0 km/h
2927 30-05-2008 09:52:02 18.3 C 13.29 g/m*3 18.3 C 0 km/h
2928 30-05-2008 10:04:03 18.6 C 13.53 g/m*3 18.6 C 0 km/h
2929 30-05-2008 10:16:02 18.9 C 13.77 g/m*3 18.9 C 0 km/h
2930 30-05-2008 10:28:03 19.3 C 13.77 g/m*3 19.3 C 0 km/h
2931 30-05-2008 10:40:02 20 C 14.17 g/m*3 20 C 0 km/h
2932 30-05-2008 10:52:01 20.4 C 13.8 g/m*3 20.4 C 0 km/h
2933 30-05-2008 11:04:01 20.9 C 13.3 g/m*3 20.9 C 0 km/h
2934 30-05-2008 11:16:02 21.2 C 13.34 g/m*3 21.2 C 0 km/h
2935 30-05-2008 11:28:02 20.8 C 13.04 g/m*3 20.8 C 0 km/h
2936 30-05-2008 11:40:01 20.9 C 13.48 g/m*3 20.9 C 0 km/h
2937 30-05-2008 11:52:02 21 C 13.74 g/m*3 21 C 0 km/h
2938 30-05-2008 12:04:01 20.8 C 13.22 g/m*3 20.8 C 0 km/h
2939 30-05-2008 12:16:01 20.5 C 12.63 g/m*3 20.5 C 0 km/h
2940 30-05-2008 12:28:01 20.8 C 13.22 g/m*3 20.8 C 0 km/h
2941 30-05-2008 12:40:02 20.8 C 12.86 g/m*3 20.8 C 0 km/h
2942 30-05-2008 12:52:03 21.2 C 13.16 g/m*3 21.2 C 0 km/h
2943 30-05-2008 13:04:02 21.4 C 12.94 g/m*3 21.4 C 0 km/h
2944 30-05-2008 13:16:02 21.6 C 13.09 g/m*3 21.6 C 0 km/h
2945 30-05-2008 13:28:02 21.6 C 12.71 g/m*3 21.6 C 0 km/h
2946 30-05-2008 13:40:03 21.4 C 12.56 g/m*3 21.4 C 0 km/h
2947 30-05-2008 13:52:02 21.4 C 12.75 g/m*3 21.4 C 0 km/h
2948 30-05-2008 14:04:02 21.5 C 12.63 g/m*3 21.5 C 0 km/h
2949 30-05-2008 14:16:02 21.5 C 12.82 g/m*3 21.5 C 0 km/h
2950 30-05-2008 14:28:02 21.3 C 12.68 g/m*3 21.3 C 0 km/h
Sensor: Nr:Datum:Temp:Abs-Feuchte:Windchill:Wind:
Aussen-T/F 2951 30-05-2008 14:40:02 21.3 C 12.68 g/m*3 21.3 C 0 km/h
2952 30-05-2008 14:52:02 21.6 C 13.09 g/m*3 21.6 C 0 km/h
2953 30-05-2008 15:04:02 22.7 C 12.93 g/m*3 22.7 C 0 km/h
2954 30-05-2008 15:16:02 23.2 C 12.27 g/m*3 23.2 C 0 km/h
2955 30-05-2008 15:28:02 23.3 C 12.34 g/m*3 23.3 C 0 km/h
2956 30-05-2008 15:40:02 23.5 C 12.48 g/m*3 23.5 C 0 km/h
2957 30-05-2008 15:52:01 24.3 C 12.39 g/m*3 24.3 C 0 km/h
2958 30-05-2008 16:04:01 24.5 C 12.31 g/m*3 24.5 C 0 km/h
2959 30-05-2008 16:16:02 24.8 C 12.06 g/m*3 24.8 C 0 km/h
2960 30-05-2008 16:28:02 24.4 C 12.02 g/m*3 24.4 C 0 km/h
2961 30-05-2008 16:40:02 24.3 C 11.73 g/m*3 24.3 C 0 km/h
2962 30-05-2008 16:52:02 24.1 C 11.6 g/m*3 24.1 C 0 km/h
2963 30-05-2008 17:04:02 24.3 C 12.17 g/m*3 24.3 C 0 km/h
2964 30-05-2008 17:16:02 24.3 C 12.17 g/m*3 24.3 C 0 km/h
2965 30-05-2008 17:28:02 24.9 C 11.9 g/m*3 24.9 C 0 km/h
2966 30-05-2008 17:40:02 24.1 C 11.82 g/m*3 24.1 C 0 km/h
2967 30-05-2008 17:52:02 24.5 C 12.09 g/m*3 24.5 C 0 km/h
2968 30-05-2008 18:04:02 25.3 C 11.94 g/m*3 25.3 C 0 km/h
2969 30-05-2008 18:16:02 24.3 C 11.73 g/m*3 24.3 C 0 km/h
2970 30-05-2008 18:28:03 23.7 C 12.19 g/m*3 23.7 C 0 km/h
2971 30-05-2008 18:40:02 23.1 C 11.99 g/m*3 23.1 C 0 km/h
2972 30-05-2008 18:52:02 22.9 C 12.26 g/m*3 22.9 C 0 km/h
2973 30-05-2008 19:04:02 22.7 C 12.32 g/m*3 22.7 C 0 km/h
2974 30-05-2008 19:16:02 22.4 C 12.31 g/m*3 22.4 C 0 km/h
2975 30-05-2008 19:28:02 22.3 C 12.44 g/m*3 22.3 C 0 km/h
Sensor: Nr:Datum:Temp:Abs-Feuchte:Windchill:Wind:
Aussen-T/F 2976 30-05-2008 19:40:01 22.1 C 12.49 g/m*3 22.1 C 0 km/h
2977 30-05-2008 19:52:02 21.9 C 12.74 g/m*3 21.9 C 0 km/h
2978 30-05-2008 20:04:20 21.2 C 13.16 g/m*3 21.2 C 0 km/h
2979 30-05-2008 20:16:20 21 C 13.19 g/m*3 21 C 0 km/h
2980 30-05-2008 20:28:20 20.3 C 13.37 g/m*3 20.3 C 0 km/h
2981 30-05-2008 20:40:20 19.8 C 13.84 g/m*3 19.8 C 0 km/h
2982 30-05-2008 20:52:01 19.3 C 13.93 g/m*3 19.3 C 0 km/h
2983 30-05-2008 21:04:03 19.1 C 14.1 g/m*3 19.1 C 0 km/h
2984 30-05-2008 21:16:03 18.9 C 14.26 g/m*3 18.9 C 0 km/h
2985 30-05-2008 21:28:03 18.7 C 14.25 g/m*3 18.7 C 0 km/h
2986 30-05-2008 21:40:02 18.8 C 14.49 g/m*3 18.8 C 0 km/h
2987 30-05-2008 21:52:02 18.8 C 14.66 g/m*3 18.8 C 0 km/h
2988 30-05-2008 22:04:01 18.4 C 14.31 g/m*3 18.4 C 0 km/h
2989 30-05-2008 22:17:03 17.9 C 13.89 g/m*3 17.9 C 0 km/h
2990 30-05-2008 22:29:03 17.8 C 13.96 g/m*3 17.8 C 0 km/h
2991 30-05-2008 22:41:03 17.6 C 13.8 g/m*3 17.6 C 0 km/h
2992 30-05-2008 22:53:04 17.8 C 14.12 g/m*3 17.8 C 0 km/h
2993 30-05-2008 23:05:04 17.8 C 13.96 g/m*3 17.8 C 0 km/h
2994 30-05-2008 23:17:04 17.6 C 13.8 g/m*3 17.6 C 0 km/h
2995 30-05-2008 23:29:04 17.5 C 13.72 g/m*3 17.5 C 0 km/h
2996 30-05-2008 23:41:04 17.5 C 13.72 g/m*3 17.5 C 0 km/h
2997 30-05-2008 23:53:04 17.5 C 13.72 g/m*3 17.5 C 0 km/h
2998 31-05-2008 00:05:04 17.4 C 13.49 g/m*3 17.4 C 0 km/h
2999 31-05-2008 00:17:04 17.4 C 13.34 g/m*3 17.4 C 0 km/h
3000 31-05-2008 00:29:04 17.5 C 13.27 g/m*3 17.5 C 0 km/h
Sensor: Nr:Datum:Temp:Abs-Feuchte:Windchill:Wind:
Aussen-T/F 3001 31-05-2008 00:41:04 17.5 C 13.27 g/m*3 17.5 C 0 km/h
3002 31-05-2008 00:53:04 17.3 C 12.96 g/m*3 17.3 C 0 km/h
3003 31-05-2008 01:05:04 17.3 C 12.82 g/m*3 17.3 C 0 km/h
3004 31-05-2008 01:17:04 17.1 C 12.52 g/m*3 17.1 C 0 km/h
3005 31-05-2008 01:29:04 17 C 12.44 g/m*3 17 C 0 km/h
3006 31-05-2008 01:41:04 17 C 12.44 g/m*3 17 C 0 km/h
3007 31-05-2008 01:53:04 16.9 C 12.51 g/m*3 16.9 C 0 km/h
3008 31-05-2008 02:05:04 16.8 C 12.58 g/m*3 16.8 C 0 km/h
3009 31-05-2008 02:17:04 16.8 C 12.58 g/m*3 16.8 C 0 km/h
3010 31-05-2008 02:29:04 16.8 C 12.58 g/m*3 16.8 C 0 km/h
3011 31-05-2008 02:41:04 16.8 C 12.44 g/m*3 16.8 C 0 km/h
3012 31-05-2008 02:53:04 16.7 C 12.36 g/m*3 16.7 C 0 km/h
3013 31-05-2008 03:05:05 16.6 C 12.29 g/m*3 16.6 C 0 km/h
3014 31-05-2008 03:17:05 16.7 C 12.51 g/m*3 16.7 C 0 km/h
3015 31-05-2008 03:29:05 16.6 C 12.29 g/m*3 16.6 C 0 km/h
3016 31-05-2008 03:41:05 16.7 C 12.22 g/m*3 16.7 C 0 km/h
3017 31-05-2008 03:53:05 16.7 C 12.22 g/m*3 16.7 C 0 km/h
3018 31-05-2008 04:05:05 16.8 C 12.3 g/m*3 16.8 C 0 km/h
3019 31-05-2008 04:17:05 16.7 C 12.22 g/m*3 16.7 C 0 km/h
3020 31-05-2008 04:29:05 16.6 C 12.15 g/m*3 16.6 C 0 km/h
3021 31-05-2008 04:41:05 16.6 C 12.15 g/m*3 16.6 C 0 km/h
3022 31-05-2008 04:53:05 16.6 C 12.15 g/m*3 16.6 C 0 km/h
3023 31-05-2008 05:05:05 16.5 C 11.94 g/m*3 16.5 C 0 km/h
3024 31-05-2008 05:17:05 16.4 C 11.86 g/m*3 16.4 C 0 km/h
3025 31-05-2008 05:29:05 16.4 C 11.86 g/m*3 16.4 C 0 km/h
Sensor: Nr:Datum:Temp:Abs-Feuchte:Windchill:Wind:
Aussen-T/F 3026 31-05-2008 05:41:05 16.3 C 11.79 g/m*3 16.3 C 0 km/h
3027 31-05-2008 05:53:05 16.1 C 11.65 g/m*3 16.1 C 0 km/h
3028 31-05-2008 06:05:05 16.1 C 11.79 g/m*3 16.1 C 0 km/h
3029 31-05-2008 06:17:05 16.1 C 11.79 g/m*3 16.1 C 0 km/h
3030 31-05-2008 06:29:05 16.2 C 11.86 g/m*3 16.2 C 0 km/h
3031 31-05-2008 06:41:05 16.3 C 11.93 g/m*3 16.3 C 0 km/h
3032 31-05-2008 06:53:05 16.4 C 11.86 g/m*3 16.4 C 0 km/h
3033 31-05-2008 07:05:05 16.1 C 11.65 g/m*3 16.1 C 0 km/h
3034 31-05-2008 07:17:06 16.2 C 11.72 g/m*3 16.2 C 0 km/h
3035 31-05-2008 07:29:06 16.2 C 11.72 g/m*3 16.2 C 0 km/h
3036 31-05-2008 07:41:03 16.2 C 11.58 g/m*3 16.2 C 0 km/h
3037 31-05-2008 07:53:02 16.3 C 11.52 g/m*3 16.3 C 0 km/h
3038 31-05-2008 08:05:02 16.2 C 11.45 g/m*3 16.2 C 0 km/h
3039 31-05-2008 08:17:02 16 C 11.31 g/m*3 16 C 0 km/h
3040 31-05-2008 08:29:02 16 C 11.31 g/m*3 16 C 0 km/h
3041 31-05-2008 08:41:02 15.9 C 11.38 g/m*3 15.9 C 0 km/h
3042 31-05-2008 08:53:02 15.9 C 11.38 g/m*3 15.9 C 0 km/h
3043 31-05-2008 09:05:02 16.1 C 11.38 g/m*3 16.1 C 0 km/h
3044 31-05-2008 09:17:03 16.1 C 11.24 g/m*3 16.1 C 0 km/h
3045 31-05-2008 09:29:03 16.2 C 11.31 g/m*3 16.2 C 0 km/h
3046 31-05-2008 09:41:02 16.2 C 11.17 g/m*3 16.2 C 0 km/h
3047 31-05-2008 09:53:02 16.2 C 11.31 g/m*3 16.2 C 0 km/h
3048 31-05-2008 10:05:02 16.1 C 11.1 g/m*3 16.1 C 0 km/h
3049 31-05-2008 10:17:02 16.3 C 11.24 g/m*3 16.3 C 0 km/h
3050 31-05-2008 10:29:02 16.4 C 11.17 g/m*3 16.4 C 0 km/h
Sensor: Nr:Datum:Temp:Abs-Feuchte:Windchill:Wind:
Aussen-T/F 3051 31-05-2008 10:41:02 16.4 C 11.31 g/m*3 16.4 C 0 km/h
3052 31-05-2008 10:53:02 16.6 C 11.16 g/m*3 16.6 C 0 km/h
3053 31-05-2008 11:05:02 16.9 C 11.22 g/m*3 16.9 C 0 km/h
3054 31-05-2008 11:17:01 16.8 C 11.15 g/m*3 16.8 C 0 km/h
3055 31-05-2008 11:29:01 17 C 11.14 g/m*3 17 C 0 km/h
3056 31-05-2008 11:41:02 17.6 C 11.25 g/m*3 17.6 C 0 km/h
3057 31-05-2008 11:53:02 17.6 C 10.8 g/m*3 17.6 C 0 km/h
3058 31-05-2008 12:05:02 17.9 C 10.99 g/m*3 17.9 C 0 km/h
3059 31-05-2008 12:17:01 17.8 C 10.93 g/m*3 17.8 C 0 km/h
3060 31-05-2008 12:29:01 17.6 C 10.95 g/m*3 17.6 C 0 km/h
3061 31-05-2008 12:41:01 17.7 C 11.16 g/m*3 17.7 C 0 km/h
3062 31-05-2008 12:53:01 17.9 C 10.99 g/m*3 17.9 C 0 km/h
3063 31-05-2008 13:05:02 17.5 C 11.18 g/m*3 17.5 C 0 km/h
3064 31-05-2008 13:17:01 17.1 C 11.5 g/m*3 17.1 C 0 km/h
3065 31-05-2008 13:29:01 16.7 C 11.51 g/m*3 16.7 C 0 km/h
3066 31-05-2008 13:41:01 16.6 C 11.72 g/m*3 16.6 C 0 km/h
3067 31-05-2008 13:53:01 16.3 C 11.65 g/m*3 16.3 C 0 km/h
3068 31-05-2008 14:05:02 16.2 C 11.86 g/m*3 16.2 C 0 km/h
3069 31-05-2008 14:17:01 15.9 C 11.92 g/m*3 15.9 C 0 km/h
3070 31-05-2008 14:29:02 15.7 C 11.91 g/m*3 15.7 C 0 km/h
3071 31-05-2008 14:41:01 15.7 C 12.18 g/m*3 15.7 C 0 km/h
3072 31-05-2008 14:53:01 15.7 C 12.18 g/m*3 15.7 C 0 km/h
3073 31-05-2008 15:05:01 16.4 C 12.7 g/m*3 16.4 C 0 km/h
3074 31-05-2008 15:17:01 17 C 13.17 g/m*3 17 C 0 km/h
3075 31-05-2008 15:29:01 18.3 C 13.76 g/m*3 18.3 C 0 km/h
Sensor: Nr:Datum:Temp:Abs-Feuchte:Windchill:Wind:
Aussen-T/F 3076 31-05-2008 15:41:02 18.7 C 13.77 g/m*3 18.7 C 0 km/h
3077 31-05-2008 15:53:01 19.1 C 12.95 g/m*3 19.1 C 0 km/h
3078 31-05-2008 16:05:02 19.1 C 12.62 g/m*3 19.1 C 0 km/h
3079 31-05-2008 16:17:02 19.5 C 12.75 g/m*3 19.5 C 0 km/h
3080 31-05-2008 16:29:03 20 C 12.79 g/m*3 20 C 0 km/h
3081 31-05-2008 16:41:01 20 C 12.96 g/m*3 20 C 0 km/h
3082 31-05-2008 16:53:01 20.4 C 13.09 g/m*3 20.4 C 0 km/h
3083 31-05-2008 17:05:01 21 C 11.91 g/m*3 21 C 0 km/h
3084 31-05-2008 17:17:02 20.7 C 11.7 g/m*3 20.7 C 0 km/h
3085 31-05-2008 17:29:02 21.4 C 11.81 g/m*3 21.4 C 0 km/h
3086 31-05-2008 17:41:02 21.5 C 12.07 g/m*3 21.5 C 0 km/h
3087 31-05-2008 17:53:02 21.4 C 11.44 g/m*3 21.4 C 0 km/h
3088 31-05-2008 18:05:02 21.5 C 11.13 g/m*3 21.5 C 0 km/h
3089 31-05-2008 18:17:03 22 C 11.26 g/m*3 22 C 0 km/h
3090 31-05-2008 18:29:03 22.5 C 11.78 g/m*3 22.5 C 0 km/h
3091 31-05-2008 18:41:02 23.7 C 11.12 g/m*3 23.7 C 0 km/h
3092 31-05-2008 18:53:02 21.9 C 11.19 g/m*3 21.9 C 0 km/h
3093 31-05-2008 19:05:02 22 C 11.45 g/m*3 22 C 0 km/h
3094 31-05-2008 19:17:02 22.1 C 11.52 g/m*3 22.1 C 0 km/h
3095 31-05-2008 19:29:02 22.1 C 11.32 g/m*3 22.1 C 0 km/h
3096 31-05-2008 19:41:02 21.5 C 11.69 g/m*3 21.5 C 0 km/h
3097 31-05-2008 19:53:02 21.1 C 11.79 g/m*3 21.1 C 0 km/h
3098 31-05-2008 20:05:02 20.9 C 12.2 g/m*3 20.9 C 0 km/h
3099 31-05-2008 20:17:02 20.6 C 12.35 g/m*3 20.6 C 0 km/h
3100 31-05-2008 20:29:02 20.2 C 12.41 g/m*3 20.2 C 0 km/h
Sensor: Nr:Datum:Temp:Abs-Feuchte:Windchill:Wind:
Aussen-T/F 3101 31-05-2008 20:41:02 20.4 C 12.74 g/m*3 20.4 C 0 km/h
3102 31-05-2008 20:53:01 19.9 C 12.37 g/m*3 19.9 C 0 km/h
3103 31-05-2008 21:05:01 19.5 C 12.59 g/m*3 19.5 C 0 km/h
3104 31-05-2008 21:17:02 19.1 C 12.46 g/m*3 19.1 C 0 km/h
3105 31-05-2008 21:29:02 18.6 C 12.57 g/m*3 18.6 C 0 km/h
3106 31-05-2008 21:41:01 18.2 C 12.43 g/m*3 18.2 C 0 km/h
3107 31-05-2008 21:53:01 17.7 C 12.37 g/m*3 17.7 C 0 km/h
3108 31-05-2008 22:05:02 17.5 C 12.37 g/m*3 17.5 C 0 km/h
3109 31-05-2008 22:17:02 17.2 C 12.3 g/m*3 17.2 C 0 km/h
3110 31-05-2008 22:29:02 16.9 C 12.51 g/m*3 16.9 C 0 km/h
3111 31-05-2008 22:41:01 16.6 C 12.43 g/m*3 16.6 C 0 km/h
3112 31-05-2008 22:54:02 16.6 C 12.43 g/m*3 16.6 C 0 km/h
3113 31-05-2008 23:06:02 16.5 C 12.22 g/m*3 16.5 C 0 km/h
3114 31-05-2008 23:18:02 16.2 C 11.72 g/m*3 16.2 C 0 km/h
3115 31-05-2008 23:30:02 16 C 11.44 g/m*3 16 C 0 km/h
3116 31-05-2008 23:42:02 15.9 C 11.51 g/m*3 15.9 C 0 km/h
3117 31-05-2008 23:54:02 15.8 C 11.44 g/m*3 15.8 C 0 km/h
3118 01-06-2008 00:06:02 15.6 C 11.3 g/m*3 15.6 C 0 km/h
3119 01-06-2008 00:18:03 15.5 C 11.37 g/m*3 15.5 C 0 km/h
3120 01-06-2008 00:30:03 15.3 C 11.1 g/m*3 15.3 C 0 km/h
3121 01-06-2008 00:42:03 15 C 11.03 g/m*3 15 C 0 km/h
3122 01-06-2008 00:54:03 14.8 C 11.02 g/m*3 14.8 C 0 km/h
3123 01-06-2008 01:06:03 14.7 C 11.08 g/m*3 14.7 C 0 km/h
3124 01-06-2008 01:18:03 14.6 C 11.01 g/m*3 14.6 C 0 km/h
3125 01-06-2008 01:30:03 14.5 C 10.94 g/m*3 14.5 C 0 km/h
Sensor: Nr:Datum:Temp:Abs-Feuchte:Windchill:Wind:
Aussen-T/F 3126 01-06-2008 01:42:03 14.7 C 11.21 g/m*3 14.7 C 0 km/h
3127 01-06-2008 01:54:03 14.6 C 11.14 g/m*3 14.6 C 0 km/h
3128 01-06-2008 02:06:03 14.6 C 11.14 g/m*3 14.6 C 0 km/h
3129 01-06-2008 02:18:03 14.9 C 11.34 g/m*3 14.9 C 0 km/h
3130 01-06-2008 02:30:03 15.1 C 11.35 g/m*3 15.1 C 0 km/h
3131 01-06-2008 02:42:03 15.3 C 11.49 g/m*3 15.3 C 0 km/h
3132 01-06-2008 02:54:03 15.4 C 11.56 g/m*3 15.4 C 0 km/h
3133 01-06-2008 03:06:03 15.4 C 11.56 g/m*3 15.4 C 0 km/h
3134 01-06-2008 03:18:03 15.5 C 11.5 g/m*3 15.5 C 0 km/h
3135 01-06-2008 03:30:03 15.6 C 11.57 g/m*3 15.6 C 0 km/h
3136 01-06-2008 03:42:03 15.5 C 11.5 g/m*3 15.5 C 0 km/h
3137 01-06-2008 03:54:03 15.5 C 11.5 g/m*3 15.5 C 0 km/h
3138 01-06-2008 04:06:04 15 C 11.16 g/m*3 15 C 0 km/h
3139 01-06-2008 04:18:04 14.7 C 11.08 g/m*3 14.7 C 0 km/h
3140 01-06-2008 04:30:04 14.6 C 11.14 g/m*3 14.6 C 0 km/h
3141 01-06-2008 04:42:04 14.6 C 11.14 g/m*3 14.6 C 0 km/h
3142 01-06-2008 04:54:04 14.2 C 10.87 g/m*3 14.2 C 0 km/h
3143 01-06-2008 05:06:04 14.1 C 10.92 g/m*3 14.1 C 0 km/h
3144 01-06-2008 05:18:04 14.7 C 11.46 g/m*3 14.7 C 0 km/h
3145 01-06-2008 05:30:04 14.8 C 11.53 g/m*3 14.8 C 0 km/h
3146 01-06-2008 05:42:04 14.5 C 11.32 g/m*3 14.5 C 0 km/h
3147 01-06-2008 05:54:04 14.4 C 11.13 g/m*3 14.4 C 0 km/h
3148 01-06-2008 06:06:04 14.2 C 10.99 g/m*3 14.2 C 0 km/h
3149 01-06-2008 06:18:04 14.6 C 11.39 g/m*3 14.6 C 0 km/h
3150 01-06-2008 06:30:04 14.8 C 11.53 g/m*3 14.8 C 0 km/h
Sensor: Nr:Datum:Temp:Abs-Feuchte:Windchill:Wind:
Aussen-T/F 3151 01-06-2008 06:42:04 15.2 C 11.81 g/m*3 15.2 C 0 km/h
3152 01-06-2008 06:54:04 15.5 C 12.03 g/m*3 15.5 C 0 km/h
3153 01-06-2008 07:06:04 15.9 C 12.32 g/m*3 15.9 C 0 km/h
3154 01-06-2008 07:18:04 15.9 C 11.92 g/m*3 15.9 C 0 km/h
3155 01-06-2008 07:30:04 16.2 C 11.86 g/m*3 16.2 C 0 km/h
3156 01-06-2008 07:42:04 16.7 C 11.94 g/m*3 16.7 C 0 km/h
3157 01-06-2008 07:54:04 16.8 C 11.72 g/m*3 16.8 C 0 km/h
3158 01-06-2008 08:06:05 17.1 C 11.5 g/m*3 17.1 C 0 km/h
3159 01-06-2008 08:18:05 17.4 C 11.26 g/m*3 17.4 C 0 km/h
3160 01-06-2008 08:30:05 17.4 C 11.12 g/m*3 17.4 C 0 km/h
3161 01-06-2008 08:42:03 17.5 C 11.33 g/m*3 17.5 C 0 km/h
3162 01-06-2008 08:54:03 17.9 C 10.99 g/m*3 17.9 C 0 km/h
3163 01-06-2008 09:06:02 18.2 C 11.04 g/m*3 18.2 C 0 km/h
3164 01-06-2008 09:18:02 18.5 C 10.76 g/m*3 18.5 C 0 km/h
3165 01-06-2008 09:30:02 19 C 10.92 g/m*3 19 C 0 km/h
3166 01-06-2008 09:42:03 19.2 C 10.88 g/m*3 19.2 C 0 km/h
3167 01-06-2008 09:54:03 19.6 C 10.8 g/m*3 19.6 C 0 km/h
3168 01-06-2008 10:06:02 20.3 C 10.55 g/m*3 20.3 C 0 km/h
3169 01-06-2008 10:18:02 20.5 C 10.32 g/m*3 20.5 C 0 km/h
3170 01-06-2008 10:30:02 20.8 C 10.5 g/m*3 20.8 C 0 km/h
3171 01-06-2008 10:42:03 20.8 C 10.32 g/m*3 20.8 C 0 km/h
3172 01-06-2008 10:54:02 21.3 C 10.81 g/m*3 21.3 C 0 km/h
3173 01-06-2008 11:06:02 22 C 10.48 g/m*3 22 C 0 km/h
3174 01-06-2008 11:18:02 22.5 C 10.59 g/m*3 22.5 C 0 km/h
3175 01-06-2008 11:30:02 23.6 C 10.63 g/m*3 23.6 C 0 km/h
Sensor: Nr:Datum:Temp:Abs-Feuchte:Windchill:Wind:
Aussen-T/F 3176 01-06-2008 11:42:02 23.6 C 10.42 g/m*3 23.6 C 0 km/h
3177 01-06-2008 11:54:01 23.8 C 10.33 g/m*3 23.8 C 0 km/h
3178 01-06-2008 12:06:01 25.4 C 9.89 g/m*3 25.4 C 0 km/h
3179 01-06-2008 12:18:02 26 C 9.25 g/m*3 26 C 0 km/h
3180 01-06-2008 12:30:02 26 C 9.25 g/m*3 26 C 0 km/h
3181 01-06-2008 12:42:02 26.7 C 9.62 g/m*3 26.7 C 0 km/h
3182 01-06-2008 12:54:02 26.4 C 8.96 g/m*3 26.4 C 0 km/h
3183 01-06-2008 13:06:02 27.5 C 9.26 g/m*3 27.5 C 0 km/h
3184 01-06-2008 13:18:02 27.2 C 8.59 g/m*3 27.2 C 0 km/h
3185 01-06-2008 13:30:02 28 C 8.43 g/m*3 28 C 0 km/h
3186 01-06-2008 13:42:02 27.9 C 8.65 g/m*3 27.9 C 0 km/h
3187 01-06-2008 13:54:02 28.6 C 8.43 g/m*3 28.6 C 0 km/h
3188 01-06-2008 14:06:02 28 C 8.7 g/m*3 28 C 0 km/h
3189 01-06-2008 14:18:02 27.3 C 9.16 g/m*3 27.3 C 0 km/h
3190 01-06-2008 14:30:02 28.3 C 9.4 g/m*3 28.3 C 0 km/h
3191 01-06-2008 14:42:01 28.4 C 9.17 g/m*3 28.4 C 0 km/h
3192 01-06-2008 14:54:01 29 C 8.9 g/m*3 29 C 0 km/h
3193 01-06-2008 15:06:02 28 C 8.7 g/m*3 28 C 0 km/h
3194 01-06-2008 15:18:02 29.3 C 9.63 g/m*3 29.3 C 0 km/h
3195 01-06-2008 15:30:02 29.3 C 9.05 g/m*3 29.3 C 0 km/h
3196 01-06-2008 15:42:02 30.1 C 9.15 g/m*3 30.1 C 0 km/h
3197 01-06-2008 15:54:02 29.2 C 9.29 g/m*3 29.2 C 0 km/h
3198 01-06-2008 16:06:02 28.9 C 9.43 g/m*3 28.9 C 0 km/h
3199 01-06-2008 16:18:02 28.8 C 9.38 g/m*3 28.8 C 0 km/h
3200 01-06-2008 16:30:02 29.3 C 9.05 g/m*3 29.3 C 0 km/h
Sensor: Nr:Datum:Temp:Abs-Feuchte:Windchill:Wind:
Aussen-T/F 3201 01-06-2008 16:42:02 30.1 C 9.15 g/m*3 30.1 C 0 km/h
3202 01-06-2008 16:54:02 29.6 C 9.2 g/m*3 29.6 C 0 km/h
3203 01-06-2008 17:06:02 28.7 C 9.32 g/m*3 28.7 C 0 km/h
3204 01-06-2008 17:18:03 28.4 C 10.01 g/m*3 28.4 C 0 km/h
3205 01-06-2008 17:30:03 28.7 C 11.3 g/m*3 28.7 C 0 km/h
3206 01-06-2008 17:42:03 28.6 C 10.68 g/m*3 28.6 C 0 km/h
3207 01-06-2008 17:54:02 28.4 C 11.12 g/m*3 28.4 C 0 km/h
3208 01-06-2008 18:06:03 28.4 C 11.4 g/m*3 28.4 C 0 km/h
3209 01-06-2008 18:18:03 28 C 11.42 g/m*3 28 C 0 km/h
3210 01-06-2008 18:30:03 27.6 C 10.91 g/m*3 27.6 C 0 km/h
3211 01-06-2008 18:42:02 26.8 C 11.45 g/m*3 26.8 C 0 km/h
3212 01-06-2008 18:54:02 26.4 C 11.7 g/m*3 26.4 C 0 km/h
3213 01-06-2008 19:06:02 25.8 C 12.04 g/m*3 25.8 C 0 km/h
3214 01-06-2008 19:18:02 26.4 C 11.7 g/m*3 26.4 C 0 km/h
3215 01-06-2008 19:30:02 26.2 C 12.06 g/m*3 26.2 C 0 km/h
3216 01-06-2008 19:42:01 25.7 C 11.73 g/m*3 25.7 C 0 km/h
3217 01-06-2008 19:54:02 25.5 C 11.36 g/m*3 25.5 C 0 km/h
3218 01-06-2008 20:06:02 25 C 10.82 g/m*3 25 C 0 km/h
3219 01-06-2008 20:18:02 24.7 C 11.32 g/m*3 24.7 C 0 km/h
3220 01-06-2008 20:30:02 24.2 C 11.22 g/m*3 24.2 C 0 km/h
3221 01-06-2008 20:42:02 23.7 C 11.12 g/m*3 23.7 C 0 km/h
3222 01-06-2008 20:54:02 23.5 C 11.21 g/m*3 23.5 C 0 km/h
3223 01-06-2008 21:06:02 23.2 C 11.23 g/m*3 23.2 C 0 km/h
3224 01-06-2008 21:18:01 22.9 C 11.44 g/m*3